<?xml version="1.0" encoding="UTF-8" standalone="no" ?>
<gpx xmlns="http://www.topografix.com/GPX/1/1" xmlns:xsi="http://www.w3.org/2001/XMLSchema-instance" xsi:schemaLocation="http://www.topografix.com/GPX/1/1 http://www.topografix.com/GPX/1/1/gpx.xsd" version="1.1" creator="VisuGPX - https://www.visugpx.com">
  <metadata>
    <name>puy chopine et gouttes</name>
  </metadata>
  <trk>
    <name><![CDATA[puy chopine et gouttes_1]]></name>
    <extensions>
      <line xmlns="http://www.topografix.com/GPX/gpx_style/0/2">
        <color>0000FF</color>
        <width>4</width>
      </line>
    </extensions>
    <trkseg>
      <trkpt lat="45.81452" lon="2.95837">
        <ele>1017</ele>
        <time>2021-05-23T11:11:35Z</time>
      </trkpt>
      <trkpt lat="45.81452" lon="2.95837">
        <ele>1017</ele>
        <time>2021-05-23T11:11:36Z</time>
      </trkpt>
      <trkpt lat="45.81453" lon="2.95837">
        <ele>1017</ele>
        <time>2021-05-23T11:11:37Z</time>
      </trkpt>
      <trkpt lat="45.81453" lon="2.95838">
        <ele>1017</ele>
        <time>2021-05-23T11:11:38Z</time>
      </trkpt>
      <trkpt lat="45.81454" lon="2.95839">
        <ele>1017</ele>
        <time>2021-05-23T11:11:39Z</time>
      </trkpt>
      <trkpt lat="45.81455" lon="2.95839">
        <ele>1017</ele>
        <time>2021-05-23T11:11:40Z</time>
      </trkpt>
      <trkpt lat="45.81456" lon="2.95841">
        <ele>1017</ele>
        <time>2021-05-23T11:11:41Z</time>
      </trkpt>
      <trkpt lat="45.81457" lon="2.95842">
        <ele>1017</ele>
        <time>2021-05-23T11:11:42Z</time>
      </trkpt>
      <trkpt lat="45.81458" lon="2.95843">
        <ele>1017</ele>
        <time>2021-05-23T11:11:43Z</time>
      </trkpt>
      <trkpt lat="45.81458" lon="2.95845">
        <ele>1017</ele>
        <time>2021-05-23T11:11:48Z</time>
      </trkpt>
      <trkpt lat="45.81461" lon="2.9585">
        <ele>1017</ele>
        <time>2021-05-23T11:11:49Z</time>
      </trkpt>
      <trkpt lat="45.81464" lon="2.95852">
        <ele>1017</ele>
        <time>2021-05-23T11:11:50Z</time>
      </trkpt>
      <trkpt lat="45.81464" lon="2.95853">
        <ele>1017</ele>
        <time>2021-05-23T11:11:51Z</time>
      </trkpt>
      <trkpt lat="45.81464" lon="2.95853">
        <ele>1017</ele>
        <time>2021-05-23T11:11:52Z</time>
      </trkpt>
      <trkpt lat="45.81464" lon="2.95854">
        <ele>1017</ele>
        <time>2021-05-23T11:11:53Z</time>
      </trkpt>
      <trkpt lat="45.81464" lon="2.95855">
        <ele>1017</ele>
        <time>2021-05-23T11:11:54Z</time>
      </trkpt>
      <trkpt lat="45.81465" lon="2.95856">
        <ele>1017</ele>
        <time>2021-05-23T11:11:55Z</time>
      </trkpt>
      <trkpt lat="45.81466" lon="2.95857">
        <ele>1017</ele>
        <time>2021-05-23T11:11:56Z</time>
      </trkpt>
      <trkpt lat="45.81467" lon="2.95858">
        <ele>1017</ele>
        <time>2021-05-23T11:11:57Z</time>
      </trkpt>
      <trkpt lat="45.81467" lon="2.95858">
        <ele>1017</ele>
        <time>2021-05-23T11:11:59Z</time>
      </trkpt>
      <trkpt lat="45.81465" lon="2.95858">
        <ele>1017</ele>
        <time>2021-05-23T11:12:00Z</time>
      </trkpt>
      <trkpt lat="45.81465" lon="2.95857">
        <ele>1017</ele>
        <time>2021-05-23T11:12:01Z</time>
      </trkpt>
      <trkpt lat="45.81466" lon="2.95857">
        <ele>1017</ele>
        <time>2021-05-23T11:12:02Z</time>
      </trkpt>
      <trkpt lat="45.81466" lon="2.95856">
        <ele>1017</ele>
        <time>2021-05-23T11:12:03Z</time>
      </trkpt>
      <trkpt lat="45.81467" lon="2.95857">
        <ele>1017</ele>
        <time>2021-05-23T11:12:04Z</time>
      </trkpt>
      <trkpt lat="45.81469" lon="2.95857">
        <ele>1017</ele>
        <time>2021-05-23T11:12:05Z</time>
      </trkpt>
      <trkpt lat="45.8147" lon="2.95857">
        <ele>1017</ele>
        <time>2021-05-23T11:12:06Z</time>
      </trkpt>
      <trkpt lat="45.81471" lon="2.95858">
        <ele>1017</ele>
        <time>2021-05-23T11:12:07Z</time>
      </trkpt>
      <trkpt lat="45.81473" lon="2.95858">
        <ele>1017</ele>
        <time>2021-05-23T11:12:08Z</time>
      </trkpt>
      <trkpt lat="45.81474" lon="2.95858">
        <ele>1017</ele>
        <time>2021-05-23T11:12:09Z</time>
      </trkpt>
      <trkpt lat="45.81476" lon="2.95858">
        <ele>1017</ele>
        <time>2021-05-23T11:12:10Z</time>
      </trkpt>
      <trkpt lat="45.81477" lon="2.95858">
        <ele>1017</ele>
        <time>2021-05-23T11:12:11Z</time>
      </trkpt>
      <trkpt lat="45.81477" lon="2.95857">
        <ele>1017</ele>
        <time>2021-05-23T11:12:12Z</time>
      </trkpt>
      <trkpt lat="45.81477" lon="2.95857">
        <ele>1017</ele>
        <time>2021-05-23T11:12:13Z</time>
      </trkpt>
      <trkpt lat="45.81476" lon="2.95856">
        <ele>1017</ele>
        <time>2021-05-23T11:12:14Z</time>
      </trkpt>
      <trkpt lat="45.81476" lon="2.95856">
        <ele>1017</ele>
        <time>2021-05-23T11:12:15Z</time>
      </trkpt>
      <trkpt lat="45.81475" lon="2.95856">
        <ele>1017</ele>
        <time>2021-05-23T11:12:16Z</time>
      </trkpt>
      <trkpt lat="45.81474" lon="2.95855">
        <ele>1017</ele>
        <time>2021-05-23T11:12:17Z</time>
      </trkpt>
      <trkpt lat="45.81472" lon="2.95855">
        <ele>1017</ele>
        <time>2021-05-23T11:12:18Z</time>
      </trkpt>
      <trkpt lat="45.81471" lon="2.95854">
        <ele>1017</ele>
        <time>2021-05-23T11:12:19Z</time>
      </trkpt>
      <trkpt lat="45.81469" lon="2.95854">
        <ele>1017</ele>
        <time>2021-05-23T11:12:20Z</time>
      </trkpt>
      <trkpt lat="45.81468" lon="2.95853">
        <ele>1017</ele>
        <time>2021-05-23T11:12:21Z</time>
      </trkpt>
      <trkpt lat="45.81466" lon="2.95852">
        <ele>1017</ele>
        <time>2021-05-23T11:12:22Z</time>
      </trkpt>
      <trkpt lat="45.81464" lon="2.95852">
        <ele>1017</ele>
        <time>2021-05-23T11:12:23Z</time>
      </trkpt>
      <trkpt lat="45.81464" lon="2.95852">
        <ele>1017</ele>
        <time>2021-05-23T11:12:24Z</time>
      </trkpt>
      <trkpt lat="45.81463" lon="2.95852">
        <ele>1017</ele>
        <time>2021-05-23T11:12:25Z</time>
      </trkpt>
      <trkpt lat="45.81463" lon="2.95853">
        <ele>1017</ele>
        <time>2021-05-23T11:12:26Z</time>
      </trkpt>
      <trkpt lat="45.81463" lon="2.95854">
        <ele>1017</ele>
        <time>2021-05-23T11:12:27Z</time>
      </trkpt>
      <trkpt lat="45.81464" lon="2.95855">
        <ele>1017</ele>
        <time>2021-05-23T11:12:28Z</time>
      </trkpt>
      <trkpt lat="45.81463" lon="2.95856">
        <ele>1017</ele>
        <time>2021-05-23T11:12:29Z</time>
      </trkpt>
      <trkpt lat="45.81463" lon="2.95857">
        <ele>1017</ele>
        <time>2021-05-23T11:12:30Z</time>
      </trkpt>
      <trkpt lat="45.81463" lon="2.95858">
        <ele>1017</ele>
        <time>2021-05-23T11:12:31Z</time>
      </trkpt>
      <trkpt lat="45.81463" lon="2.9586">
        <ele>1017</ele>
        <time>2021-05-23T11:12:32Z</time>
      </trkpt>
      <trkpt lat="45.81463" lon="2.95861">
        <ele>1017</ele>
        <time>2021-05-23T11:12:33Z</time>
      </trkpt>
      <trkpt lat="45.81462" lon="2.95863">
        <ele>1017</ele>
        <time>2021-05-23T11:12:34Z</time>
      </trkpt>
      <trkpt lat="45.81461" lon="2.95865">
        <ele>1017</ele>
        <time>2021-05-23T11:12:35Z</time>
      </trkpt>
      <trkpt lat="45.81461" lon="2.95867">
        <ele>1017</ele>
        <time>2021-05-23T11:12:36Z</time>
      </trkpt>
      <trkpt lat="45.81459" lon="2.95869">
        <ele>1017</ele>
        <time>2021-05-23T11:12:37Z</time>
      </trkpt>
      <trkpt lat="45.81459" lon="2.95871">
        <ele>1017</ele>
        <time>2021-05-23T11:12:38Z</time>
      </trkpt>
      <trkpt lat="45.81459" lon="2.95873">
        <ele>1017</ele>
        <time>2021-05-23T11:12:39Z</time>
      </trkpt>
      <trkpt lat="45.81461" lon="2.95876">
        <ele>1017</ele>
        <time>2021-05-23T11:12:40Z</time>
      </trkpt>
      <trkpt lat="45.81463" lon="2.95878">
        <ele>1017</ele>
        <time>2021-05-23T11:12:41Z</time>
      </trkpt>
      <trkpt lat="45.81464" lon="2.95881">
        <ele>1017</ele>
        <time>2021-05-23T11:12:42Z</time>
      </trkpt>
      <trkpt lat="45.81464" lon="2.95884">
        <ele>1017</ele>
        <time>2021-05-23T11:12:43Z</time>
      </trkpt>
      <trkpt lat="45.81464" lon="2.95887">
        <ele>1017</ele>
        <time>2021-05-23T11:12:44Z</time>
      </trkpt>
      <trkpt lat="45.81466" lon="2.95888">
        <ele>1017</ele>
        <time>2021-05-23T11:12:45Z</time>
      </trkpt>
      <trkpt lat="45.81466" lon="2.95889">
        <ele>1017</ele>
        <time>2021-05-23T11:12:46Z</time>
      </trkpt>
      <trkpt lat="45.81467" lon="2.95889">
        <ele>1017</ele>
        <time>2021-05-23T11:12:47Z</time>
      </trkpt>
      <trkpt lat="45.81468" lon="2.95889">
        <ele>1017</ele>
        <time>2021-05-23T11:12:48Z</time>
      </trkpt>
      <trkpt lat="45.81469" lon="2.95888">
        <ele>1017</ele>
        <time>2021-05-23T11:12:49Z</time>
      </trkpt>
      <trkpt lat="45.81469" lon="2.95887">
        <ele>1017</ele>
        <time>2021-05-23T11:12:50Z</time>
      </trkpt>
      <trkpt lat="45.8147" lon="2.95885">
        <ele>1017</ele>
        <time>2021-05-23T11:12:51Z</time>
      </trkpt>
      <trkpt lat="45.8147" lon="2.95883">
        <ele>1017</ele>
        <time>2021-05-23T11:12:52Z</time>
      </trkpt>
      <trkpt lat="45.81469" lon="2.95881">
        <ele>1017</ele>
        <time>2021-05-23T11:12:53Z</time>
      </trkpt>
      <trkpt lat="45.81468" lon="2.95879">
        <ele>1017</ele>
        <time>2021-05-23T11:12:54Z</time>
      </trkpt>
      <trkpt lat="45.81467" lon="2.95877">
        <ele>1017</ele>
        <time>2021-05-23T11:12:55Z</time>
      </trkpt>
      <trkpt lat="45.81467" lon="2.95875">
        <ele>1017</ele>
        <time>2021-05-23T11:12:56Z</time>
      </trkpt>
      <trkpt lat="45.81466" lon="2.95873">
        <ele>1017</ele>
        <time>2021-05-23T11:12:57Z</time>
      </trkpt>
      <trkpt lat="45.81465" lon="2.95871">
        <ele>1017</ele>
        <time>2021-05-23T11:12:58Z</time>
      </trkpt>
      <trkpt lat="45.81464" lon="2.95869">
        <ele>1017</ele>
        <time>2021-05-23T11:12:59Z</time>
      </trkpt>
      <trkpt lat="45.81464" lon="2.95868">
        <ele>1017</ele>
        <time>2021-05-23T11:13:00Z</time>
      </trkpt>
      <trkpt lat="45.81464" lon="2.95866">
        <ele>1017</ele>
        <time>2021-05-23T11:13:01Z</time>
      </trkpt>
      <trkpt lat="45.81463" lon="2.95863">
        <ele>1017</ele>
        <time>2021-05-23T11:13:02Z</time>
      </trkpt>
      <trkpt lat="45.81462" lon="2.9586">
        <ele>1017</ele>
        <time>2021-05-23T11:13:03Z</time>
      </trkpt>
      <trkpt lat="45.81461" lon="2.95856">
        <ele>1017</ele>
        <time>2021-05-23T11:13:04Z</time>
      </trkpt>
      <trkpt lat="45.81461" lon="2.95853">
        <ele>1017</ele>
        <time>2021-05-23T11:13:05Z</time>
      </trkpt>
      <trkpt lat="45.81461" lon="2.95851">
        <ele>1017</ele>
        <time>2021-05-23T11:13:06Z</time>
      </trkpt>
      <trkpt lat="45.8146" lon="2.9585">
        <ele>1017</ele>
        <time>2021-05-23T11:13:07Z</time>
      </trkpt>
      <trkpt lat="45.81459" lon="2.95848">
        <ele>1017</ele>
        <time>2021-05-23T11:13:09Z</time>
      </trkpt>
      <trkpt lat="45.81458" lon="2.95847">
        <ele>1017</ele>
        <time>2021-05-23T11:13:11Z</time>
      </trkpt>
      <trkpt lat="45.81457" lon="2.95846">
        <ele>1017</ele>
        <time>2021-05-23T11:13:13Z</time>
      </trkpt>
      <trkpt lat="45.81455" lon="2.95843">
        <ele>1017</ele>
        <time>2021-05-23T11:13:15Z</time>
      </trkpt>
      <trkpt lat="45.81452" lon="2.95839">
        <ele>1017</ele>
        <time>2021-05-23T11:13:17Z</time>
      </trkpt>
      <trkpt lat="45.8145" lon="2.95836">
        <ele>1017</ele>
        <time>2021-05-23T11:13:19Z</time>
      </trkpt>
      <trkpt lat="45.81448" lon="2.95834">
        <ele>1017</ele>
        <time>2021-05-23T11:13:21Z</time>
      </trkpt>
      <trkpt lat="45.81447" lon="2.95832">
        <ele>1017</ele>
        <time>2021-05-23T11:13:23Z</time>
      </trkpt>
      <trkpt lat="45.81446" lon="2.9583">
        <ele>1017</ele>
        <time>2021-05-23T11:13:25Z</time>
      </trkpt>
      <trkpt lat="45.81445" lon="2.95829">
        <ele>1017</ele>
        <time>2021-05-23T11:13:27Z</time>
      </trkpt>
      <trkpt lat="45.81443" lon="2.95828">
        <ele>1017</ele>
        <time>2021-05-23T11:13:29Z</time>
      </trkpt>
      <trkpt lat="45.81442" lon="2.95828">
        <ele>1017</ele>
        <time>2021-05-23T11:13:31Z</time>
      </trkpt>
      <trkpt lat="45.8144" lon="2.95828">
        <ele>1017</ele>
        <time>2021-05-23T11:13:33Z</time>
      </trkpt>
      <trkpt lat="45.81437" lon="2.95829">
        <ele>1017</ele>
        <time>2021-05-23T11:13:35Z</time>
      </trkpt>
      <trkpt lat="45.81436" lon="2.9583">
        <ele>1017</ele>
        <time>2021-05-23T11:13:37Z</time>
      </trkpt>
      <trkpt lat="45.81434" lon="2.9583">
        <ele>1017</ele>
        <time>2021-05-23T11:13:39Z</time>
      </trkpt>
      <trkpt lat="45.81433" lon="2.95828">
        <ele>1017</ele>
        <time>2021-05-23T11:13:41Z</time>
      </trkpt>
      <trkpt lat="45.81431" lon="2.95825">
        <ele>1017</ele>
        <time>2021-05-23T11:13:43Z</time>
      </trkpt>
      <trkpt lat="45.81429" lon="2.95821">
        <ele>1017</ele>
        <time>2021-05-23T11:13:45Z</time>
      </trkpt>
      <trkpt lat="45.81426" lon="2.95816">
        <ele>1017</ele>
        <time>2021-05-23T11:13:47Z</time>
      </trkpt>
      <trkpt lat="45.81422" lon="2.95811">
        <ele>1017</ele>
        <time>2021-05-23T11:13:49Z</time>
      </trkpt>
      <trkpt lat="45.81421" lon="2.95807">
        <ele>1017</ele>
        <time>2021-05-23T11:13:51Z</time>
      </trkpt>
      <trkpt lat="45.81419" lon="2.95803">
        <ele>1017</ele>
        <time>2021-05-23T11:13:53Z</time>
      </trkpt>
      <trkpt lat="45.81417" lon="2.958">
        <ele>1017</ele>
        <time>2021-05-23T11:13:55Z</time>
      </trkpt>
      <trkpt lat="45.81416" lon="2.95797">
        <ele>1017</ele>
        <time>2021-05-23T11:13:57Z</time>
      </trkpt>
      <trkpt lat="45.81416" lon="2.95794">
        <ele>1017</ele>
        <time>2021-05-23T11:13:59Z</time>
      </trkpt>
      <trkpt lat="45.81415" lon="2.95792">
        <ele>1017</ele>
        <time>2021-05-23T11:14:01Z</time>
      </trkpt>
      <trkpt lat="45.81414" lon="2.95788">
        <ele>1017</ele>
        <time>2021-05-23T11:14:03Z</time>
      </trkpt>
      <trkpt lat="45.81416" lon="2.95784">
        <ele>1017</ele>
        <time>2021-05-23T11:14:05Z</time>
      </trkpt>
      <trkpt lat="45.81418" lon="2.9578">
        <ele>1017</ele>
        <time>2021-05-23T11:14:07Z</time>
      </trkpt>
      <trkpt lat="45.81419" lon="2.95777">
        <ele>1017</ele>
        <time>2021-05-23T11:14:09Z</time>
      </trkpt>
      <trkpt lat="45.81419" lon="2.95772">
        <ele>1017</ele>
        <time>2021-05-23T11:14:11Z</time>
      </trkpt>
      <trkpt lat="45.81419" lon="2.95768">
        <ele>1017</ele>
        <time>2021-05-23T11:14:13Z</time>
      </trkpt>
      <trkpt lat="45.81419" lon="2.95764">
        <ele>1017</ele>
        <time>2021-05-23T11:14:15Z</time>
      </trkpt>
      <trkpt lat="45.81418" lon="2.95758">
        <ele>1017</ele>
        <time>2021-05-23T11:14:17Z</time>
      </trkpt>
      <trkpt lat="45.81416" lon="2.95749">
        <ele>1017</ele>
        <time>2021-05-23T11:14:19Z</time>
      </trkpt>
      <trkpt lat="45.81416" lon="2.95741">
        <ele>1017</ele>
        <time>2021-05-23T11:14:21Z</time>
      </trkpt>
      <trkpt lat="45.81416" lon="2.95735">
        <ele>1017</ele>
        <time>2021-05-23T11:14:23Z</time>
      </trkpt>
      <trkpt lat="45.81418" lon="2.95731">
        <ele>1017</ele>
        <time>2021-05-23T11:14:25Z</time>
      </trkpt>
      <trkpt lat="45.81421" lon="2.95729">
        <ele>1017</ele>
        <time>2021-05-23T11:14:27Z</time>
      </trkpt>
      <trkpt lat="45.81423" lon="2.95724">
        <ele>1017</ele>
        <time>2021-05-23T11:14:29Z</time>
      </trkpt>
      <trkpt lat="45.81422" lon="2.95719">
        <ele>1017</ele>
        <time>2021-05-23T11:14:31Z</time>
      </trkpt>
      <trkpt lat="45.81422" lon="2.95714">
        <ele>1017</ele>
        <time>2021-05-23T11:14:33Z</time>
      </trkpt>
      <trkpt lat="45.81423" lon="2.95709">
        <ele>1017</ele>
        <time>2021-05-23T11:14:35Z</time>
      </trkpt>
      <trkpt lat="45.81424" lon="2.95705">
        <ele>1017</ele>
        <time>2021-05-23T11:14:37Z</time>
      </trkpt>
      <trkpt lat="45.81425" lon="2.95702">
        <ele>1017</ele>
        <time>2021-05-23T11:14:39Z</time>
      </trkpt>
      <trkpt lat="45.81425" lon="2.95698">
        <ele>1017</ele>
        <time>2021-05-23T11:14:41Z</time>
      </trkpt>
      <trkpt lat="45.81425" lon="2.95695">
        <ele>1017</ele>
        <time>2021-05-23T11:14:43Z</time>
      </trkpt>
      <trkpt lat="45.81425" lon="2.95691">
        <ele>1017</ele>
        <time>2021-05-23T11:14:45Z</time>
      </trkpt>
      <trkpt lat="45.81424" lon="2.95687">
        <ele>1017</ele>
        <time>2021-05-23T11:14:47Z</time>
      </trkpt>
      <trkpt lat="45.81423" lon="2.95683">
        <ele>1017</ele>
        <time>2021-05-23T11:14:49Z</time>
      </trkpt>
      <trkpt lat="45.81423" lon="2.95679">
        <ele>1017</ele>
        <time>2021-05-23T11:14:51Z</time>
      </trkpt>
      <trkpt lat="45.81424" lon="2.95675">
        <ele>1017</ele>
        <time>2021-05-23T11:14:53Z</time>
      </trkpt>
      <trkpt lat="45.81424" lon="2.95672">
        <ele>1017</ele>
        <time>2021-05-23T11:14:55Z</time>
      </trkpt>
      <trkpt lat="45.81424" lon="2.95668">
        <ele>1017</ele>
        <time>2021-05-23T11:14:57Z</time>
      </trkpt>
      <trkpt lat="45.81425" lon="2.95665">
        <ele>1017</ele>
        <time>2021-05-23T11:14:59Z</time>
      </trkpt>
      <trkpt lat="45.81425" lon="2.95662">
        <ele>1017</ele>
        <time>2021-05-23T11:15:01Z</time>
      </trkpt>
      <trkpt lat="45.81425" lon="2.95658">
        <ele>1017</ele>
        <time>2021-05-23T11:15:03Z</time>
      </trkpt>
      <trkpt lat="45.81425" lon="2.95655">
        <ele>1017</ele>
        <time>2021-05-23T11:15:05Z</time>
      </trkpt>
      <trkpt lat="45.81424" lon="2.95651">
        <ele>1017</ele>
        <time>2021-05-23T11:15:07Z</time>
      </trkpt>
      <trkpt lat="45.81422" lon="2.95647">
        <ele>1017</ele>
        <time>2021-05-23T11:15:09Z</time>
      </trkpt>
      <trkpt lat="45.81421" lon="2.95643">
        <ele>1017</ele>
        <time>2021-05-23T11:15:11Z</time>
      </trkpt>
      <trkpt lat="45.8142" lon="2.95641">
        <ele>1017</ele>
        <time>2021-05-23T11:15:13Z</time>
      </trkpt>
      <trkpt lat="45.81418" lon="2.95638">
        <ele>1017</ele>
        <time>2021-05-23T11:15:15Z</time>
      </trkpt>
      <trkpt lat="45.81416" lon="2.95636">
        <ele>1017</ele>
        <time>2021-05-23T11:15:17Z</time>
      </trkpt>
      <trkpt lat="45.81415" lon="2.95633">
        <ele>1017</ele>
        <time>2021-05-23T11:15:19Z</time>
      </trkpt>
      <trkpt lat="45.81412" lon="2.95631">
        <ele>1017</ele>
        <time>2021-05-23T11:15:29Z</time>
      </trkpt>
      <trkpt lat="45.81412" lon="2.95643">
        <ele>1017</ele>
        <time>2021-05-23T11:15:33Z</time>
      </trkpt>
      <trkpt lat="45.81412" lon="2.95644">
        <ele>1017</ele>
        <time>2021-05-23T11:15:35Z</time>
      </trkpt>
      <trkpt lat="45.81412" lon="2.95647">
        <ele>1017</ele>
        <time>2021-05-23T11:15:37Z</time>
      </trkpt>
      <trkpt lat="45.81413" lon="2.95657">
        <ele>1017</ele>
        <time>2021-05-23T11:15:41Z</time>
      </trkpt>
      <trkpt lat="45.81413" lon="2.95658">
        <ele>1017</ele>
        <time>2021-05-23T11:15:42Z</time>
      </trkpt>
      <trkpt lat="45.81413" lon="2.95661">
        <ele>1017</ele>
        <time>2021-05-23T11:15:44Z</time>
      </trkpt>
      <trkpt lat="45.81413" lon="2.95663">
        <ele>1017</ele>
        <time>2021-05-23T11:15:46Z</time>
      </trkpt>
      <trkpt lat="45.81412" lon="2.95665">
        <ele>1017</ele>
        <time>2021-05-23T11:15:48Z</time>
      </trkpt>
      <trkpt lat="45.81411" lon="2.95666">
        <ele>1017</ele>
        <time>2021-05-23T11:15:50Z</time>
      </trkpt>
      <trkpt lat="45.81411" lon="2.95665">
        <ele>1017</ele>
        <time>2021-05-23T11:15:52Z</time>
      </trkpt>
      <trkpt lat="45.81413" lon="2.95661">
        <ele>1017</ele>
        <time>2021-05-23T11:15:56Z</time>
      </trkpt>
      <trkpt lat="45.81413" lon="2.9566">
        <ele>1017</ele>
        <time>2021-05-23T11:15:58Z</time>
      </trkpt>
      <trkpt lat="45.81413" lon="2.95657">
        <ele>1017</ele>
        <time>2021-05-23T11:16:00Z</time>
      </trkpt>
      <trkpt lat="45.81414" lon="2.95647">
        <ele>1017</ele>
        <time>2021-05-23T11:16:04Z</time>
      </trkpt>
      <trkpt lat="45.81414" lon="2.95645">
        <ele>1017</ele>
        <time>2021-05-23T11:16:06Z</time>
      </trkpt>
      <trkpt lat="45.81413" lon="2.95644">
        <ele>1017</ele>
        <time>2021-05-23T11:16:08Z</time>
      </trkpt>
      <trkpt lat="45.81413" lon="2.95642">
        <ele>1017</ele>
        <time>2021-05-23T11:16:10Z</time>
      </trkpt>
      <trkpt lat="45.81412" lon="2.9564">
        <ele>1017</ele>
        <time>2021-05-23T11:16:12Z</time>
      </trkpt>
      <trkpt lat="45.81411" lon="2.95637">
        <ele>1017</ele>
        <time>2021-05-23T11:16:14Z</time>
      </trkpt>
      <trkpt lat="45.8141" lon="2.95633">
        <ele>1017</ele>
        <time>2021-05-23T11:16:16Z</time>
      </trkpt>
      <trkpt lat="45.81408" lon="2.95618">
        <ele>1017</ele>
        <time>2021-05-23T11:16:26Z</time>
      </trkpt>
      <trkpt lat="45.8141" lon="2.95609">
        <ele>1017</ele>
        <time>2021-05-23T11:16:32Z</time>
      </trkpt>
      <trkpt lat="45.8141" lon="2.95607">
        <ele>1017</ele>
        <time>2021-05-23T11:16:34Z</time>
      </trkpt>
      <trkpt lat="45.8141" lon="2.95604">
        <ele>1017</ele>
        <time>2021-05-23T11:16:36Z</time>
      </trkpt>
      <trkpt lat="45.81409" lon="2.956">
        <ele>1017</ele>
        <time>2021-05-23T11:16:38Z</time>
      </trkpt>
      <trkpt lat="45.81408" lon="2.95584">
        <ele>1017</ele>
        <time>2021-05-23T11:16:42Z</time>
      </trkpt>
      <trkpt lat="45.81408" lon="2.95583">
        <ele>1017</ele>
        <time>2021-05-23T11:16:44Z</time>
      </trkpt>
      <trkpt lat="45.81407" lon="2.9558">
        <ele>1017</ele>
        <time>2021-05-23T11:16:46Z</time>
      </trkpt>
      <trkpt lat="45.81407" lon="2.95576">
        <ele>1017</ele>
        <time>2021-05-23T11:16:48Z</time>
      </trkpt>
      <trkpt lat="45.81406" lon="2.95572">
        <ele>1017</ele>
        <time>2021-05-23T11:16:50Z</time>
      </trkpt>
      <trkpt lat="45.81407" lon="2.95568">
        <ele>1017</ele>
        <time>2021-05-23T11:16:52Z</time>
      </trkpt>
      <trkpt lat="45.81407" lon="2.95565">
        <ele>1017</ele>
        <time>2021-05-23T11:16:54Z</time>
      </trkpt>
      <trkpt lat="45.81409" lon="2.95553">
        <ele>1017</ele>
        <time>2021-05-23T11:16:58Z</time>
      </trkpt>
      <trkpt lat="45.81409" lon="2.95552">
        <ele>1017</ele>
        <time>2021-05-23T11:17:00Z</time>
      </trkpt>
      <trkpt lat="45.81409" lon="2.9555">
        <ele>1017</ele>
        <time>2021-05-23T11:17:02Z</time>
      </trkpt>
      <trkpt lat="45.8141" lon="2.95546">
        <ele>1017</ele>
        <time>2021-05-23T11:17:04Z</time>
      </trkpt>
      <trkpt lat="45.81411" lon="2.95543">
        <ele>1017</ele>
        <time>2021-05-23T11:17:06Z</time>
      </trkpt>
      <trkpt lat="45.81413" lon="2.95539">
        <ele>1017</ele>
        <time>2021-05-23T11:17:08Z</time>
      </trkpt>
      <trkpt lat="45.81414" lon="2.95534">
        <ele>1017</ele>
        <time>2021-05-23T11:17:10Z</time>
      </trkpt>
      <trkpt lat="45.81416" lon="2.95529">
        <ele>1017</ele>
        <time>2021-05-23T11:17:12Z</time>
      </trkpt>
      <trkpt lat="45.81416" lon="2.95525">
        <ele>1017</ele>
        <time>2021-05-23T11:17:14Z</time>
      </trkpt>
      <trkpt lat="45.81417" lon="2.95521">
        <ele>1017</ele>
        <time>2021-05-23T11:17:16Z</time>
      </trkpt>
      <trkpt lat="45.81418" lon="2.95518">
        <ele>1017</ele>
        <time>2021-05-23T11:17:18Z</time>
      </trkpt>
      <trkpt lat="45.81419" lon="2.95515">
        <ele>1017</ele>
        <time>2021-05-23T11:17:20Z</time>
      </trkpt>
      <trkpt lat="45.81419" lon="2.95513">
        <ele>1017</ele>
        <time>2021-05-23T11:17:22Z</time>
      </trkpt>
      <trkpt lat="45.81421" lon="2.95509">
        <ele>1017</ele>
        <time>2021-05-23T11:17:24Z</time>
      </trkpt>
      <trkpt lat="45.81422" lon="2.95506">
        <ele>1017</ele>
        <time>2021-05-23T11:17:26Z</time>
      </trkpt>
      <trkpt lat="45.81422" lon="2.95503">
        <ele>1017</ele>
        <time>2021-05-23T11:17:28Z</time>
      </trkpt>
      <trkpt lat="45.81423" lon="2.95499">
        <ele>1017</ele>
        <time>2021-05-23T11:17:30Z</time>
      </trkpt>
      <trkpt lat="45.81423" lon="2.95496">
        <ele>1017</ele>
        <time>2021-05-23T11:17:32Z</time>
      </trkpt>
      <trkpt lat="45.81424" lon="2.95493">
        <ele>1017</ele>
        <time>2021-05-23T11:17:34Z</time>
      </trkpt>
      <trkpt lat="45.81424" lon="2.9549">
        <ele>1017</ele>
        <time>2021-05-23T11:17:36Z</time>
      </trkpt>
      <trkpt lat="45.81425" lon="2.95487">
        <ele>1017</ele>
        <time>2021-05-23T11:17:38Z</time>
      </trkpt>
      <trkpt lat="45.81426" lon="2.95484">
        <ele>1017</ele>
        <time>2021-05-23T11:17:40Z</time>
      </trkpt>
      <trkpt lat="45.81427" lon="2.95481">
        <ele>1017</ele>
        <time>2021-05-23T11:17:42Z</time>
      </trkpt>
      <trkpt lat="45.81428" lon="2.95477">
        <ele>1017</ele>
        <time>2021-05-23T11:17:44Z</time>
      </trkpt>
      <trkpt lat="45.81429" lon="2.95474">
        <ele>1017</ele>
        <time>2021-05-23T11:17:46Z</time>
      </trkpt>
      <trkpt lat="45.8143" lon="2.95471">
        <ele>1017</ele>
        <time>2021-05-23T11:17:48Z</time>
      </trkpt>
      <trkpt lat="45.81431" lon="2.95467">
        <ele>1017</ele>
        <time>2021-05-23T11:17:50Z</time>
      </trkpt>
      <trkpt lat="45.81434" lon="2.95457">
        <ele>1017</ele>
        <time>2021-05-23T11:17:54Z</time>
      </trkpt>
      <trkpt lat="45.81434" lon="2.95456">
        <ele>1017</ele>
        <time>2021-05-23T11:17:56Z</time>
      </trkpt>
      <trkpt lat="45.81434" lon="2.95454">
        <ele>1017</ele>
        <time>2021-05-23T11:17:58Z</time>
      </trkpt>
      <trkpt lat="45.81435" lon="2.9545">
        <ele>1017</ele>
        <time>2021-05-23T11:18:00Z</time>
      </trkpt>
      <trkpt lat="45.81437" lon="2.95447">
        <ele>1017</ele>
        <time>2021-05-23T11:18:02Z</time>
      </trkpt>
      <trkpt lat="45.81437" lon="2.95444">
        <ele>1017</ele>
        <time>2021-05-23T11:18:04Z</time>
      </trkpt>
      <trkpt lat="45.81438" lon="2.9544">
        <ele>1017</ele>
        <time>2021-05-23T11:18:06Z</time>
      </trkpt>
      <trkpt lat="45.81438" lon="2.95437">
        <ele>1017</ele>
        <time>2021-05-23T11:18:08Z</time>
      </trkpt>
      <trkpt lat="45.8144" lon="2.95434">
        <ele>1017</ele>
        <time>2021-05-23T11:18:10Z</time>
      </trkpt>
      <trkpt lat="45.8144" lon="2.95431">
        <ele>1017</ele>
        <time>2021-05-23T11:18:12Z</time>
      </trkpt>
      <trkpt lat="45.81442" lon="2.95427">
        <ele>1017</ele>
        <time>2021-05-23T11:18:14Z</time>
      </trkpt>
      <trkpt lat="45.81443" lon="2.95424">
        <ele>1017</ele>
        <time>2021-05-23T11:18:16Z</time>
      </trkpt>
      <trkpt lat="45.81443" lon="2.9542">
        <ele>1017</ele>
        <time>2021-05-23T11:18:18Z</time>
      </trkpt>
      <trkpt lat="45.81444" lon="2.95415">
        <ele>1017</ele>
        <time>2021-05-23T11:18:20Z</time>
      </trkpt>
      <trkpt lat="45.81445" lon="2.95411">
        <ele>1017</ele>
        <time>2021-05-23T11:18:22Z</time>
      </trkpt>
      <trkpt lat="45.81446" lon="2.95408">
        <ele>1017</ele>
        <time>2021-05-23T11:18:24Z</time>
      </trkpt>
      <trkpt lat="45.81448" lon="2.95405">
        <ele>1017</ele>
        <time>2021-05-23T11:18:26Z</time>
      </trkpt>
      <trkpt lat="45.81449" lon="2.95403">
        <ele>1017</ele>
        <time>2021-05-23T11:18:28Z</time>
      </trkpt>
      <trkpt lat="45.8145" lon="2.954">
        <ele>1017</ele>
        <time>2021-05-23T11:18:30Z</time>
      </trkpt>
      <trkpt lat="45.81452" lon="2.95398">
        <ele>1017</ele>
        <time>2021-05-23T11:18:32Z</time>
      </trkpt>
      <trkpt lat="45.81453" lon="2.95395">
        <ele>1017</ele>
        <time>2021-05-23T11:18:34Z</time>
      </trkpt>
      <trkpt lat="45.81455" lon="2.95392">
        <ele>1017</ele>
        <time>2021-05-23T11:18:36Z</time>
      </trkpt>
      <trkpt lat="45.81456" lon="2.95389">
        <ele>1017</ele>
        <time>2021-05-23T11:18:38Z</time>
      </trkpt>
      <trkpt lat="45.81456" lon="2.95385">
        <ele>1017</ele>
        <time>2021-05-23T11:18:40Z</time>
      </trkpt>
      <trkpt lat="45.81456" lon="2.9538">
        <ele>1017</ele>
        <time>2021-05-23T11:18:42Z</time>
      </trkpt>
      <trkpt lat="45.81456" lon="2.95375">
        <ele>1017</ele>
        <time>2021-05-23T11:18:44Z</time>
      </trkpt>
      <trkpt lat="45.81457" lon="2.95371">
        <ele>1017</ele>
        <time>2021-05-23T11:18:46Z</time>
      </trkpt>
      <trkpt lat="45.81458" lon="2.95368">
        <ele>1017</ele>
        <time>2021-05-23T11:18:48Z</time>
      </trkpt>
      <trkpt lat="45.81458" lon="2.95364">
        <ele>1017</ele>
        <time>2021-05-23T11:18:50Z</time>
      </trkpt>
      <trkpt lat="45.81459" lon="2.9536">
        <ele>1017</ele>
        <time>2021-05-23T11:18:52Z</time>
      </trkpt>
      <trkpt lat="45.8146" lon="2.95357">
        <ele>1017</ele>
        <time>2021-05-23T11:18:54Z</time>
      </trkpt>
      <trkpt lat="45.81461" lon="2.95354">
        <ele>1017</ele>
        <time>2021-05-23T11:18:56Z</time>
      </trkpt>
      <trkpt lat="45.81463" lon="2.95351">
        <ele>1017</ele>
        <time>2021-05-23T11:18:58Z</time>
      </trkpt>
      <trkpt lat="45.81464" lon="2.95348">
        <ele>1017</ele>
        <time>2021-05-23T11:19:00Z</time>
      </trkpt>
      <trkpt lat="45.81465" lon="2.95345">
        <ele>1017</ele>
        <time>2021-05-23T11:19:02Z</time>
      </trkpt>
      <trkpt lat="45.81467" lon="2.95343">
        <ele>1017</ele>
        <time>2021-05-23T11:19:04Z</time>
      </trkpt>
      <trkpt lat="45.81469" lon="2.95341">
        <ele>1017</ele>
        <time>2021-05-23T11:19:06Z</time>
      </trkpt>
      <trkpt lat="45.81472" lon="2.95339">
        <ele>1017</ele>
        <time>2021-05-23T11:19:08Z</time>
      </trkpt>
      <trkpt lat="45.81474" lon="2.95337">
        <ele>1017</ele>
        <time>2021-05-23T11:19:10Z</time>
      </trkpt>
      <trkpt lat="45.81477" lon="2.95335">
        <ele>1017</ele>
        <time>2021-05-23T11:19:12Z</time>
      </trkpt>
      <trkpt lat="45.8148" lon="2.95333">
        <ele>1017</ele>
        <time>2021-05-23T11:19:14Z</time>
      </trkpt>
      <trkpt lat="45.81484" lon="2.95331">
        <ele>1017</ele>
        <time>2021-05-23T11:19:16Z</time>
      </trkpt>
      <trkpt lat="45.81487" lon="2.9533">
        <ele>1017</ele>
        <time>2021-05-23T11:19:18Z</time>
      </trkpt>
      <trkpt lat="45.81489" lon="2.95328">
        <ele>1017</ele>
        <time>2021-05-23T11:19:20Z</time>
      </trkpt>
      <trkpt lat="45.81491" lon="2.95326">
        <ele>1017</ele>
        <time>2021-05-23T11:19:22Z</time>
      </trkpt>
      <trkpt lat="45.81494" lon="2.95324">
        <ele>1017</ele>
        <time>2021-05-23T11:19:24Z</time>
      </trkpt>
      <trkpt lat="45.81496" lon="2.95322">
        <ele>1017</ele>
        <time>2021-05-23T11:19:26Z</time>
      </trkpt>
      <trkpt lat="45.81499" lon="2.9532">
        <ele>1017</ele>
        <time>2021-05-23T11:19:28Z</time>
      </trkpt>
      <trkpt lat="45.81502" lon="2.95317">
        <ele>1017</ele>
        <time>2021-05-23T11:19:30Z</time>
      </trkpt>
      <trkpt lat="45.81504" lon="2.95315">
        <ele>1017</ele>
        <time>2021-05-23T11:19:32Z</time>
      </trkpt>
      <trkpt lat="45.81507" lon="2.95313">
        <ele>1017</ele>
        <time>2021-05-23T11:19:34Z</time>
      </trkpt>
      <trkpt lat="45.8151" lon="2.95311">
        <ele>1017</ele>
        <time>2021-05-23T11:19:36Z</time>
      </trkpt>
      <trkpt lat="45.81513" lon="2.9531">
        <ele>1017</ele>
        <time>2021-05-23T11:19:38Z</time>
      </trkpt>
      <trkpt lat="45.81515" lon="2.95308">
        <ele>1017</ele>
        <time>2021-05-23T11:19:40Z</time>
      </trkpt>
      <trkpt lat="45.81517" lon="2.95307">
        <ele>1017</ele>
        <time>2021-05-23T11:19:42Z</time>
      </trkpt>
      <trkpt lat="45.81519" lon="2.95305">
        <ele>1017</ele>
        <time>2021-05-23T11:19:44Z</time>
      </trkpt>
      <trkpt lat="45.81522" lon="2.95304">
        <ele>1017</ele>
        <time>2021-05-23T11:19:46Z</time>
      </trkpt>
      <trkpt lat="45.81525" lon="2.95302">
        <ele>1017</ele>
        <time>2021-05-23T11:19:48Z</time>
      </trkpt>
      <trkpt lat="45.81528" lon="2.953">
        <ele>1017</ele>
        <time>2021-05-23T11:19:50Z</time>
      </trkpt>
      <trkpt lat="45.81531" lon="2.95299">
        <ele>1017</ele>
        <time>2021-05-23T11:19:52Z</time>
      </trkpt>
      <trkpt lat="45.81534" lon="2.95297">
        <ele>1017</ele>
        <time>2021-05-23T11:19:54Z</time>
      </trkpt>
      <trkpt lat="45.81536" lon="2.95295">
        <ele>1017</ele>
        <time>2021-05-23T11:19:56Z</time>
      </trkpt>
      <trkpt lat="45.81539" lon="2.95294">
        <ele>1017</ele>
        <time>2021-05-23T11:19:57Z</time>
      </trkpt>
      <trkpt lat="45.81541" lon="2.95292">
        <ele>1017</ele>
        <time>2021-05-23T11:19:59Z</time>
      </trkpt>
      <trkpt lat="45.81543" lon="2.9529">
        <ele>1017</ele>
        <time>2021-05-23T11:20:01Z</time>
      </trkpt>
      <trkpt lat="45.81544" lon="2.95289">
        <ele>1017</ele>
        <time>2021-05-23T11:20:03Z</time>
      </trkpt>
      <trkpt lat="45.81546" lon="2.95287">
        <ele>1017</ele>
        <time>2021-05-23T11:20:05Z</time>
      </trkpt>
      <trkpt lat="45.81548" lon="2.95286">
        <ele>1017</ele>
        <time>2021-05-23T11:20:07Z</time>
      </trkpt>
      <trkpt lat="45.8155" lon="2.95285">
        <ele>1017</ele>
        <time>2021-05-23T11:20:09Z</time>
      </trkpt>
      <trkpt lat="45.81553" lon="2.95283">
        <ele>1017</ele>
        <time>2021-05-23T11:20:11Z</time>
      </trkpt>
      <trkpt lat="45.81555" lon="2.95281">
        <ele>1017</ele>
        <time>2021-05-23T11:20:13Z</time>
      </trkpt>
      <trkpt lat="45.81556" lon="2.9528">
        <ele>1017</ele>
        <time>2021-05-23T11:20:15Z</time>
      </trkpt>
      <trkpt lat="45.81558" lon="2.95278">
        <ele>1017</ele>
        <time>2021-05-23T11:20:17Z</time>
      </trkpt>
      <trkpt lat="45.8156" lon="2.95275">
        <ele>1017</ele>
        <time>2021-05-23T11:20:19Z</time>
      </trkpt>
      <trkpt lat="45.81567" lon="2.95268">
        <ele>1017</ele>
        <time>2021-05-23T11:20:23Z</time>
      </trkpt>
      <trkpt lat="45.81568" lon="2.95267">
        <ele>1017</ele>
        <time>2021-05-23T11:20:25Z</time>
      </trkpt>
      <trkpt lat="45.8157" lon="2.95265">
        <ele>1017</ele>
        <time>2021-05-23T11:20:27Z</time>
      </trkpt>
      <trkpt lat="45.81574" lon="2.95264">
        <ele>1017</ele>
        <time>2021-05-23T11:20:29Z</time>
      </trkpt>
      <trkpt lat="45.81587" lon="2.95257">
        <ele>1017</ele>
        <time>2021-05-23T11:20:33Z</time>
      </trkpt>
      <trkpt lat="45.81588" lon="2.95256">
        <ele>1017</ele>
        <time>2021-05-23T11:20:35Z</time>
      </trkpt>
      <trkpt lat="45.8159" lon="2.95254">
        <ele>1017</ele>
        <time>2021-05-23T11:20:37Z</time>
      </trkpt>
      <trkpt lat="45.81593" lon="2.95252">
        <ele>1017</ele>
        <time>2021-05-23T11:20:39Z</time>
      </trkpt>
      <trkpt lat="45.81597" lon="2.9525">
        <ele>1017</ele>
        <time>2021-05-23T11:20:41Z</time>
      </trkpt>
      <trkpt lat="45.816" lon="2.95248">
        <ele>1017</ele>
        <time>2021-05-23T11:20:43Z</time>
      </trkpt>
      <trkpt lat="45.81603" lon="2.95246">
        <ele>1017</ele>
        <time>2021-05-23T11:20:45Z</time>
      </trkpt>
      <trkpt lat="45.81606" lon="2.95243">
        <ele>1017</ele>
        <time>2021-05-23T11:20:47Z</time>
      </trkpt>
      <trkpt lat="45.81609" lon="2.95241">
        <ele>1017</ele>
        <time>2021-05-23T11:20:49Z</time>
      </trkpt>
      <trkpt lat="45.81611" lon="2.95239">
        <ele>1017</ele>
        <time>2021-05-23T11:20:51Z</time>
      </trkpt>
      <trkpt lat="45.81613" lon="2.95237">
        <ele>1017</ele>
        <time>2021-05-23T11:20:53Z</time>
      </trkpt>
      <trkpt lat="45.81616" lon="2.95235">
        <ele>1017</ele>
        <time>2021-05-23T11:20:55Z</time>
      </trkpt>
      <trkpt lat="45.81619" lon="2.95233">
        <ele>1017</ele>
        <time>2021-05-23T11:20:57Z</time>
      </trkpt>
      <trkpt lat="45.81621" lon="2.9523">
        <ele>1017</ele>
        <time>2021-05-23T11:20:59Z</time>
      </trkpt>
      <trkpt lat="45.81623" lon="2.95228">
        <ele>1017</ele>
        <time>2021-05-23T11:21:01Z</time>
      </trkpt>
      <trkpt lat="45.81625" lon="2.95225">
        <ele>1017</ele>
        <time>2021-05-23T11:21:03Z</time>
      </trkpt>
      <trkpt lat="45.81627" lon="2.95222">
        <ele>1017</ele>
        <time>2021-05-23T11:21:05Z</time>
      </trkpt>
      <trkpt lat="45.81628" lon="2.95218">
        <ele>1017</ele>
        <time>2021-05-23T11:21:07Z</time>
      </trkpt>
      <trkpt lat="45.8163" lon="2.95216">
        <ele>1017</ele>
        <time>2021-05-23T11:21:09Z</time>
      </trkpt>
      <trkpt lat="45.81633" lon="2.95213">
        <ele>1017</ele>
        <time>2021-05-23T11:21:11Z</time>
      </trkpt>
      <trkpt lat="45.81635" lon="2.95211">
        <ele>1017</ele>
        <time>2021-05-23T11:21:13Z</time>
      </trkpt>
      <trkpt lat="45.81637" lon="2.95209">
        <ele>1017</ele>
        <time>2021-05-23T11:21:15Z</time>
      </trkpt>
      <trkpt lat="45.8164" lon="2.95207">
        <ele>1017</ele>
        <time>2021-05-23T11:21:17Z</time>
      </trkpt>
      <trkpt lat="45.81643" lon="2.95206">
        <ele>1017</ele>
        <time>2021-05-23T11:21:19Z</time>
      </trkpt>
      <trkpt lat="45.81645" lon="2.95204">
        <ele>1017</ele>
        <time>2021-05-23T11:21:21Z</time>
      </trkpt>
      <trkpt lat="45.81648" lon="2.95202">
        <ele>1017</ele>
        <time>2021-05-23T11:21:23Z</time>
      </trkpt>
      <trkpt lat="45.81651" lon="2.95199">
        <ele>1017</ele>
        <time>2021-05-23T11:21:25Z</time>
      </trkpt>
      <trkpt lat="45.81653" lon="2.95197">
        <ele>1017</ele>
        <time>2021-05-23T11:21:27Z</time>
      </trkpt>
      <trkpt lat="45.81656" lon="2.95194">
        <ele>1017</ele>
        <time>2021-05-23T11:21:29Z</time>
      </trkpt>
      <trkpt lat="45.81659" lon="2.95191">
        <ele>1017</ele>
        <time>2021-05-23T11:21:31Z</time>
      </trkpt>
      <trkpt lat="45.81661" lon="2.95188">
        <ele>1017</ele>
        <time>2021-05-23T11:21:33Z</time>
      </trkpt>
      <trkpt lat="45.81664" lon="2.95186">
        <ele>1017</ele>
        <time>2021-05-23T11:21:35Z</time>
      </trkpt>
      <trkpt lat="45.81667" lon="2.95183">
        <ele>1017</ele>
        <time>2021-05-23T11:21:37Z</time>
      </trkpt>
      <trkpt lat="45.81669" lon="2.9518">
        <ele>1017</ele>
        <time>2021-05-23T11:21:39Z</time>
      </trkpt>
      <trkpt lat="45.81678" lon="2.9517">
        <ele>1017</ele>
        <time>2021-05-23T11:21:43Z</time>
      </trkpt>
      <trkpt lat="45.81679" lon="2.95169">
        <ele>1017</ele>
        <time>2021-05-23T11:21:45Z</time>
      </trkpt>
      <trkpt lat="45.81679" lon="2.95168">
        <ele>1017</ele>
        <time>2021-05-23T11:21:47Z</time>
      </trkpt>
      <trkpt lat="45.81684" lon="2.9516">
        <ele>1017</ele>
        <time>2021-05-23T11:21:51Z</time>
      </trkpt>
      <trkpt lat="45.81685" lon="2.95159">
        <ele>1017</ele>
        <time>2021-05-23T11:21:53Z</time>
      </trkpt>
      <trkpt lat="45.81688" lon="2.95156">
        <ele>1017</ele>
        <time>2021-05-23T11:21:55Z</time>
      </trkpt>
      <trkpt lat="45.81692" lon="2.95154">
        <ele>1017</ele>
        <time>2021-05-23T11:21:58Z</time>
      </trkpt>
      <trkpt lat="45.81696" lon="2.95152">
        <ele>1017</ele>
        <time>2021-05-23T11:21:59Z</time>
      </trkpt>
      <trkpt lat="45.81698" lon="2.95149">
        <ele>1017</ele>
        <time>2021-05-23T11:22:01Z</time>
      </trkpt>
      <trkpt lat="45.81701" lon="2.95147">
        <ele>1017</ele>
        <time>2021-05-23T11:22:03Z</time>
      </trkpt>
      <trkpt lat="45.81703" lon="2.95145">
        <ele>1017</ele>
        <time>2021-05-23T11:22:05Z</time>
      </trkpt>
      <trkpt lat="45.81706" lon="2.95142">
        <ele>1017</ele>
        <time>2021-05-23T11:22:07Z</time>
      </trkpt>
      <trkpt lat="45.81708" lon="2.9514">
        <ele>1017</ele>
        <time>2021-05-23T11:22:09Z</time>
      </trkpt>
      <trkpt lat="45.8171" lon="2.95137">
        <ele>1017</ele>
        <time>2021-05-23T11:22:11Z</time>
      </trkpt>
      <trkpt lat="45.81712" lon="2.95134">
        <ele>1017</ele>
        <time>2021-05-23T11:22:13Z</time>
      </trkpt>
      <trkpt lat="45.81714" lon="2.95131">
        <ele>1017</ele>
        <time>2021-05-23T11:22:15Z</time>
      </trkpt>
      <trkpt lat="45.81715" lon="2.95128">
        <ele>1017</ele>
        <time>2021-05-23T11:22:17Z</time>
      </trkpt>
      <trkpt lat="45.81718" lon="2.95125">
        <ele>1017</ele>
        <time>2021-05-23T11:22:19Z</time>
      </trkpt>
      <trkpt lat="45.8172" lon="2.95123">
        <ele>1017</ele>
        <time>2021-05-23T11:22:21Z</time>
      </trkpt>
      <trkpt lat="45.81723" lon="2.95121">
        <ele>1017</ele>
        <time>2021-05-23T11:22:23Z</time>
      </trkpt>
      <trkpt lat="45.81726" lon="2.95119">
        <ele>1017</ele>
        <time>2021-05-23T11:22:25Z</time>
      </trkpt>
      <trkpt lat="45.81728" lon="2.95117">
        <ele>1017</ele>
        <time>2021-05-23T11:22:27Z</time>
      </trkpt>
      <trkpt lat="45.81731" lon="2.95114">
        <ele>1017</ele>
        <time>2021-05-23T11:22:29Z</time>
      </trkpt>
      <trkpt lat="45.81734" lon="2.95112">
        <ele>1017</ele>
        <time>2021-05-23T11:22:31Z</time>
      </trkpt>
      <trkpt lat="45.81736" lon="2.9511">
        <ele>1017</ele>
        <time>2021-05-23T11:22:33Z</time>
      </trkpt>
      <trkpt lat="45.81739" lon="2.95108">
        <ele>1017</ele>
        <time>2021-05-23T11:22:35Z</time>
      </trkpt>
      <trkpt lat="45.8174" lon="2.95106">
        <ele>1017</ele>
        <time>2021-05-23T11:22:37Z</time>
      </trkpt>
      <trkpt lat="45.81743" lon="2.95104">
        <ele>1017</ele>
        <time>2021-05-23T11:22:39Z</time>
      </trkpt>
      <trkpt lat="45.81745" lon="2.95102">
        <ele>1017</ele>
        <time>2021-05-23T11:22:41Z</time>
      </trkpt>
      <trkpt lat="45.81748" lon="2.95101">
        <ele>1017</ele>
        <time>2021-05-23T11:22:43Z</time>
      </trkpt>
      <trkpt lat="45.81751" lon="2.95099">
        <ele>1017</ele>
        <time>2021-05-23T11:22:45Z</time>
      </trkpt>
      <trkpt lat="45.81754" lon="2.95097">
        <ele>1017</ele>
        <time>2021-05-23T11:22:47Z</time>
      </trkpt>
      <trkpt lat="45.81757" lon="2.95094">
        <ele>1017</ele>
        <time>2021-05-23T11:22:49Z</time>
      </trkpt>
      <trkpt lat="45.81764" lon="2.95089">
        <ele>1017</ele>
        <time>2021-05-23T11:22:53Z</time>
      </trkpt>
      <trkpt lat="45.81765" lon="2.95088">
        <ele>1017</ele>
        <time>2021-05-23T11:22:55Z</time>
      </trkpt>
      <trkpt lat="45.81766" lon="2.95086">
        <ele>1017</ele>
        <time>2021-05-23T11:22:57Z</time>
      </trkpt>
      <trkpt lat="45.81767" lon="2.95084">
        <ele>1017</ele>
        <time>2021-05-23T11:22:59Z</time>
      </trkpt>
      <trkpt lat="45.81769" lon="2.95082">
        <ele>1017</ele>
        <time>2021-05-23T11:23:01Z</time>
      </trkpt>
      <trkpt lat="45.81771" lon="2.9508">
        <ele>1017</ele>
        <time>2021-05-23T11:23:03Z</time>
      </trkpt>
      <trkpt lat="45.81775" lon="2.95078">
        <ele>1017</ele>
        <time>2021-05-23T11:23:05Z</time>
      </trkpt>
      <trkpt lat="45.81778" lon="2.95077">
        <ele>1017</ele>
        <time>2021-05-23T11:23:07Z</time>
      </trkpt>
      <trkpt lat="45.81781" lon="2.95075">
        <ele>1017</ele>
        <time>2021-05-23T11:23:09Z</time>
      </trkpt>
      <trkpt lat="45.81784" lon="2.95073">
        <ele>1017</ele>
        <time>2021-05-23T11:23:11Z</time>
      </trkpt>
      <trkpt lat="45.81788" lon="2.95072">
        <ele>1017</ele>
        <time>2021-05-23T11:23:13Z</time>
      </trkpt>
      <trkpt lat="45.81791" lon="2.95071">
        <ele>1017</ele>
        <time>2021-05-23T11:23:15Z</time>
      </trkpt>
      <trkpt lat="45.81794" lon="2.9507">
        <ele>1017</ele>
        <time>2021-05-23T11:23:17Z</time>
      </trkpt>
      <trkpt lat="45.81798" lon="2.95068">
        <ele>1017</ele>
        <time>2021-05-23T11:23:19Z</time>
      </trkpt>
      <trkpt lat="45.81801" lon="2.95067">
        <ele>1017</ele>
        <time>2021-05-23T11:23:21Z</time>
      </trkpt>
      <trkpt lat="45.81803" lon="2.95065">
        <ele>1017</ele>
        <time>2021-05-23T11:23:23Z</time>
      </trkpt>
      <trkpt lat="45.81805" lon="2.95064">
        <ele>1017</ele>
        <time>2021-05-23T11:23:25Z</time>
      </trkpt>
      <trkpt lat="45.81807" lon="2.95062">
        <ele>1017</ele>
        <time>2021-05-23T11:23:27Z</time>
      </trkpt>
      <trkpt lat="45.81809" lon="2.95061">
        <ele>1017</ele>
        <time>2021-05-23T11:23:29Z</time>
      </trkpt>
      <trkpt lat="45.81812" lon="2.95059">
        <ele>1017</ele>
        <time>2021-05-23T11:23:31Z</time>
      </trkpt>
      <trkpt lat="45.81815" lon="2.95057">
        <ele>1017</ele>
        <time>2021-05-23T11:23:33Z</time>
      </trkpt>
      <trkpt lat="45.81818" lon="2.95056">
        <ele>1017</ele>
        <time>2021-05-23T11:23:35Z</time>
      </trkpt>
      <trkpt lat="45.81821" lon="2.95054">
        <ele>1017</ele>
        <time>2021-05-23T11:23:37Z</time>
      </trkpt>
      <trkpt lat="45.81825" lon="2.95052">
        <ele>1017</ele>
        <time>2021-05-23T11:23:39Z</time>
      </trkpt>
      <trkpt lat="45.81828" lon="2.9505">
        <ele>1017</ele>
        <time>2021-05-23T11:23:41Z</time>
      </trkpt>
      <trkpt lat="45.81831" lon="2.95048">
        <ele>1017</ele>
        <time>2021-05-23T11:23:43Z</time>
      </trkpt>
      <trkpt lat="45.81834" lon="2.95047">
        <ele>1017</ele>
        <time>2021-05-23T11:23:45Z</time>
      </trkpt>
      <trkpt lat="45.81838" lon="2.95045">
        <ele>1017</ele>
        <time>2021-05-23T11:23:47Z</time>
      </trkpt>
      <trkpt lat="45.81841" lon="2.95043">
        <ele>1017</ele>
        <time>2021-05-23T11:23:49Z</time>
      </trkpt>
      <trkpt lat="45.81844" lon="2.95041">
        <ele>1017</ele>
        <time>2021-05-23T11:23:51Z</time>
      </trkpt>
      <trkpt lat="45.81847" lon="2.95039">
        <ele>1017</ele>
        <time>2021-05-23T11:23:53Z</time>
      </trkpt>
      <trkpt lat="45.8185" lon="2.95037">
        <ele>1017</ele>
        <time>2021-05-23T11:23:55Z</time>
      </trkpt>
      <trkpt lat="45.81852" lon="2.95035">
        <ele>1017</ele>
        <time>2021-05-23T11:23:57Z</time>
      </trkpt>
      <trkpt lat="45.81854" lon="2.95033">
        <ele>1017</ele>
        <time>2021-05-23T11:23:59Z</time>
      </trkpt>
      <trkpt lat="45.81857" lon="2.95032">
        <ele>1017</ele>
        <time>2021-05-23T11:24:01Z</time>
      </trkpt>
      <trkpt lat="45.8186" lon="2.9503">
        <ele>1017</ele>
        <time>2021-05-23T11:24:03Z</time>
      </trkpt>
      <trkpt lat="45.81863" lon="2.95029">
        <ele>1017</ele>
        <time>2021-05-23T11:24:05Z</time>
      </trkpt>
      <trkpt lat="45.81867" lon="2.95027">
        <ele>1017</ele>
        <time>2021-05-23T11:24:07Z</time>
      </trkpt>
      <trkpt lat="45.81871" lon="2.95026">
        <ele>1017</ele>
        <time>2021-05-23T11:24:09Z</time>
      </trkpt>
      <trkpt lat="45.81874" lon="2.95024">
        <ele>1017</ele>
        <time>2021-05-23T11:24:11Z</time>
      </trkpt>
      <trkpt lat="45.81878" lon="2.95023">
        <ele>1017</ele>
        <time>2021-05-23T11:24:12Z</time>
      </trkpt>
      <trkpt lat="45.81881" lon="2.95022">
        <ele>1017</ele>
        <time>2021-05-23T11:24:14Z</time>
      </trkpt>
      <trkpt lat="45.81883" lon="2.9502">
        <ele>1017</ele>
        <time>2021-05-23T11:24:16Z</time>
      </trkpt>
      <trkpt lat="45.81886" lon="2.95019">
        <ele>1017</ele>
        <time>2021-05-23T11:24:18Z</time>
      </trkpt>
      <trkpt lat="45.81888" lon="2.95017">
        <ele>1017</ele>
        <time>2021-05-23T11:24:20Z</time>
      </trkpt>
      <trkpt lat="45.81895" lon="2.95013">
        <ele>1017</ele>
        <time>2021-05-23T11:24:24Z</time>
      </trkpt>
      <trkpt lat="45.81896" lon="2.95013">
        <ele>1017</ele>
        <time>2021-05-23T11:24:26Z</time>
      </trkpt>
      <trkpt lat="45.81898" lon="2.95012">
        <ele>1017</ele>
        <time>2021-05-23T11:24:28Z</time>
      </trkpt>
      <trkpt lat="45.81901" lon="2.9501">
        <ele>1017</ele>
        <time>2021-05-23T11:24:30Z</time>
      </trkpt>
      <trkpt lat="45.81904" lon="2.95008">
        <ele>1017</ele>
        <time>2021-05-23T11:24:32Z</time>
      </trkpt>
      <trkpt lat="45.81907" lon="2.95006">
        <ele>1017</ele>
        <time>2021-05-23T11:24:34Z</time>
      </trkpt>
      <trkpt lat="45.8191" lon="2.95003">
        <ele>1017</ele>
        <time>2021-05-23T11:24:36Z</time>
      </trkpt>
      <trkpt lat="45.81912" lon="2.95001">
        <ele>1017</ele>
        <time>2021-05-23T11:24:38Z</time>
      </trkpt>
      <trkpt lat="45.81914" lon="2.94998">
        <ele>1017</ele>
        <time>2021-05-23T11:24:40Z</time>
      </trkpt>
      <trkpt lat="45.81916" lon="2.94995">
        <ele>1017</ele>
        <time>2021-05-23T11:24:42Z</time>
      </trkpt>
      <trkpt lat="45.81919" lon="2.94993">
        <ele>1017</ele>
        <time>2021-05-23T11:24:44Z</time>
      </trkpt>
      <trkpt lat="45.81922" lon="2.94991">
        <ele>1017</ele>
        <time>2021-05-23T11:24:46Z</time>
      </trkpt>
      <trkpt lat="45.81924" lon="2.94989">
        <ele>1017</ele>
        <time>2021-05-23T11:24:48Z</time>
      </trkpt>
      <trkpt lat="45.81926" lon="2.94987">
        <ele>1017</ele>
        <time>2021-05-23T11:24:50Z</time>
      </trkpt>
      <trkpt lat="45.8193" lon="2.94985">
        <ele>1017</ele>
        <time>2021-05-23T11:24:52Z</time>
      </trkpt>
      <trkpt lat="45.81934" lon="2.94983">
        <ele>1017</ele>
        <time>2021-05-23T11:24:54Z</time>
      </trkpt>
      <trkpt lat="45.81947" lon="2.94974">
        <ele>1017</ele>
        <time>2021-05-23T11:24:58Z</time>
      </trkpt>
      <trkpt lat="45.81947" lon="2.94974">
        <ele>1017</ele>
        <time>2021-05-23T11:25:00Z</time>
      </trkpt>
      <trkpt lat="45.81952" lon="2.94971">
        <ele>1017</ele>
        <time>2021-05-23T11:25:04Z</time>
      </trkpt>
      <trkpt lat="45.81952" lon="2.94971">
        <ele>1017</ele>
        <time>2021-05-23T11:25:06Z</time>
      </trkpt>
      <trkpt lat="45.81953" lon="2.9497">
        <ele>1017</ele>
        <time>2021-05-23T11:25:08Z</time>
      </trkpt>
      <trkpt lat="45.81955" lon="2.9497">
        <ele>1017</ele>
        <time>2021-05-23T11:25:10Z</time>
      </trkpt>
      <trkpt lat="45.81957" lon="2.94969">
        <ele>1017</ele>
        <time>2021-05-23T11:25:12Z</time>
      </trkpt>
      <trkpt lat="45.81959" lon="2.94968">
        <ele>1017</ele>
        <time>2021-05-23T11:25:14Z</time>
      </trkpt>
      <trkpt lat="45.81961" lon="2.94966">
        <ele>1017</ele>
        <time>2021-05-23T11:25:16Z</time>
      </trkpt>
      <trkpt lat="45.81963" lon="2.94965">
        <ele>1017</ele>
        <time>2021-05-23T11:25:18Z</time>
      </trkpt>
      <trkpt lat="45.81965" lon="2.94962">
        <ele>1017</ele>
        <time>2021-05-23T11:25:20Z</time>
      </trkpt>
      <trkpt lat="45.81969" lon="2.9496">
        <ele>1017</ele>
        <time>2021-05-23T11:25:22Z</time>
      </trkpt>
      <trkpt lat="45.81973" lon="2.94957">
        <ele>1017</ele>
        <time>2021-05-23T11:25:24Z</time>
      </trkpt>
      <trkpt lat="45.81978" lon="2.94953">
        <ele>1017</ele>
        <time>2021-05-23T11:25:26Z</time>
      </trkpt>
      <trkpt lat="45.81982" lon="2.94949">
        <ele>1017</ele>
        <time>2021-05-23T11:25:28Z</time>
      </trkpt>
      <trkpt lat="45.81986" lon="2.94945">
        <ele>1017</ele>
        <time>2021-05-23T11:25:30Z</time>
      </trkpt>
      <trkpt lat="45.81989" lon="2.94941">
        <ele>1017</ele>
        <time>2021-05-23T11:25:32Z</time>
      </trkpt>
      <trkpt lat="45.8199" lon="2.94937">
        <ele>1017</ele>
        <time>2021-05-23T11:25:34Z</time>
      </trkpt>
      <trkpt lat="45.81992" lon="2.94934">
        <ele>1017</ele>
        <time>2021-05-23T11:25:36Z</time>
      </trkpt>
      <trkpt lat="45.81992" lon="2.94931">
        <ele>1017</ele>
        <time>2021-05-23T11:25:38Z</time>
      </trkpt>
      <trkpt lat="45.81992" lon="2.94928">
        <ele>1017</ele>
        <time>2021-05-23T11:25:40Z</time>
      </trkpt>
      <trkpt lat="45.81991" lon="2.94925">
        <ele>1017</ele>
        <time>2021-05-23T11:25:42Z</time>
      </trkpt>
      <trkpt lat="45.81992" lon="2.94922">
        <ele>1017</ele>
        <time>2021-05-23T11:25:44Z</time>
      </trkpt>
      <trkpt lat="45.81993" lon="2.9492">
        <ele>1017</ele>
        <time>2021-05-23T11:25:46Z</time>
      </trkpt>
      <trkpt lat="45.81994" lon="2.94917">
        <ele>1017</ele>
        <time>2021-05-23T11:25:48Z</time>
      </trkpt>
      <trkpt lat="45.81995" lon="2.94914">
        <ele>1017</ele>
        <time>2021-05-23T11:25:50Z</time>
      </trkpt>
      <trkpt lat="45.81998" lon="2.94911">
        <ele>1017</ele>
        <time>2021-05-23T11:25:52Z</time>
      </trkpt>
      <trkpt lat="45.81999" lon="2.94907">
        <ele>1017</ele>
        <time>2021-05-23T11:25:54Z</time>
      </trkpt>
      <trkpt lat="45.82001" lon="2.94904">
        <ele>1017</ele>
        <time>2021-05-23T11:25:56Z</time>
      </trkpt>
      <trkpt lat="45.82003" lon="2.94901">
        <ele>1017</ele>
        <time>2021-05-23T11:25:58Z</time>
      </trkpt>
      <trkpt lat="45.82004" lon="2.94897">
        <ele>1017</ele>
        <time>2021-05-23T11:26:00Z</time>
      </trkpt>
      <trkpt lat="45.82006" lon="2.94894">
        <ele>1017</ele>
        <time>2021-05-23T11:26:02Z</time>
      </trkpt>
      <trkpt lat="45.82007" lon="2.9489">
        <ele>1017</ele>
        <time>2021-05-23T11:26:04Z</time>
      </trkpt>
      <trkpt lat="45.82009" lon="2.94887">
        <ele>1017</ele>
        <time>2021-05-23T11:26:06Z</time>
      </trkpt>
      <trkpt lat="45.82011" lon="2.94884">
        <ele>1017</ele>
        <time>2021-05-23T11:26:08Z</time>
      </trkpt>
      <trkpt lat="45.82013" lon="2.9488">
        <ele>1017</ele>
        <time>2021-05-23T11:26:10Z</time>
      </trkpt>
      <trkpt lat="45.82016" lon="2.94877">
        <ele>1017</ele>
        <time>2021-05-23T11:26:12Z</time>
      </trkpt>
      <trkpt lat="45.82023" lon="2.94869">
        <ele>1017</ele>
        <time>2021-05-23T11:26:16Z</time>
      </trkpt>
      <trkpt lat="45.82025" lon="2.94867">
        <ele>1017</ele>
        <time>2021-05-23T11:26:20Z</time>
      </trkpt>
      <trkpt lat="45.82026" lon="2.94866">
        <ele>1017</ele>
        <time>2021-05-23T11:26:22Z</time>
      </trkpt>
      <trkpt lat="45.82032" lon="2.94858">
        <ele>1017</ele>
        <time>2021-05-23T11:26:26Z</time>
      </trkpt>
      <trkpt lat="45.82034" lon="2.94857">
        <ele>1017</ele>
        <time>2021-05-23T11:26:28Z</time>
      </trkpt>
      <trkpt lat="45.82035" lon="2.94855">
        <ele>1017</ele>
        <time>2021-05-23T11:26:30Z</time>
      </trkpt>
      <trkpt lat="45.82037" lon="2.94852">
        <ele>1017</ele>
        <time>2021-05-23T11:26:32Z</time>
      </trkpt>
      <trkpt lat="45.82039" lon="2.94849">
        <ele>1017</ele>
        <time>2021-05-23T11:26:34Z</time>
      </trkpt>
      <trkpt lat="45.82042" lon="2.94846">
        <ele>1017</ele>
        <time>2021-05-23T11:26:36Z</time>
      </trkpt>
      <trkpt lat="45.82044" lon="2.94842">
        <ele>1017</ele>
        <time>2021-05-23T11:26:38Z</time>
      </trkpt>
      <trkpt lat="45.82046" lon="2.94839">
        <ele>1017</ele>
        <time>2021-05-23T11:26:40Z</time>
      </trkpt>
      <trkpt lat="45.82048" lon="2.94836">
        <ele>1017</ele>
        <time>2021-05-23T11:26:42Z</time>
      </trkpt>
      <trkpt lat="45.8205" lon="2.94833">
        <ele>1017</ele>
        <time>2021-05-23T11:26:44Z</time>
      </trkpt>
      <trkpt lat="45.82052" lon="2.94829">
        <ele>1017</ele>
        <time>2021-05-23T11:26:46Z</time>
      </trkpt>
      <trkpt lat="45.82053" lon="2.94826">
        <ele>1017</ele>
        <time>2021-05-23T11:26:48Z</time>
      </trkpt>
      <trkpt lat="45.82055" lon="2.94823">
        <ele>1017</ele>
        <time>2021-05-23T11:26:50Z</time>
      </trkpt>
      <trkpt lat="45.82055" lon="2.94819">
        <ele>1017</ele>
        <time>2021-05-23T11:26:52Z</time>
      </trkpt>
      <trkpt lat="45.82058" lon="2.94815">
        <ele>1017</ele>
        <time>2021-05-23T11:26:54Z</time>
      </trkpt>
      <trkpt lat="45.82059" lon="2.94811">
        <ele>1017</ele>
        <time>2021-05-23T11:26:56Z</time>
      </trkpt>
      <trkpt lat="45.82061" lon="2.94807">
        <ele>1017</ele>
        <time>2021-05-23T11:26:58Z</time>
      </trkpt>
      <trkpt lat="45.82062" lon="2.94803">
        <ele>1017</ele>
        <time>2021-05-23T11:27:00Z</time>
      </trkpt>
      <trkpt lat="45.82064" lon="2.948">
        <ele>1017</ele>
        <time>2021-05-23T11:27:02Z</time>
      </trkpt>
      <trkpt lat="45.82066" lon="2.94796">
        <ele>1017</ele>
        <time>2021-05-23T11:27:04Z</time>
      </trkpt>
      <trkpt lat="45.82067" lon="2.94793">
        <ele>1017</ele>
        <time>2021-05-23T11:27:06Z</time>
      </trkpt>
      <trkpt lat="45.82069" lon="2.94789">
        <ele>1017</ele>
        <time>2021-05-23T11:27:08Z</time>
      </trkpt>
      <trkpt lat="45.82071" lon="2.94786">
        <ele>1017</ele>
        <time>2021-05-23T11:27:10Z</time>
      </trkpt>
      <trkpt lat="45.82073" lon="2.94783">
        <ele>1017</ele>
        <time>2021-05-23T11:27:12Z</time>
      </trkpt>
      <trkpt lat="45.82074" lon="2.9478">
        <ele>1017</ele>
        <time>2021-05-23T11:27:14Z</time>
      </trkpt>
      <trkpt lat="45.82076" lon="2.94777">
        <ele>1017</ele>
        <time>2021-05-23T11:27:16Z</time>
      </trkpt>
      <trkpt lat="45.82079" lon="2.94774">
        <ele>1017</ele>
        <time>2021-05-23T11:27:18Z</time>
      </trkpt>
      <trkpt lat="45.82081" lon="2.9477">
        <ele>1017</ele>
        <time>2021-05-23T11:27:20Z</time>
      </trkpt>
      <trkpt lat="45.82083" lon="2.94767">
        <ele>1017</ele>
        <time>2021-05-23T11:27:22Z</time>
      </trkpt>
      <trkpt lat="45.82085" lon="2.94764">
        <ele>1017</ele>
        <time>2021-05-23T11:27:24Z</time>
      </trkpt>
      <trkpt lat="45.82087" lon="2.94761">
        <ele>1017</ele>
        <time>2021-05-23T11:27:26Z</time>
      </trkpt>
      <trkpt lat="45.82089" lon="2.94758">
        <ele>1017</ele>
        <time>2021-05-23T11:27:28Z</time>
      </trkpt>
      <trkpt lat="45.82091" lon="2.94756">
        <ele>1017</ele>
        <time>2021-05-23T11:27:30Z</time>
      </trkpt>
      <trkpt lat="45.82094" lon="2.94753">
        <ele>1017</ele>
        <time>2021-05-23T11:27:32Z</time>
      </trkpt>
      <trkpt lat="45.82096" lon="2.9475">
        <ele>1017</ele>
        <time>2021-05-23T11:27:34Z</time>
      </trkpt>
      <trkpt lat="45.82098" lon="2.94747">
        <ele>1017</ele>
        <time>2021-05-23T11:27:36Z</time>
      </trkpt>
      <trkpt lat="45.82101" lon="2.94744">
        <ele>1017</ele>
        <time>2021-05-23T11:27:38Z</time>
      </trkpt>
      <trkpt lat="45.82104" lon="2.94741">
        <ele>1017</ele>
        <time>2021-05-23T11:27:40Z</time>
      </trkpt>
      <trkpt lat="45.82106" lon="2.94739">
        <ele>1017</ele>
        <time>2021-05-23T11:27:42Z</time>
      </trkpt>
      <trkpt lat="45.82108" lon="2.94736">
        <ele>1017</ele>
        <time>2021-05-23T11:27:44Z</time>
      </trkpt>
      <trkpt lat="45.8211" lon="2.94733">
        <ele>1017</ele>
        <time>2021-05-23T11:27:46Z</time>
      </trkpt>
      <trkpt lat="45.82113" lon="2.94731">
        <ele>1017</ele>
        <time>2021-05-23T11:27:48Z</time>
      </trkpt>
      <trkpt lat="45.82115" lon="2.94728">
        <ele>1017</ele>
        <time>2021-05-23T11:27:50Z</time>
      </trkpt>
      <trkpt lat="45.82118" lon="2.94726">
        <ele>1017</ele>
        <time>2021-05-23T11:27:52Z</time>
      </trkpt>
      <trkpt lat="45.82121" lon="2.94723">
        <ele>1017</ele>
        <time>2021-05-23T11:27:54Z</time>
      </trkpt>
      <trkpt lat="45.82123" lon="2.94721">
        <ele>1017</ele>
        <time>2021-05-23T11:27:56Z</time>
      </trkpt>
      <trkpt lat="45.82126" lon="2.94718">
        <ele>1017</ele>
        <time>2021-05-23T11:27:58Z</time>
      </trkpt>
      <trkpt lat="45.82128" lon="2.94716">
        <ele>1017</ele>
        <time>2021-05-23T11:28:00Z</time>
      </trkpt>
      <trkpt lat="45.82131" lon="2.94713">
        <ele>1017</ele>
        <time>2021-05-23T11:28:02Z</time>
      </trkpt>
      <trkpt lat="45.82134" lon="2.94711">
        <ele>1017</ele>
        <time>2021-05-23T11:28:04Z</time>
      </trkpt>
      <trkpt lat="45.82137" lon="2.94708">
        <ele>1017</ele>
        <time>2021-05-23T11:28:06Z</time>
      </trkpt>
      <trkpt lat="45.82139" lon="2.94706">
        <ele>1017</ele>
        <time>2021-05-23T11:28:08Z</time>
      </trkpt>
      <trkpt lat="45.82142" lon="2.94703">
        <ele>1017</ele>
        <time>2021-05-23T11:28:10Z</time>
      </trkpt>
      <trkpt lat="45.82143" lon="2.94701">
        <ele>1017</ele>
        <time>2021-05-23T11:28:12Z</time>
      </trkpt>
      <trkpt lat="45.82146" lon="2.94699">
        <ele>1017</ele>
        <time>2021-05-23T11:28:14Z</time>
      </trkpt>
      <trkpt lat="45.82148" lon="2.94697">
        <ele>1017</ele>
        <time>2021-05-23T11:28:16Z</time>
      </trkpt>
      <trkpt lat="45.8215" lon="2.94694">
        <ele>1017</ele>
        <time>2021-05-23T11:28:18Z</time>
      </trkpt>
      <trkpt lat="45.82152" lon="2.94692">
        <ele>1017</ele>
        <time>2021-05-23T11:28:20Z</time>
      </trkpt>
      <trkpt lat="45.82154" lon="2.9469">
        <ele>1017</ele>
        <time>2021-05-23T11:28:22Z</time>
      </trkpt>
      <trkpt lat="45.82156" lon="2.94688">
        <ele>1017</ele>
        <time>2021-05-23T11:28:24Z</time>
      </trkpt>
      <trkpt lat="45.82158" lon="2.94686">
        <ele>1017</ele>
        <time>2021-05-23T11:28:26Z</time>
      </trkpt>
      <trkpt lat="45.82161" lon="2.94684">
        <ele>1017</ele>
        <time>2021-05-23T11:28:27Z</time>
      </trkpt>
      <trkpt lat="45.82164" lon="2.94681">
        <ele>1017</ele>
        <time>2021-05-23T11:28:29Z</time>
      </trkpt>
      <trkpt lat="45.82166" lon="2.94679">
        <ele>1017</ele>
        <time>2021-05-23T11:28:31Z</time>
      </trkpt>
      <trkpt lat="45.82169" lon="2.94677">
        <ele>1017</ele>
        <time>2021-05-23T11:28:33Z</time>
      </trkpt>
      <trkpt lat="45.82171" lon="2.94675">
        <ele>1017</ele>
        <time>2021-05-23T11:28:35Z</time>
      </trkpt>
      <trkpt lat="45.82174" lon="2.94674">
        <ele>1017</ele>
        <time>2021-05-23T11:28:37Z</time>
      </trkpt>
      <trkpt lat="45.82177" lon="2.94672">
        <ele>1017</ele>
        <time>2021-05-23T11:28:39Z</time>
      </trkpt>
      <trkpt lat="45.8218" lon="2.9467">
        <ele>1017</ele>
        <time>2021-05-23T11:28:41Z</time>
      </trkpt>
      <trkpt lat="45.82182" lon="2.94667">
        <ele>1017</ele>
        <time>2021-05-23T11:28:43Z</time>
      </trkpt>
      <trkpt lat="45.82185" lon="2.94665">
        <ele>1017</ele>
        <time>2021-05-23T11:28:45Z</time>
      </trkpt>
      <trkpt lat="45.82188" lon="2.94663">
        <ele>1017</ele>
        <time>2021-05-23T11:28:47Z</time>
      </trkpt>
      <trkpt lat="45.8219" lon="2.94661">
        <ele>1017</ele>
        <time>2021-05-23T11:28:49Z</time>
      </trkpt>
      <trkpt lat="45.82193" lon="2.94657">
        <ele>1017</ele>
        <time>2021-05-23T11:28:51Z</time>
      </trkpt>
      <trkpt lat="45.82196" lon="2.94654">
        <ele>1017</ele>
        <time>2021-05-23T11:28:53Z</time>
      </trkpt>
      <trkpt lat="45.82198" lon="2.94651">
        <ele>1017</ele>
        <time>2021-05-23T11:28:55Z</time>
      </trkpt>
      <trkpt lat="45.82202" lon="2.94649">
        <ele>1017</ele>
        <time>2021-05-23T11:28:57Z</time>
      </trkpt>
      <trkpt lat="45.82205" lon="2.94646">
        <ele>1017</ele>
        <time>2021-05-23T11:28:59Z</time>
      </trkpt>
      <trkpt lat="45.82208" lon="2.94644">
        <ele>1017</ele>
        <time>2021-05-23T11:29:01Z</time>
      </trkpt>
      <trkpt lat="45.82211" lon="2.94642">
        <ele>1017</ele>
        <time>2021-05-23T11:29:03Z</time>
      </trkpt>
      <trkpt lat="45.82214" lon="2.94639">
        <ele>1017</ele>
        <time>2021-05-23T11:29:05Z</time>
      </trkpt>
      <trkpt lat="45.82217" lon="2.94637">
        <ele>1017</ele>
        <time>2021-05-23T11:29:07Z</time>
      </trkpt>
      <trkpt lat="45.8222" lon="2.94634">
        <ele>1017</ele>
        <time>2021-05-23T11:29:09Z</time>
      </trkpt>
      <trkpt lat="45.82222" lon="2.94632">
        <ele>1017</ele>
        <time>2021-05-23T11:29:11Z</time>
      </trkpt>
      <trkpt lat="45.82224" lon="2.9463">
        <ele>1017</ele>
        <time>2021-05-23T11:29:13Z</time>
      </trkpt>
      <trkpt lat="45.82227" lon="2.94628">
        <ele>1017</ele>
        <time>2021-05-23T11:29:15Z</time>
      </trkpt>
      <trkpt lat="45.82229" lon="2.94626">
        <ele>1017</ele>
        <time>2021-05-23T11:29:17Z</time>
      </trkpt>
      <trkpt lat="45.8223" lon="2.94625">
        <ele>1017</ele>
        <time>2021-05-23T11:29:19Z</time>
      </trkpt>
      <trkpt lat="45.82233" lon="2.94623">
        <ele>1017</ele>
        <time>2021-05-23T11:29:21Z</time>
      </trkpt>
      <trkpt lat="45.82236" lon="2.9462">
        <ele>1017</ele>
        <time>2021-05-23T11:29:23Z</time>
      </trkpt>
      <trkpt lat="45.82239" lon="2.94618">
        <ele>1017</ele>
        <time>2021-05-23T11:29:25Z</time>
      </trkpt>
      <trkpt lat="45.82241" lon="2.94616">
        <ele>1017</ele>
        <time>2021-05-23T11:29:27Z</time>
      </trkpt>
      <trkpt lat="45.82244" lon="2.94614">
        <ele>1017</ele>
        <time>2021-05-23T11:29:29Z</time>
      </trkpt>
      <trkpt lat="45.82246" lon="2.94612">
        <ele>1017</ele>
        <time>2021-05-23T11:29:31Z</time>
      </trkpt>
      <trkpt lat="45.82248" lon="2.94609">
        <ele>1017</ele>
        <time>2021-05-23T11:29:33Z</time>
      </trkpt>
      <trkpt lat="45.82251" lon="2.94607">
        <ele>1017</ele>
        <time>2021-05-23T11:29:35Z</time>
      </trkpt>
      <trkpt lat="45.82254" lon="2.94605">
        <ele>1017</ele>
        <time>2021-05-23T11:29:37Z</time>
      </trkpt>
      <trkpt lat="45.82256" lon="2.94603">
        <ele>1017</ele>
        <time>2021-05-23T11:29:39Z</time>
      </trkpt>
      <trkpt lat="45.82259" lon="2.946">
        <ele>1017</ele>
        <time>2021-05-23T11:29:41Z</time>
      </trkpt>
      <trkpt lat="45.82262" lon="2.94598">
        <ele>1017</ele>
        <time>2021-05-23T11:29:43Z</time>
      </trkpt>
      <trkpt lat="45.82264" lon="2.94596">
        <ele>1017</ele>
        <time>2021-05-23T11:29:45Z</time>
      </trkpt>
      <trkpt lat="45.82267" lon="2.94594">
        <ele>1017</ele>
        <time>2021-05-23T11:29:47Z</time>
      </trkpt>
      <trkpt lat="45.8227" lon="2.94592">
        <ele>1017</ele>
        <time>2021-05-23T11:29:49Z</time>
      </trkpt>
      <trkpt lat="45.82274" lon="2.9459">
        <ele>1017</ele>
        <time>2021-05-23T11:29:51Z</time>
      </trkpt>
      <trkpt lat="45.82276" lon="2.94588">
        <ele>1017</ele>
        <time>2021-05-23T11:29:53Z</time>
      </trkpt>
      <trkpt lat="45.82279" lon="2.94586">
        <ele>1017</ele>
        <time>2021-05-23T11:29:55Z</time>
      </trkpt>
      <trkpt lat="45.82285" lon="2.9458">
        <ele>1017</ele>
        <time>2021-05-23T11:29:59Z</time>
      </trkpt>
      <trkpt lat="45.82288" lon="2.94576">
        <ele>1017</ele>
        <time>2021-05-23T11:30:03Z</time>
      </trkpt>
      <trkpt lat="45.8229" lon="2.94576">
        <ele>1017</ele>
        <time>2021-05-23T11:30:05Z</time>
      </trkpt>
      <trkpt lat="45.82291" lon="2.94574">
        <ele>1017</ele>
        <time>2021-05-23T11:30:07Z</time>
      </trkpt>
      <trkpt lat="45.82294" lon="2.94573">
        <ele>1017</ele>
        <time>2021-05-23T11:30:09Z</time>
      </trkpt>
      <trkpt lat="45.82297" lon="2.94571">
        <ele>1017</ele>
        <time>2021-05-23T11:30:11Z</time>
      </trkpt>
      <trkpt lat="45.823" lon="2.94569">
        <ele>1017</ele>
        <time>2021-05-23T11:30:13Z</time>
      </trkpt>
      <trkpt lat="45.82313" lon="2.94563">
        <ele>1017</ele>
        <time>2021-05-23T11:30:17Z</time>
      </trkpt>
      <trkpt lat="45.82314" lon="2.94562">
        <ele>1017</ele>
        <time>2021-05-23T11:30:19Z</time>
      </trkpt>
      <trkpt lat="45.82316" lon="2.9456">
        <ele>1017</ele>
        <time>2021-05-23T11:30:21Z</time>
      </trkpt>
      <trkpt lat="45.82326" lon="2.94552">
        <ele>1017</ele>
        <time>2021-05-23T11:30:25Z</time>
      </trkpt>
      <trkpt lat="45.82327" lon="2.94552">
        <ele>1017</ele>
        <time>2021-05-23T11:30:27Z</time>
      </trkpt>
      <trkpt lat="45.82328" lon="2.94551">
        <ele>1017</ele>
        <time>2021-05-23T11:30:29Z</time>
      </trkpt>
      <trkpt lat="45.8233" lon="2.9455">
        <ele>1017</ele>
        <time>2021-05-23T11:30:31Z</time>
      </trkpt>
      <trkpt lat="45.82332" lon="2.94549">
        <ele>1017</ele>
        <time>2021-05-23T11:30:33Z</time>
      </trkpt>
      <trkpt lat="45.82335" lon="2.94548">
        <ele>1017</ele>
        <time>2021-05-23T11:30:35Z</time>
      </trkpt>
      <trkpt lat="45.82337" lon="2.94546">
        <ele>1017</ele>
        <time>2021-05-23T11:30:37Z</time>
      </trkpt>
      <trkpt lat="45.8234" lon="2.94545">
        <ele>1017</ele>
        <time>2021-05-23T11:30:39Z</time>
      </trkpt>
      <trkpt lat="45.82343" lon="2.94543">
        <ele>1017</ele>
        <time>2021-05-23T11:30:41Z</time>
      </trkpt>
      <trkpt lat="45.82346" lon="2.94542">
        <ele>1017</ele>
        <time>2021-05-23T11:30:43Z</time>
      </trkpt>
      <trkpt lat="45.82349" lon="2.9454">
        <ele>1017</ele>
        <time>2021-05-23T11:30:45Z</time>
      </trkpt>
      <trkpt lat="45.82352" lon="2.94538">
        <ele>1017</ele>
        <time>2021-05-23T11:30:47Z</time>
      </trkpt>
      <trkpt lat="45.82354" lon="2.94536">
        <ele>1017</ele>
        <time>2021-05-23T11:30:49Z</time>
      </trkpt>
      <trkpt lat="45.82357" lon="2.94534">
        <ele>1017</ele>
        <time>2021-05-23T11:30:51Z</time>
      </trkpt>
      <trkpt lat="45.8236" lon="2.94532">
        <ele>1017</ele>
        <time>2021-05-23T11:30:53Z</time>
      </trkpt>
      <trkpt lat="45.82362" lon="2.94531">
        <ele>1017</ele>
        <time>2021-05-23T11:30:55Z</time>
      </trkpt>
      <trkpt lat="45.82365" lon="2.94529">
        <ele>1017</ele>
        <time>2021-05-23T11:30:57Z</time>
      </trkpt>
      <trkpt lat="45.82374" lon="2.94524">
        <ele>1017</ele>
        <time>2021-05-23T11:31:01Z</time>
      </trkpt>
      <trkpt lat="45.82375" lon="2.94524">
        <ele>1017</ele>
        <time>2021-05-23T11:31:03Z</time>
      </trkpt>
      <trkpt lat="45.82377" lon="2.94523">
        <ele>1017</ele>
        <time>2021-05-23T11:31:05Z</time>
      </trkpt>
      <trkpt lat="45.8238" lon="2.94522">
        <ele>1017</ele>
        <time>2021-05-23T11:31:07Z</time>
      </trkpt>
      <trkpt lat="45.82383" lon="2.94521">
        <ele>1017</ele>
        <time>2021-05-23T11:31:09Z</time>
      </trkpt>
      <trkpt lat="45.82387" lon="2.9452">
        <ele>1017</ele>
        <time>2021-05-23T11:31:11Z</time>
      </trkpt>
      <trkpt lat="45.8239" lon="2.94519">
        <ele>1017</ele>
        <time>2021-05-23T11:31:13Z</time>
      </trkpt>
      <trkpt lat="45.82393" lon="2.94518">
        <ele>1017</ele>
        <time>2021-05-23T11:31:15Z</time>
      </trkpt>
      <trkpt lat="45.82396" lon="2.94517">
        <ele>1017</ele>
        <time>2021-05-23T11:31:17Z</time>
      </trkpt>
      <trkpt lat="45.82399" lon="2.94516">
        <ele>1017</ele>
        <time>2021-05-23T11:31:19Z</time>
      </trkpt>
      <trkpt lat="45.82401" lon="2.94515">
        <ele>1017</ele>
        <time>2021-05-23T11:31:21Z</time>
      </trkpt>
      <trkpt lat="45.82404" lon="2.94513">
        <ele>1017</ele>
        <time>2021-05-23T11:31:23Z</time>
      </trkpt>
      <trkpt lat="45.82406" lon="2.94512">
        <ele>1017</ele>
        <time>2021-05-23T11:31:25Z</time>
      </trkpt>
      <trkpt lat="45.82409" lon="2.9451">
        <ele>1017</ele>
        <time>2021-05-23T11:31:27Z</time>
      </trkpt>
      <trkpt lat="45.82412" lon="2.94509">
        <ele>1017</ele>
        <time>2021-05-23T11:31:29Z</time>
      </trkpt>
      <trkpt lat="45.82415" lon="2.94507">
        <ele>1017</ele>
        <time>2021-05-23T11:31:31Z</time>
      </trkpt>
      <trkpt lat="45.82417" lon="2.94505">
        <ele>1017</ele>
        <time>2021-05-23T11:31:33Z</time>
      </trkpt>
      <trkpt lat="45.82422" lon="2.94504">
        <ele>1017</ele>
        <time>2021-05-23T11:31:35Z</time>
      </trkpt>
      <trkpt lat="45.82426" lon="2.94502">
        <ele>1017</ele>
        <time>2021-05-23T11:31:37Z</time>
      </trkpt>
      <trkpt lat="45.8243" lon="2.945">
        <ele>1017</ele>
        <time>2021-05-23T11:31:39Z</time>
      </trkpt>
      <trkpt lat="45.82433" lon="2.94499">
        <ele>1017</ele>
        <time>2021-05-23T11:31:41Z</time>
      </trkpt>
      <trkpt lat="45.82437" lon="2.94498">
        <ele>1017</ele>
        <time>2021-05-23T11:31:43Z</time>
      </trkpt>
      <trkpt lat="45.8244" lon="2.94496">
        <ele>1017</ele>
        <time>2021-05-23T11:31:45Z</time>
      </trkpt>
      <trkpt lat="45.82444" lon="2.94495">
        <ele>1017</ele>
        <time>2021-05-23T11:31:47Z</time>
      </trkpt>
      <trkpt lat="45.82447" lon="2.94493">
        <ele>1017</ele>
        <time>2021-05-23T11:31:49Z</time>
      </trkpt>
      <trkpt lat="45.82451" lon="2.94492">
        <ele>1017</ele>
        <time>2021-05-23T11:31:51Z</time>
      </trkpt>
      <trkpt lat="45.82454" lon="2.94491">
        <ele>1017</ele>
        <time>2021-05-23T11:31:53Z</time>
      </trkpt>
      <trkpt lat="45.82457" lon="2.94489">
        <ele>1017</ele>
        <time>2021-05-23T11:31:55Z</time>
      </trkpt>
      <trkpt lat="45.82459" lon="2.94488">
        <ele>1017</ele>
        <time>2021-05-23T11:31:57Z</time>
      </trkpt>
      <trkpt lat="45.82462" lon="2.94487">
        <ele>1017</ele>
        <time>2021-05-23T11:31:59Z</time>
      </trkpt>
      <trkpt lat="45.82465" lon="2.94486">
        <ele>1017</ele>
        <time>2021-05-23T11:32:01Z</time>
      </trkpt>
      <trkpt lat="45.82467" lon="2.94485">
        <ele>1017</ele>
        <time>2021-05-23T11:32:03Z</time>
      </trkpt>
      <trkpt lat="45.8247" lon="2.94484">
        <ele>1017</ele>
        <time>2021-05-23T11:32:05Z</time>
      </trkpt>
      <trkpt lat="45.82472" lon="2.94483">
        <ele>1017</ele>
        <time>2021-05-23T11:32:07Z</time>
      </trkpt>
      <trkpt lat="45.82475" lon="2.94482">
        <ele>1017</ele>
        <time>2021-05-23T11:32:09Z</time>
      </trkpt>
      <trkpt lat="45.82477" lon="2.94481">
        <ele>1017</ele>
        <time>2021-05-23T11:32:11Z</time>
      </trkpt>
      <trkpt lat="45.8248" lon="2.9448">
        <ele>1017</ele>
        <time>2021-05-23T11:32:13Z</time>
      </trkpt>
      <trkpt lat="45.82486" lon="2.94477">
        <ele>1017</ele>
        <time>2021-05-23T11:32:17Z</time>
      </trkpt>
      <trkpt lat="45.82487" lon="2.94476">
        <ele>1017</ele>
        <time>2021-05-23T11:32:19Z</time>
      </trkpt>
      <trkpt lat="45.82489" lon="2.94475">
        <ele>1017</ele>
        <time>2021-05-23T11:32:21Z</time>
      </trkpt>
      <trkpt lat="45.82492" lon="2.94474">
        <ele>1017</ele>
        <time>2021-05-23T11:32:23Z</time>
      </trkpt>
      <trkpt lat="45.82495" lon="2.94473">
        <ele>1017</ele>
        <time>2021-05-23T11:32:25Z</time>
      </trkpt>
      <trkpt lat="45.82498" lon="2.94472">
        <ele>1017</ele>
        <time>2021-05-23T11:32:27Z</time>
      </trkpt>
      <trkpt lat="45.82509" lon="2.94469">
        <ele>1017</ele>
        <time>2021-05-23T11:32:31Z</time>
      </trkpt>
      <trkpt lat="45.82512" lon="2.94468">
        <ele>1017</ele>
        <time>2021-05-23T11:32:35Z</time>
      </trkpt>
      <trkpt lat="45.82513" lon="2.94468">
        <ele>1017</ele>
        <time>2021-05-23T11:32:37Z</time>
      </trkpt>
      <trkpt lat="45.82516" lon="2.94468">
        <ele>1017</ele>
        <time>2021-05-23T11:32:39Z</time>
      </trkpt>
      <trkpt lat="45.82519" lon="2.94467">
        <ele>1017</ele>
        <time>2021-05-23T11:32:41Z</time>
      </trkpt>
      <trkpt lat="45.82523" lon="2.94467">
        <ele>1017</ele>
        <time>2021-05-23T11:32:42Z</time>
      </trkpt>
      <trkpt lat="45.82528" lon="2.94467">
        <ele>1017</ele>
        <time>2021-05-23T11:32:44Z</time>
      </trkpt>
      <trkpt lat="45.82531" lon="2.94468">
        <ele>1017</ele>
        <time>2021-05-23T11:32:46Z</time>
      </trkpt>
      <trkpt lat="45.82535" lon="2.94468">
        <ele>1017</ele>
        <time>2021-05-23T11:32:48Z</time>
      </trkpt>
      <trkpt lat="45.82539" lon="2.94469">
        <ele>1017</ele>
        <time>2021-05-23T11:32:50Z</time>
      </trkpt>
      <trkpt lat="45.82542" lon="2.9447">
        <ele>1017</ele>
        <time>2021-05-23T11:32:52Z</time>
      </trkpt>
      <trkpt lat="45.82547" lon="2.94472">
        <ele>1017</ele>
        <time>2021-05-23T11:32:54Z</time>
      </trkpt>
      <trkpt lat="45.8255" lon="2.94474">
        <ele>1017</ele>
        <time>2021-05-23T11:32:56Z</time>
      </trkpt>
      <trkpt lat="45.82553" lon="2.94476">
        <ele>1017</ele>
        <time>2021-05-23T11:32:58Z</time>
      </trkpt>
      <trkpt lat="45.82562" lon="2.94483">
        <ele>1017</ele>
        <time>2021-05-23T11:33:01Z</time>
      </trkpt>
      <trkpt lat="45.82563" lon="2.94484">
        <ele>1017</ele>
        <time>2021-05-23T11:33:03Z</time>
      </trkpt>
      <trkpt lat="45.82564" lon="2.94486">
        <ele>1017</ele>
        <time>2021-05-23T11:33:05Z</time>
      </trkpt>
      <trkpt lat="45.82565" lon="2.94488">
        <ele>1017</ele>
        <time>2021-05-23T11:33:07Z</time>
      </trkpt>
      <trkpt lat="45.8257" lon="2.94494">
        <ele>1017</ele>
        <time>2021-05-23T11:33:11Z</time>
      </trkpt>
      <trkpt lat="45.8257" lon="2.94495">
        <ele>1017</ele>
        <time>2021-05-23T11:33:13Z</time>
      </trkpt>
      <trkpt lat="45.82571" lon="2.94496">
        <ele>1017</ele>
        <time>2021-05-23T11:33:15Z</time>
      </trkpt>
      <trkpt lat="45.82574" lon="2.94498">
        <ele>1017</ele>
        <time>2021-05-23T11:33:17Z</time>
      </trkpt>
      <trkpt lat="45.82576" lon="2.94501">
        <ele>1017</ele>
        <time>2021-05-23T11:33:19Z</time>
      </trkpt>
      <trkpt lat="45.82582" lon="2.94509">
        <ele>1017</ele>
        <time>2021-05-23T11:33:23Z</time>
      </trkpt>
      <trkpt lat="45.82583" lon="2.9451">
        <ele>1017</ele>
        <time>2021-05-23T11:33:25Z</time>
      </trkpt>
      <trkpt lat="45.82585" lon="2.94512">
        <ele>1017</ele>
        <time>2021-05-23T11:33:27Z</time>
      </trkpt>
      <trkpt lat="45.82587" lon="2.94515">
        <ele>1017</ele>
        <time>2021-05-23T11:33:29Z</time>
      </trkpt>
      <trkpt lat="45.8259" lon="2.94517">
        <ele>1017</ele>
        <time>2021-05-23T11:33:31Z</time>
      </trkpt>
      <trkpt lat="45.82593" lon="2.94519">
        <ele>1017</ele>
        <time>2021-05-23T11:33:33Z</time>
      </trkpt>
      <trkpt lat="45.82596" lon="2.94522">
        <ele>1017</ele>
        <time>2021-05-23T11:33:35Z</time>
      </trkpt>
      <trkpt lat="45.826" lon="2.94524">
        <ele>1017</ele>
        <time>2021-05-23T11:33:37Z</time>
      </trkpt>
      <trkpt lat="45.82602" lon="2.94527">
        <ele>1017</ele>
        <time>2021-05-23T11:33:39Z</time>
      </trkpt>
      <trkpt lat="45.82605" lon="2.9453">
        <ele>1017</ele>
        <time>2021-05-23T11:33:41Z</time>
      </trkpt>
      <trkpt lat="45.82607" lon="2.94533">
        <ele>1017</ele>
        <time>2021-05-23T11:33:43Z</time>
      </trkpt>
      <trkpt lat="45.82608" lon="2.94536">
        <ele>1017</ele>
        <time>2021-05-23T11:33:45Z</time>
      </trkpt>
      <trkpt lat="45.8261" lon="2.94538">
        <ele>1017</ele>
        <time>2021-05-23T11:33:47Z</time>
      </trkpt>
      <trkpt lat="45.82613" lon="2.9454">
        <ele>1017</ele>
        <time>2021-05-23T11:33:49Z</time>
      </trkpt>
      <trkpt lat="45.82615" lon="2.94543">
        <ele>1017</ele>
        <time>2021-05-23T11:33:51Z</time>
      </trkpt>
      <trkpt lat="45.82616" lon="2.94545">
        <ele>1017</ele>
        <time>2021-05-23T11:33:53Z</time>
      </trkpt>
      <trkpt lat="45.82618" lon="2.94548">
        <ele>1017</ele>
        <time>2021-05-23T11:33:55Z</time>
      </trkpt>
      <trkpt lat="45.82619" lon="2.9455">
        <ele>1017</ele>
        <time>2021-05-23T11:33:57Z</time>
      </trkpt>
      <trkpt lat="45.82621" lon="2.94552">
        <ele>1017</ele>
        <time>2021-05-23T11:33:59Z</time>
      </trkpt>
      <trkpt lat="45.82629" lon="2.94559">
        <ele>1017</ele>
        <time>2021-05-23T11:34:07Z</time>
      </trkpt>
      <trkpt lat="45.82629" lon="2.94561">
        <ele>1017</ele>
        <time>2021-05-23T11:34:09Z</time>
      </trkpt>
      <trkpt lat="45.82635" lon="2.94567">
        <ele>1017</ele>
        <time>2021-05-23T11:34:15Z</time>
      </trkpt>
      <trkpt lat="45.82639" lon="2.9457">
        <ele>1017</ele>
        <time>2021-05-23T11:34:19Z</time>
      </trkpt>
      <trkpt lat="45.82642" lon="2.94574">
        <ele>1017</ele>
        <time>2021-05-23T11:34:23Z</time>
      </trkpt>
      <trkpt lat="45.82643" lon="2.94575">
        <ele>1017</ele>
        <time>2021-05-23T11:34:25Z</time>
      </trkpt>
      <trkpt lat="45.82646" lon="2.94578">
        <ele>1017</ele>
        <time>2021-05-23T11:34:27Z</time>
      </trkpt>
      <trkpt lat="45.82649" lon="2.94582">
        <ele>1017</ele>
        <time>2021-05-23T11:34:29Z</time>
      </trkpt>
      <trkpt lat="45.82653" lon="2.94585">
        <ele>1017</ele>
        <time>2021-05-23T11:34:31Z</time>
      </trkpt>
      <trkpt lat="45.82663" lon="2.94596">
        <ele>1017</ele>
        <time>2021-05-23T11:34:35Z</time>
      </trkpt>
      <trkpt lat="45.82668" lon="2.94605">
        <ele>1017</ele>
        <time>2021-05-23T11:34:43Z</time>
      </trkpt>
      <trkpt lat="45.82669" lon="2.94606">
        <ele>1017</ele>
        <time>2021-05-23T11:34:45Z</time>
      </trkpt>
      <trkpt lat="45.82678" lon="2.94616">
        <ele>1017</ele>
        <time>2021-05-23T11:34:57Z</time>
      </trkpt>
      <trkpt lat="45.82679" lon="2.94616">
        <ele>1017</ele>
        <time>2021-05-23T11:34:59Z</time>
      </trkpt>
      <trkpt lat="45.8268" lon="2.94617">
        <ele>1017</ele>
        <time>2021-05-23T11:35:01Z</time>
      </trkpt>
      <trkpt lat="45.82683" lon="2.9462">
        <ele>1017</ele>
        <time>2021-05-23T11:35:03Z</time>
      </trkpt>
      <trkpt lat="45.82686" lon="2.94623">
        <ele>1017</ele>
        <time>2021-05-23T11:35:05Z</time>
      </trkpt>
      <trkpt lat="45.82689" lon="2.94626">
        <ele>1017</ele>
        <time>2021-05-23T11:35:07Z</time>
      </trkpt>
      <trkpt lat="45.82698" lon="2.94638">
        <ele>1017</ele>
        <time>2021-05-23T11:35:11Z</time>
      </trkpt>
      <trkpt lat="45.82702" lon="2.94645">
        <ele>1017</ele>
        <time>2021-05-23T11:35:15Z</time>
      </trkpt>
      <trkpt lat="45.82703" lon="2.94647">
        <ele>1017</ele>
        <time>2021-05-23T11:35:17Z</time>
      </trkpt>
      <trkpt lat="45.82705" lon="2.9465">
        <ele>1017</ele>
        <time>2021-05-23T11:35:19Z</time>
      </trkpt>
      <trkpt lat="45.82715" lon="2.94664">
        <ele>1017</ele>
        <time>2021-05-23T11:35:27Z</time>
      </trkpt>
      <trkpt lat="45.82717" lon="2.94665">
        <ele>1017</ele>
        <time>2021-05-23T11:35:29Z</time>
      </trkpt>
      <trkpt lat="45.82724" lon="2.94677">
        <ele>1017</ele>
        <time>2021-05-23T11:35:35Z</time>
      </trkpt>
      <trkpt lat="45.82724" lon="2.94678">
        <ele>1017</ele>
        <time>2021-05-23T11:35:37Z</time>
      </trkpt>
      <trkpt lat="45.82726" lon="2.94681">
        <ele>1017</ele>
        <time>2021-05-23T11:35:39Z</time>
      </trkpt>
      <trkpt lat="45.82735" lon="2.94695">
        <ele>1017</ele>
        <time>2021-05-23T11:35:43Z</time>
      </trkpt>
      <trkpt lat="45.82735" lon="2.94696">
        <ele>1017</ele>
        <time>2021-05-23T11:35:45Z</time>
      </trkpt>
      <trkpt lat="45.82742" lon="2.94704">
        <ele>1017</ele>
        <time>2021-05-23T11:35:55Z</time>
      </trkpt>
      <trkpt lat="45.82748" lon="2.94714">
        <ele>1017</ele>
        <time>2021-05-23T11:36:11Z</time>
      </trkpt>
      <trkpt lat="45.82749" lon="2.94716">
        <ele>1017</ele>
        <time>2021-05-23T11:36:13Z</time>
      </trkpt>
      <trkpt lat="45.82752" lon="2.94718">
        <ele>1017</ele>
        <time>2021-05-23T11:36:15Z</time>
      </trkpt>
      <trkpt lat="45.82764" lon="2.94731">
        <ele>1017</ele>
        <time>2021-05-23T11:36:19Z</time>
      </trkpt>
      <trkpt lat="45.82774" lon="2.94738">
        <ele>1017</ele>
        <time>2021-05-23T11:36:23Z</time>
      </trkpt>
      <trkpt lat="45.82776" lon="2.94739">
        <ele>1017</ele>
        <time>2021-05-23T11:36:25Z</time>
      </trkpt>
      <trkpt lat="45.82779" lon="2.94742">
        <ele>1017</ele>
        <time>2021-05-23T11:36:27Z</time>
      </trkpt>
      <trkpt lat="45.82782" lon="2.94746">
        <ele>1017</ele>
        <time>2021-05-23T11:36:29Z</time>
      </trkpt>
      <trkpt lat="45.82786" lon="2.94749">
        <ele>1017</ele>
        <time>2021-05-23T11:36:31Z</time>
      </trkpt>
      <trkpt lat="45.8279" lon="2.94753">
        <ele>1017</ele>
        <time>2021-05-23T11:36:33Z</time>
      </trkpt>
      <trkpt lat="45.82803" lon="2.94765">
        <ele>1017</ele>
        <time>2021-05-23T11:36:37Z</time>
      </trkpt>
      <trkpt lat="45.82807" lon="2.9477">
        <ele>1017</ele>
        <time>2021-05-23T11:36:41Z</time>
      </trkpt>
      <trkpt lat="45.82808" lon="2.9477">
        <ele>1017</ele>
        <time>2021-05-23T11:36:43Z</time>
      </trkpt>
      <trkpt lat="45.82814" lon="2.94781">
        <ele>1017</ele>
        <time>2021-05-23T11:36:58Z</time>
      </trkpt>
      <trkpt lat="45.82817" lon="2.94786">
        <ele>1017</ele>
        <time>2021-05-23T11:37:02Z</time>
      </trkpt>
      <trkpt lat="45.82818" lon="2.94786">
        <ele>1017</ele>
        <time>2021-05-23T11:37:04Z</time>
      </trkpt>
      <trkpt lat="45.82822" lon="2.94795">
        <ele>1017</ele>
        <time>2021-05-23T11:37:12Z</time>
      </trkpt>
      <trkpt lat="45.82823" lon="2.94797">
        <ele>1017</ele>
        <time>2021-05-23T11:37:14Z</time>
      </trkpt>
      <trkpt lat="45.82825" lon="2.948">
        <ele>1017</ele>
        <time>2021-05-23T11:37:16Z</time>
      </trkpt>
      <trkpt lat="45.82828" lon="2.94805">
        <ele>1017</ele>
        <time>2021-05-23T11:37:18Z</time>
      </trkpt>
      <trkpt lat="45.82831" lon="2.94812">
        <ele>1017</ele>
        <time>2021-05-23T11:37:20Z</time>
      </trkpt>
      <trkpt lat="45.82834" lon="2.94818">
        <ele>1017</ele>
        <time>2021-05-23T11:37:22Z</time>
      </trkpt>
      <trkpt lat="45.82836" lon="2.94823">
        <ele>1017</ele>
        <time>2021-05-23T11:37:24Z</time>
      </trkpt>
      <trkpt lat="45.82843" lon="2.94837">
        <ele>1017</ele>
        <time>2021-05-23T11:37:28Z</time>
      </trkpt>
      <trkpt lat="45.82848" lon="2.94845">
        <ele>1017</ele>
        <time>2021-05-23T11:37:36Z</time>
      </trkpt>
      <trkpt lat="45.82854" lon="2.94854">
        <ele>1017</ele>
        <time>2021-05-23T11:37:46Z</time>
      </trkpt>
      <trkpt lat="45.82855" lon="2.94856">
        <ele>1017</ele>
        <time>2021-05-23T11:37:48Z</time>
      </trkpt>
      <trkpt lat="45.82863" lon="2.94868">
        <ele>1017</ele>
        <time>2021-05-23T11:37:52Z</time>
      </trkpt>
      <trkpt lat="45.82867" lon="2.94873">
        <ele>1017</ele>
        <time>2021-05-23T11:37:58Z</time>
      </trkpt>
      <trkpt lat="45.82869" lon="2.94878">
        <ele>1017</ele>
        <time>2021-05-23T11:38:02Z</time>
      </trkpt>
      <trkpt lat="45.8287" lon="2.9488">
        <ele>1017</ele>
        <time>2021-05-23T11:38:04Z</time>
      </trkpt>
      <trkpt lat="45.82871" lon="2.94882">
        <ele>1017</ele>
        <time>2021-05-23T11:38:06Z</time>
      </trkpt>
      <trkpt lat="45.82877" lon="2.94897">
        <ele>1017</ele>
        <time>2021-05-23T11:38:16Z</time>
      </trkpt>
      <trkpt lat="45.82877" lon="2.94899">
        <ele>1017</ele>
        <time>2021-05-23T11:38:18Z</time>
      </trkpt>
      <trkpt lat="45.82878" lon="2.94902">
        <ele>1017</ele>
        <time>2021-05-23T11:38:20Z</time>
      </trkpt>
      <trkpt lat="45.8288" lon="2.94906">
        <ele>1017</ele>
        <time>2021-05-23T11:38:22Z</time>
      </trkpt>
      <trkpt lat="45.82881" lon="2.9491">
        <ele>1017</ele>
        <time>2021-05-23T11:38:24Z</time>
      </trkpt>
      <trkpt lat="45.82895" lon="2.94929">
        <ele>1017</ele>
        <time>2021-05-23T11:38:30Z</time>
      </trkpt>
      <trkpt lat="45.82897" lon="2.94931">
        <ele>1017</ele>
        <time>2021-05-23T11:38:32Z</time>
      </trkpt>
      <trkpt lat="45.829" lon="2.94934">
        <ele>1017</ele>
        <time>2021-05-23T11:38:34Z</time>
      </trkpt>
      <trkpt lat="45.82902" lon="2.94938">
        <ele>1017</ele>
        <time>2021-05-23T11:38:36Z</time>
      </trkpt>
      <trkpt lat="45.82905" lon="2.94943">
        <ele>1017</ele>
        <time>2021-05-23T11:38:38Z</time>
      </trkpt>
      <trkpt lat="45.82908" lon="2.94948">
        <ele>1017</ele>
        <time>2021-05-23T11:38:40Z</time>
      </trkpt>
      <trkpt lat="45.82911" lon="2.94953">
        <ele>1017</ele>
        <time>2021-05-23T11:38:42Z</time>
      </trkpt>
      <trkpt lat="45.82914" lon="2.94958">
        <ele>1017</ele>
        <time>2021-05-23T11:38:44Z</time>
      </trkpt>
      <trkpt lat="45.82917" lon="2.94962">
        <ele>1017</ele>
        <time>2021-05-23T11:38:46Z</time>
      </trkpt>
      <trkpt lat="45.82919" lon="2.94967">
        <ele>1017</ele>
        <time>2021-05-23T11:38:48Z</time>
      </trkpt>
      <trkpt lat="45.82922" lon="2.94971">
        <ele>1017</ele>
        <time>2021-05-23T11:38:50Z</time>
      </trkpt>
      <trkpt lat="45.82924" lon="2.94975">
        <ele>1017</ele>
        <time>2021-05-23T11:38:52Z</time>
      </trkpt>
      <trkpt lat="45.82929" lon="2.94986">
        <ele>1017</ele>
        <time>2021-05-23T11:38:56Z</time>
      </trkpt>
      <trkpt lat="45.82929" lon="2.94987">
        <ele>1017</ele>
        <time>2021-05-23T11:38:58Z</time>
      </trkpt>
      <trkpt lat="45.8293" lon="2.94991">
        <ele>1017</ele>
        <time>2021-05-23T11:39:02Z</time>
      </trkpt>
      <trkpt lat="45.82937" lon="2.94993">
        <ele>1017</ele>
        <time>2021-05-23T11:39:06Z</time>
      </trkpt>
      <trkpt lat="45.82938" lon="2.94993">
        <ele>1017</ele>
        <time>2021-05-23T11:39:08Z</time>
      </trkpt>
      <trkpt lat="45.82945" lon="2.95002">
        <ele>1017</ele>
        <time>2021-05-23T11:39:18Z</time>
      </trkpt>
      <trkpt lat="45.82945" lon="2.95003">
        <ele>1017</ele>
        <time>2021-05-23T11:39:20Z</time>
      </trkpt>
      <trkpt lat="45.82946" lon="2.95007">
        <ele>1017</ele>
        <time>2021-05-23T11:39:22Z</time>
      </trkpt>
      <trkpt lat="45.82948" lon="2.95013">
        <ele>1017</ele>
        <time>2021-05-23T11:39:24Z</time>
      </trkpt>
      <trkpt lat="45.82951" lon="2.95018">
        <ele>1017</ele>
        <time>2021-05-23T11:39:26Z</time>
      </trkpt>
      <trkpt lat="45.82954" lon="2.95023">
        <ele>1017</ele>
        <time>2021-05-23T11:39:28Z</time>
      </trkpt>
      <trkpt lat="45.82957" lon="2.95027">
        <ele>1017</ele>
        <time>2021-05-23T11:39:30Z</time>
      </trkpt>
      <trkpt lat="45.8296" lon="2.95032">
        <ele>1017</ele>
        <time>2021-05-23T11:39:32Z</time>
      </trkpt>
      <trkpt lat="45.82963" lon="2.95036">
        <ele>1017</ele>
        <time>2021-05-23T11:39:34Z</time>
      </trkpt>
      <trkpt lat="45.82965" lon="2.95039">
        <ele>1017</ele>
        <time>2021-05-23T11:39:36Z</time>
      </trkpt>
      <trkpt lat="45.82967" lon="2.95042">
        <ele>1017</ele>
        <time>2021-05-23T11:39:38Z</time>
      </trkpt>
      <trkpt lat="45.82967" lon="2.95045">
        <ele>1017</ele>
        <time>2021-05-23T11:39:40Z</time>
      </trkpt>
      <trkpt lat="45.82966" lon="2.95048">
        <ele>1017</ele>
        <time>2021-05-23T11:39:42Z</time>
      </trkpt>
      <trkpt lat="45.82965" lon="2.9505">
        <ele>1017</ele>
        <time>2021-05-23T11:39:44Z</time>
      </trkpt>
      <trkpt lat="45.82958" lon="2.95059">
        <ele>1017</ele>
        <time>2021-05-23T11:39:48Z</time>
      </trkpt>
      <trkpt lat="45.82954" lon="2.95066">
        <ele>1017</ele>
        <time>2021-05-23T11:40:00Z</time>
      </trkpt>
      <trkpt lat="45.8295" lon="2.95072">
        <ele>1017</ele>
        <time>2021-05-23T11:40:04Z</time>
      </trkpt>
      <trkpt lat="45.82946" lon="2.95074">
        <ele>1017</ele>
        <time>2021-05-23T11:40:08Z</time>
      </trkpt>
      <trkpt lat="45.82945" lon="2.95076">
        <ele>1017</ele>
        <time>2021-05-23T11:40:10Z</time>
      </trkpt>
      <trkpt lat="45.82943" lon="2.95078">
        <ele>1017</ele>
        <time>2021-05-23T11:40:12Z</time>
      </trkpt>
      <trkpt lat="45.8294" lon="2.95082">
        <ele>1017</ele>
        <time>2021-05-23T11:40:14Z</time>
      </trkpt>
      <trkpt lat="45.8293" lon="2.95092">
        <ele>1017</ele>
        <time>2021-05-23T11:40:20Z</time>
      </trkpt>
      <trkpt lat="45.82929" lon="2.95093">
        <ele>1017</ele>
        <time>2021-05-23T11:40:22Z</time>
      </trkpt>
      <trkpt lat="45.82928" lon="2.95094">
        <ele>1017</ele>
        <time>2021-05-23T11:40:24Z</time>
      </trkpt>
      <trkpt lat="45.82916" lon="2.95105">
        <ele>1017</ele>
        <time>2021-05-23T11:40:42Z</time>
      </trkpt>
      <trkpt lat="45.82915" lon="2.95105">
        <ele>1017</ele>
        <time>2021-05-23T11:40:44Z</time>
      </trkpt>
      <trkpt lat="45.82909" lon="2.9511">
        <ele>1017</ele>
        <time>2021-05-23T11:40:48Z</time>
      </trkpt>
      <trkpt lat="45.82908" lon="2.9511">
        <ele>1017</ele>
        <time>2021-05-23T11:40:50Z</time>
      </trkpt>
      <trkpt lat="45.82908" lon="2.95111">
        <ele>1017</ele>
        <time>2021-05-23T11:40:52Z</time>
      </trkpt>
      <trkpt lat="45.82904" lon="2.95113">
        <ele>1017</ele>
        <time>2021-05-23T11:40:54Z</time>
      </trkpt>
      <trkpt lat="45.82901" lon="2.95114">
        <ele>1017</ele>
        <time>2021-05-23T11:40:56Z</time>
      </trkpt>
      <trkpt lat="45.82897" lon="2.95116">
        <ele>1017</ele>
        <time>2021-05-23T11:40:58Z</time>
      </trkpt>
      <trkpt lat="45.82894" lon="2.95117">
        <ele>1017</ele>
        <time>2021-05-23T11:41:00Z</time>
      </trkpt>
      <trkpt lat="45.82891" lon="2.95119">
        <ele>1017</ele>
        <time>2021-05-23T11:41:02Z</time>
      </trkpt>
      <trkpt lat="45.82888" lon="2.9512">
        <ele>1017</ele>
        <time>2021-05-23T11:41:04Z</time>
      </trkpt>
      <trkpt lat="45.82884" lon="2.95122">
        <ele>1017</ele>
        <time>2021-05-23T11:41:06Z</time>
      </trkpt>
      <trkpt lat="45.82874" lon="2.95128">
        <ele>1017</ele>
        <time>2021-05-23T11:41:15Z</time>
      </trkpt>
      <trkpt lat="45.82874" lon="2.95129">
        <ele>1017</ele>
        <time>2021-05-23T11:41:17Z</time>
      </trkpt>
      <trkpt lat="45.82872" lon="2.95129">
        <ele>1017</ele>
        <time>2021-05-23T11:41:19Z</time>
      </trkpt>
      <trkpt lat="45.82871" lon="2.95129">
        <ele>1017</ele>
        <time>2021-05-23T11:41:21Z</time>
      </trkpt>
      <trkpt lat="45.82868" lon="2.95129">
        <ele>1017</ele>
        <time>2021-05-23T11:41:23Z</time>
      </trkpt>
      <trkpt lat="45.82866" lon="2.95128">
        <ele>1017</ele>
        <time>2021-05-23T11:41:25Z</time>
      </trkpt>
      <trkpt lat="45.82863" lon="2.95129">
        <ele>1017</ele>
        <time>2021-05-23T11:41:27Z</time>
      </trkpt>
      <trkpt lat="45.82853" lon="2.9513">
        <ele>1017</ele>
        <time>2021-05-23T11:41:37Z</time>
      </trkpt>
      <trkpt lat="45.82848" lon="2.95129">
        <ele>1017</ele>
        <time>2021-05-23T11:41:45Z</time>
      </trkpt>
      <trkpt lat="45.82841" lon="2.95131">
        <ele>1017</ele>
        <time>2021-05-23T11:41:57Z</time>
      </trkpt>
      <trkpt lat="45.82839" lon="2.95131">
        <ele>1017</ele>
        <time>2021-05-23T11:41:59Z</time>
      </trkpt>
      <trkpt lat="45.82836" lon="2.95132">
        <ele>1017</ele>
        <time>2021-05-23T11:42:01Z</time>
      </trkpt>
      <trkpt lat="45.82822" lon="2.95135">
        <ele>1017</ele>
        <time>2021-05-23T11:42:11Z</time>
      </trkpt>
      <trkpt lat="45.82821" lon="2.95135">
        <ele>1017</ele>
        <time>2021-05-23T11:42:13Z</time>
      </trkpt>
      <trkpt lat="45.82812" lon="2.95138">
        <ele>1017</ele>
        <time>2021-05-23T11:42:17Z</time>
      </trkpt>
      <trkpt lat="45.82811" lon="2.95138">
        <ele>1017</ele>
        <time>2021-05-23T11:42:19Z</time>
      </trkpt>
      <trkpt lat="45.82803" lon="2.9514">
        <ele>1017</ele>
        <time>2021-05-23T11:42:27Z</time>
      </trkpt>
      <trkpt lat="45.82791" lon="2.95147">
        <ele>1017</ele>
        <time>2021-05-23T11:42:45Z</time>
      </trkpt>
      <trkpt lat="45.82789" lon="2.95148">
        <ele>1017</ele>
        <time>2021-05-23T11:42:47Z</time>
      </trkpt>
      <trkpt lat="45.82779" lon="2.95154">
        <ele>1017</ele>
        <time>2021-05-23T11:42:51Z</time>
      </trkpt>
      <trkpt lat="45.8277" lon="2.95157">
        <ele>1017</ele>
        <time>2021-05-23T11:43:03Z</time>
      </trkpt>
      <trkpt lat="45.82768" lon="2.95159">
        <ele>1017</ele>
        <time>2021-05-23T11:43:05Z</time>
      </trkpt>
      <trkpt lat="45.82764" lon="2.95161">
        <ele>1017</ele>
        <time>2021-05-23T11:43:07Z</time>
      </trkpt>
      <trkpt lat="45.82761" lon="2.95163">
        <ele>1017</ele>
        <time>2021-05-23T11:43:09Z</time>
      </trkpt>
      <trkpt lat="45.82749" lon="2.95173">
        <ele>1017</ele>
        <time>2021-05-23T11:43:15Z</time>
      </trkpt>
      <trkpt lat="45.82748" lon="2.95174">
        <ele>1017</ele>
        <time>2021-05-23T11:43:17Z</time>
      </trkpt>
      <trkpt lat="45.82746" lon="2.95176">
        <ele>1017</ele>
        <time>2021-05-23T11:43:19Z</time>
      </trkpt>
      <trkpt lat="45.82743" lon="2.95177">
        <ele>1017</ele>
        <time>2021-05-23T11:43:21Z</time>
      </trkpt>
      <trkpt lat="45.8274" lon="2.95178">
        <ele>1017</ele>
        <time>2021-05-23T11:43:23Z</time>
      </trkpt>
      <trkpt lat="45.82736" lon="2.9518">
        <ele>1017</ele>
        <time>2021-05-23T11:43:25Z</time>
      </trkpt>
      <trkpt lat="45.82733" lon="2.95181">
        <ele>1017</ele>
        <time>2021-05-23T11:43:27Z</time>
      </trkpt>
      <trkpt lat="45.82731" lon="2.95183">
        <ele>1017</ele>
        <time>2021-05-23T11:43:29Z</time>
      </trkpt>
      <trkpt lat="45.82729" lon="2.95185">
        <ele>1017</ele>
        <time>2021-05-23T11:43:31Z</time>
      </trkpt>
      <trkpt lat="45.82728" lon="2.95187">
        <ele>1017</ele>
        <time>2021-05-23T11:43:33Z</time>
      </trkpt>
      <trkpt lat="45.82726" lon="2.95189">
        <ele>1017</ele>
        <time>2021-05-23T11:43:35Z</time>
      </trkpt>
      <trkpt lat="45.82724" lon="2.95191">
        <ele>1017</ele>
        <time>2021-05-23T11:43:37Z</time>
      </trkpt>
      <trkpt lat="45.82722" lon="2.95192">
        <ele>1017</ele>
        <time>2021-05-23T11:43:39Z</time>
      </trkpt>
      <trkpt lat="45.82718" lon="2.95193">
        <ele>1017</ele>
        <time>2021-05-23T11:43:41Z</time>
      </trkpt>
      <trkpt lat="45.82715" lon="2.95193">
        <ele>1017</ele>
        <time>2021-05-23T11:43:43Z</time>
      </trkpt>
      <trkpt lat="45.82704" lon="2.95196">
        <ele>1017</ele>
        <time>2021-05-23T11:43:55Z</time>
      </trkpt>
      <trkpt lat="45.82701" lon="2.95197">
        <ele>1017</ele>
        <time>2021-05-23T11:44:01Z</time>
      </trkpt>
      <trkpt lat="45.82697" lon="2.95198">
        <ele>1017</ele>
        <time>2021-05-23T11:44:05Z</time>
      </trkpt>
      <trkpt lat="45.82695" lon="2.95199">
        <ele>1017</ele>
        <time>2021-05-23T11:44:07Z</time>
      </trkpt>
      <trkpt lat="45.82692" lon="2.95199">
        <ele>1017</ele>
        <time>2021-05-23T11:44:09Z</time>
      </trkpt>
      <trkpt lat="45.82689" lon="2.95201">
        <ele>1017</ele>
        <time>2021-05-23T11:44:11Z</time>
      </trkpt>
      <trkpt lat="45.82686" lon="2.95202">
        <ele>1017</ele>
        <time>2021-05-23T11:44:13Z</time>
      </trkpt>
      <trkpt lat="45.82684" lon="2.95204">
        <ele>1017</ele>
        <time>2021-05-23T11:44:15Z</time>
      </trkpt>
      <trkpt lat="45.82678" lon="2.95209">
        <ele>1017</ele>
        <time>2021-05-23T11:44:19Z</time>
      </trkpt>
      <trkpt lat="45.82673" lon="2.95211">
        <ele>1017</ele>
        <time>2021-05-23T11:44:27Z</time>
      </trkpt>
      <trkpt lat="45.82664" lon="2.95211">
        <ele>1017</ele>
        <time>2021-05-23T11:44:31Z</time>
      </trkpt>
      <trkpt lat="45.82661" lon="2.95211">
        <ele>1017</ele>
        <time>2021-05-23T11:44:35Z</time>
      </trkpt>
      <trkpt lat="45.82658" lon="2.95211">
        <ele>1017</ele>
        <time>2021-05-23T11:44:45Z</time>
      </trkpt>
      <trkpt lat="45.82657" lon="2.9521">
        <ele>1017</ele>
        <time>2021-05-23T11:44:47Z</time>
      </trkpt>
      <trkpt lat="45.82653" lon="2.95209">
        <ele>1017</ele>
        <time>2021-05-23T11:44:51Z</time>
      </trkpt>
      <trkpt lat="45.82652" lon="2.95209">
        <ele>1017</ele>
        <time>2021-05-23T11:44:53Z</time>
      </trkpt>
      <trkpt lat="45.82651" lon="2.95209">
        <ele>1017</ele>
        <time>2021-05-23T11:44:55Z</time>
      </trkpt>
      <trkpt lat="45.82649" lon="2.95208">
        <ele>1017</ele>
        <time>2021-05-23T11:44:57Z</time>
      </trkpt>
      <trkpt lat="45.82647" lon="2.95207">
        <ele>1017</ele>
        <time>2021-05-23T11:44:59Z</time>
      </trkpt>
      <trkpt lat="45.82646" lon="2.95205">
        <ele>1017</ele>
        <time>2021-05-23T11:45:01Z</time>
      </trkpt>
      <trkpt lat="45.82644" lon="2.95203">
        <ele>1017</ele>
        <time>2021-05-23T11:45:03Z</time>
      </trkpt>
      <trkpt lat="45.82642" lon="2.95202">
        <ele>1017</ele>
        <time>2021-05-23T11:45:05Z</time>
      </trkpt>
      <trkpt lat="45.82629" lon="2.95195">
        <ele>1017</ele>
        <time>2021-05-23T11:45:15Z</time>
      </trkpt>
      <trkpt lat="45.82628" lon="2.95194">
        <ele>1017</ele>
        <time>2021-05-23T11:45:17Z</time>
      </trkpt>
      <trkpt lat="45.82626" lon="2.95193">
        <ele>1017</ele>
        <time>2021-05-23T11:45:19Z</time>
      </trkpt>
      <trkpt lat="45.82622" lon="2.95191">
        <ele>1017</ele>
        <time>2021-05-23T11:45:21Z</time>
      </trkpt>
      <trkpt lat="45.82619" lon="2.9519">
        <ele>1017</ele>
        <time>2021-05-23T11:45:23Z</time>
      </trkpt>
      <trkpt lat="45.82616" lon="2.95188">
        <ele>1017</ele>
        <time>2021-05-23T11:45:25Z</time>
      </trkpt>
      <trkpt lat="45.82613" lon="2.95187">
        <ele>1017</ele>
        <time>2021-05-23T11:45:27Z</time>
      </trkpt>
      <trkpt lat="45.8261" lon="2.95185">
        <ele>1017</ele>
        <time>2021-05-23T11:45:28Z</time>
      </trkpt>
      <trkpt lat="45.82607" lon="2.95184">
        <ele>1017</ele>
        <time>2021-05-23T11:45:30Z</time>
      </trkpt>
      <trkpt lat="45.82604" lon="2.95183">
        <ele>1017</ele>
        <time>2021-05-23T11:45:32Z</time>
      </trkpt>
      <trkpt lat="45.82592" lon="2.95176">
        <ele>1017</ele>
        <time>2021-05-23T11:45:44Z</time>
      </trkpt>
      <trkpt lat="45.82592" lon="2.95175">
        <ele>1017</ele>
        <time>2021-05-23T11:45:46Z</time>
      </trkpt>
      <trkpt lat="45.8259" lon="2.95174">
        <ele>1017</ele>
        <time>2021-05-23T11:45:48Z</time>
      </trkpt>
      <trkpt lat="45.82579" lon="2.95168">
        <ele>1017</ele>
        <time>2021-05-23T11:45:56Z</time>
      </trkpt>
      <trkpt lat="45.82578" lon="2.95167">
        <ele>1017</ele>
        <time>2021-05-23T11:45:58Z</time>
      </trkpt>
      <trkpt lat="45.82575" lon="2.95165">
        <ele>1017</ele>
        <time>2021-05-23T11:46:00Z</time>
      </trkpt>
      <trkpt lat="45.82571" lon="2.95164">
        <ele>1017</ele>
        <time>2021-05-23T11:46:02Z</time>
      </trkpt>
      <trkpt lat="45.82568" lon="2.95163">
        <ele>1017</ele>
        <time>2021-05-23T11:46:04Z</time>
      </trkpt>
      <trkpt lat="45.82564" lon="2.95161">
        <ele>1017</ele>
        <time>2021-05-23T11:46:06Z</time>
      </trkpt>
      <trkpt lat="45.82561" lon="2.9516">
        <ele>1017</ele>
        <time>2021-05-23T11:46:08Z</time>
      </trkpt>
      <trkpt lat="45.82558" lon="2.95158">
        <ele>1017</ele>
        <time>2021-05-23T11:46:10Z</time>
      </trkpt>
      <trkpt lat="45.82556" lon="2.95157">
        <ele>1017</ele>
        <time>2021-05-23T11:46:12Z</time>
      </trkpt>
      <trkpt lat="45.82548" lon="2.95156">
        <ele>1017</ele>
        <time>2021-05-23T11:46:20Z</time>
      </trkpt>
      <trkpt lat="45.82547" lon="2.95155">
        <ele>1017</ele>
        <time>2021-05-23T11:46:36Z</time>
      </trkpt>
      <trkpt lat="45.82547" lon="2.95155">
        <ele>1017</ele>
        <time>2021-05-23T11:46:38Z</time>
      </trkpt>
      <trkpt lat="45.82543" lon="2.95154">
        <ele>1017</ele>
        <time>2021-05-23T11:46:44Z</time>
      </trkpt>
      <trkpt lat="45.82542" lon="2.95154">
        <ele>1017</ele>
        <time>2021-05-23T11:46:46Z</time>
      </trkpt>
      <trkpt lat="45.8254" lon="2.95155">
        <ele>1017</ele>
        <time>2021-05-23T11:46:48Z</time>
      </trkpt>
      <trkpt lat="45.82537" lon="2.95156">
        <ele>1017</ele>
        <time>2021-05-23T11:46:50Z</time>
      </trkpt>
      <trkpt lat="45.82535" lon="2.95156">
        <ele>1017</ele>
        <time>2021-05-23T11:46:52Z</time>
      </trkpt>
      <trkpt lat="45.82533" lon="2.95157">
        <ele>1017</ele>
        <time>2021-05-23T11:46:54Z</time>
      </trkpt>
      <trkpt lat="45.8253" lon="2.95158">
        <ele>1017</ele>
        <time>2021-05-23T11:46:56Z</time>
      </trkpt>
      <trkpt lat="45.82527" lon="2.95159">
        <ele>1017</ele>
        <time>2021-05-23T11:46:58Z</time>
      </trkpt>
      <trkpt lat="45.82525" lon="2.95159">
        <ele>1017</ele>
        <time>2021-05-23T11:47:00Z</time>
      </trkpt>
      <trkpt lat="45.82518" lon="2.95158">
        <ele>1017</ele>
        <time>2021-05-23T11:47:04Z</time>
      </trkpt>
      <trkpt lat="45.82518" lon="2.95157">
        <ele>1017</ele>
        <time>2021-05-23T11:47:06Z</time>
      </trkpt>
      <trkpt lat="45.82514" lon="2.95156">
        <ele>1017</ele>
        <time>2021-05-23T11:47:10Z</time>
      </trkpt>
      <trkpt lat="45.82513" lon="2.95156">
        <ele>1017</ele>
        <time>2021-05-23T11:47:12Z</time>
      </trkpt>
      <trkpt lat="45.82509" lon="2.95156">
        <ele>1017</ele>
        <time>2021-05-23T11:47:18Z</time>
      </trkpt>
      <trkpt lat="45.82506" lon="2.95147">
        <ele>1017</ele>
        <time>2021-05-23T11:47:32Z</time>
      </trkpt>
      <trkpt lat="45.82502" lon="2.95143">
        <ele>1017</ele>
        <time>2021-05-23T11:47:40Z</time>
      </trkpt>
      <trkpt lat="45.82502" lon="2.95143">
        <ele>1017</ele>
        <time>2021-05-23T11:47:42Z</time>
      </trkpt>
      <trkpt lat="45.82497" lon="2.95135">
        <ele>1017</ele>
        <time>2021-05-23T11:47:56Z</time>
      </trkpt>
      <trkpt lat="45.82496" lon="2.95134">
        <ele>1017</ele>
        <time>2021-05-23T11:47:58Z</time>
      </trkpt>
      <trkpt lat="45.8249" lon="2.95128">
        <ele>1017</ele>
        <time>2021-05-23T11:48:04Z</time>
      </trkpt>
      <trkpt lat="45.82486" lon="2.95125">
        <ele>1017</ele>
        <time>2021-05-23T11:48:08Z</time>
      </trkpt>
      <trkpt lat="45.82486" lon="2.95124">
        <ele>1017</ele>
        <time>2021-05-23T11:48:10Z</time>
      </trkpt>
      <trkpt lat="45.82485" lon="2.95122">
        <ele>1017</ele>
        <time>2021-05-23T11:48:12Z</time>
      </trkpt>
      <trkpt lat="45.82484" lon="2.95119">
        <ele>1017</ele>
        <time>2021-05-23T11:48:14Z</time>
      </trkpt>
      <trkpt lat="45.8248" lon="2.95106">
        <ele>1017</ele>
        <time>2021-05-23T11:48:18Z</time>
      </trkpt>
      <trkpt lat="45.82479" lon="2.95105">
        <ele>1017</ele>
        <time>2021-05-23T11:48:20Z</time>
      </trkpt>
      <trkpt lat="45.82478" lon="2.95103">
        <ele>1017</ele>
        <time>2021-05-23T11:48:22Z</time>
      </trkpt>
      <trkpt lat="45.82476" lon="2.951">
        <ele>1017</ele>
        <time>2021-05-23T11:48:24Z</time>
      </trkpt>
      <trkpt lat="45.82473" lon="2.95098">
        <ele>1017</ele>
        <time>2021-05-23T11:48:26Z</time>
      </trkpt>
      <trkpt lat="45.8247" lon="2.95096">
        <ele>1017</ele>
        <time>2021-05-23T11:48:28Z</time>
      </trkpt>
      <trkpt lat="45.82468" lon="2.95095">
        <ele>1017</ele>
        <time>2021-05-23T11:48:30Z</time>
      </trkpt>
      <trkpt lat="45.8246" lon="2.95093">
        <ele>1017</ele>
        <time>2021-05-23T11:48:34Z</time>
      </trkpt>
      <trkpt lat="45.8246" lon="2.95093">
        <ele>1017</ele>
        <time>2021-05-23T11:48:36Z</time>
      </trkpt>
      <trkpt lat="45.82459" lon="2.95093">
        <ele>1017</ele>
        <time>2021-05-23T11:48:38Z</time>
      </trkpt>
      <trkpt lat="45.82458" lon="2.95094">
        <ele>1017</ele>
        <time>2021-05-23T11:48:40Z</time>
      </trkpt>
      <trkpt lat="45.82456" lon="2.95094">
        <ele>1017</ele>
        <time>2021-05-23T11:48:42Z</time>
      </trkpt>
      <trkpt lat="45.82454" lon="2.95095">
        <ele>1017</ele>
        <time>2021-05-23T11:48:44Z</time>
      </trkpt>
      <trkpt lat="45.82452" lon="2.95095">
        <ele>1017</ele>
        <time>2021-05-23T11:48:46Z</time>
      </trkpt>
      <trkpt lat="45.82451" lon="2.95094">
        <ele>1017</ele>
        <time>2021-05-23T11:48:48Z</time>
      </trkpt>
      <trkpt lat="45.82449" lon="2.95094">
        <ele>1017</ele>
        <time>2021-05-23T11:48:50Z</time>
      </trkpt>
      <trkpt lat="45.82447" lon="2.95094">
        <ele>1017</ele>
        <time>2021-05-23T11:48:52Z</time>
      </trkpt>
      <trkpt lat="45.82445" lon="2.95094">
        <ele>1017</ele>
        <time>2021-05-23T11:48:54Z</time>
      </trkpt>
      <trkpt lat="45.82443" lon="2.95093">
        <ele>1017</ele>
        <time>2021-05-23T11:48:56Z</time>
      </trkpt>
      <trkpt lat="45.82437" lon="2.9509">
        <ele>1017</ele>
        <time>2021-05-23T11:49:00Z</time>
      </trkpt>
      <trkpt lat="45.82437" lon="2.9509">
        <ele>1017</ele>
        <time>2021-05-23T11:49:02Z</time>
      </trkpt>
      <trkpt lat="45.82436" lon="2.95089">
        <ele>1017</ele>
        <time>2021-05-23T11:49:04Z</time>
      </trkpt>
      <trkpt lat="45.82433" lon="2.95084">
        <ele>1017</ele>
        <time>2021-05-23T11:49:08Z</time>
      </trkpt>
      <trkpt lat="45.82432" lon="2.95083">
        <ele>1017</ele>
        <time>2021-05-23T11:49:10Z</time>
      </trkpt>
      <trkpt lat="45.82431" lon="2.95082">
        <ele>1017</ele>
        <time>2021-05-23T11:49:12Z</time>
      </trkpt>
      <trkpt lat="45.82427" lon="2.95078">
        <ele>1017</ele>
        <time>2021-05-23T11:49:16Z</time>
      </trkpt>
      <trkpt lat="45.82427" lon="2.95078">
        <ele>1017</ele>
        <time>2021-05-23T11:49:18Z</time>
      </trkpt>
      <trkpt lat="45.82423" lon="2.95072">
        <ele>1017</ele>
        <time>2021-05-23T11:49:22Z</time>
      </trkpt>
      <trkpt lat="45.82423" lon="2.95071">
        <ele>1017</ele>
        <time>2021-05-23T11:49:24Z</time>
      </trkpt>
      <trkpt lat="45.82423" lon="2.95069">
        <ele>1017</ele>
        <time>2021-05-23T11:49:26Z</time>
      </trkpt>
      <trkpt lat="45.82423" lon="2.95066">
        <ele>1017</ele>
        <time>2021-05-23T11:49:28Z</time>
      </trkpt>
      <trkpt lat="45.82424" lon="2.95064">
        <ele>1017</ele>
        <time>2021-05-23T11:49:30Z</time>
      </trkpt>
      <trkpt lat="45.82425" lon="2.95061">
        <ele>1017</ele>
        <time>2021-05-23T11:49:32Z</time>
      </trkpt>
      <trkpt lat="45.82425" lon="2.95059">
        <ele>1017</ele>
        <time>2021-05-23T11:49:34Z</time>
      </trkpt>
      <trkpt lat="45.82426" lon="2.95056">
        <ele>1017</ele>
        <time>2021-05-23T11:49:36Z</time>
      </trkpt>
      <trkpt lat="45.82427" lon="2.95054">
        <ele>1017</ele>
        <time>2021-05-23T11:49:38Z</time>
      </trkpt>
      <trkpt lat="45.82427" lon="2.95052">
        <ele>1017</ele>
        <time>2021-05-23T11:49:40Z</time>
      </trkpt>
      <trkpt lat="45.8243" lon="2.95047">
        <ele>1017</ele>
        <time>2021-05-23T11:49:43Z</time>
      </trkpt>
      <trkpt lat="45.8243" lon="2.95046">
        <ele>1017</ele>
        <time>2021-05-23T11:49:45Z</time>
      </trkpt>
      <trkpt lat="45.82431" lon="2.95045">
        <ele>1017</ele>
        <time>2021-05-23T11:49:47Z</time>
      </trkpt>
      <trkpt lat="45.82431" lon="2.95044">
        <ele>1017</ele>
        <time>2021-05-23T11:49:49Z</time>
      </trkpt>
      <trkpt lat="45.82432" lon="2.95032">
        <ele>1017</ele>
        <time>2021-05-23T11:49:53Z</time>
      </trkpt>
      <trkpt lat="45.82432" lon="2.95031">
        <ele>1017</ele>
        <time>2021-05-23T11:49:55Z</time>
      </trkpt>
      <trkpt lat="45.82432" lon="2.9503">
        <ele>1017</ele>
        <time>2021-05-23T11:49:57Z</time>
      </trkpt>
      <trkpt lat="45.82432" lon="2.95028">
        <ele>1017</ele>
        <time>2021-05-23T11:49:59Z</time>
      </trkpt>
      <trkpt lat="45.82431" lon="2.95026">
        <ele>1017</ele>
        <time>2021-05-23T11:50:01Z</time>
      </trkpt>
      <trkpt lat="45.82431" lon="2.95024">
        <ele>1017</ele>
        <time>2021-05-23T11:50:03Z</time>
      </trkpt>
      <trkpt lat="45.82429" lon="2.95023">
        <ele>1017</ele>
        <time>2021-05-23T11:50:05Z</time>
      </trkpt>
      <trkpt lat="45.82428" lon="2.95022">
        <ele>1017</ele>
        <time>2021-05-23T11:50:07Z</time>
      </trkpt>
      <trkpt lat="45.82426" lon="2.95022">
        <ele>1017</ele>
        <time>2021-05-23T11:50:09Z</time>
      </trkpt>
      <trkpt lat="45.82424" lon="2.95021">
        <ele>1017</ele>
        <time>2021-05-23T11:50:11Z</time>
      </trkpt>
      <trkpt lat="45.82423" lon="2.95021">
        <ele>1017</ele>
        <time>2021-05-23T11:50:13Z</time>
      </trkpt>
      <trkpt lat="45.8242" lon="2.95021">
        <ele>1017</ele>
        <time>2021-05-23T11:50:15Z</time>
      </trkpt>
      <trkpt lat="45.82418" lon="2.95021">
        <ele>1017</ele>
        <time>2021-05-23T11:50:17Z</time>
      </trkpt>
      <trkpt lat="45.82417" lon="2.95021">
        <ele>1017</ele>
        <time>2021-05-23T11:50:19Z</time>
      </trkpt>
      <trkpt lat="45.82414" lon="2.95023">
        <ele>1017</ele>
        <time>2021-05-23T11:51:09Z</time>
      </trkpt>
      <trkpt lat="45.82414" lon="2.95023">
        <ele>1017</ele>
        <time>2021-05-23T11:51:10Z</time>
      </trkpt>
      <trkpt lat="45.82414" lon="2.95023">
        <ele>1017</ele>
        <time>2021-05-23T11:51:11Z</time>
      </trkpt>
      <trkpt lat="45.82411" lon="2.95024">
        <ele>1017</ele>
        <time>2021-05-23T11:51:18Z</time>
      </trkpt>
      <trkpt lat="45.82411" lon="2.95024">
        <ele>1017</ele>
        <time>2021-05-23T11:51:19Z</time>
      </trkpt>
      <trkpt lat="45.82411" lon="2.95026">
        <ele>1017</ele>
        <time>2021-05-23T11:51:22Z</time>
      </trkpt>
      <trkpt lat="45.82411" lon="2.95027">
        <ele>1017</ele>
        <time>2021-05-23T11:51:23Z</time>
      </trkpt>
      <trkpt lat="45.8241" lon="2.95027">
        <ele>1017</ele>
        <time>2021-05-23T11:51:24Z</time>
      </trkpt>
      <trkpt lat="45.8241" lon="2.95028">
        <ele>1017</ele>
        <time>2021-05-23T11:51:25Z</time>
      </trkpt>
      <trkpt lat="45.82409" lon="2.9503">
        <ele>1017</ele>
        <time>2021-05-23T11:51:26Z</time>
      </trkpt>
      <trkpt lat="45.82408" lon="2.95032">
        <ele>1017</ele>
        <time>2021-05-23T11:51:27Z</time>
      </trkpt>
      <trkpt lat="45.82407" lon="2.95033">
        <ele>1017</ele>
        <time>2021-05-23T11:51:28Z</time>
      </trkpt>
      <trkpt lat="45.82407" lon="2.95035">
        <ele>1017</ele>
        <time>2021-05-23T11:51:29Z</time>
      </trkpt>
      <trkpt lat="45.82406" lon="2.95038">
        <ele>1017</ele>
        <time>2021-05-23T11:51:32Z</time>
      </trkpt>
      <trkpt lat="45.82406" lon="2.95039">
        <ele>1017</ele>
        <time>2021-05-23T11:51:33Z</time>
      </trkpt>
      <trkpt lat="45.82405" lon="2.9504">
        <ele>1017</ele>
        <time>2021-05-23T11:51:34Z</time>
      </trkpt>
      <trkpt lat="45.82404" lon="2.95041">
        <ele>1017</ele>
        <time>2021-05-23T11:51:35Z</time>
      </trkpt>
      <trkpt lat="45.82402" lon="2.95047">
        <ele>1017</ele>
        <time>2021-05-23T11:51:56Z</time>
      </trkpt>
      <trkpt lat="45.82402" lon="2.95048">
        <ele>1017</ele>
        <time>2021-05-23T11:51:57Z</time>
      </trkpt>
      <trkpt lat="45.82402" lon="2.95048">
        <ele>1017</ele>
        <time>2021-05-23T11:51:58Z</time>
      </trkpt>
      <trkpt lat="45.82402" lon="2.95049">
        <ele>1017</ele>
        <time>2021-05-23T11:51:59Z</time>
      </trkpt>
      <trkpt lat="45.82402" lon="2.95049">
        <ele>1017</ele>
        <time>2021-05-23T11:52:00Z</time>
      </trkpt>
      <trkpt lat="45.82403" lon="2.95051">
        <ele>1017</ele>
        <time>2021-05-23T11:52:01Z</time>
      </trkpt>
      <trkpt lat="45.82404" lon="2.95052">
        <ele>1017</ele>
        <time>2021-05-23T11:52:02Z</time>
      </trkpt>
      <trkpt lat="45.82404" lon="2.95054">
        <ele>1017</ele>
        <time>2021-05-23T11:52:03Z</time>
      </trkpt>
      <trkpt lat="45.82404" lon="2.95056">
        <ele>1017</ele>
        <time>2021-05-23T11:52:04Z</time>
      </trkpt>
      <trkpt lat="45.82405" lon="2.95057">
        <ele>1017</ele>
        <time>2021-05-23T11:52:05Z</time>
      </trkpt>
      <trkpt lat="45.82405" lon="2.95059">
        <ele>1017</ele>
        <time>2021-05-23T11:52:06Z</time>
      </trkpt>
      <trkpt lat="45.82405" lon="2.95061">
        <ele>1017</ele>
        <time>2021-05-23T11:52:07Z</time>
      </trkpt>
      <trkpt lat="45.82405" lon="2.95063">
        <ele>1017</ele>
        <time>2021-05-23T11:52:08Z</time>
      </trkpt>
      <trkpt lat="45.82405" lon="2.95065">
        <ele>1017</ele>
        <time>2021-05-23T11:52:09Z</time>
      </trkpt>
      <trkpt lat="45.82405" lon="2.95068">
        <ele>1017</ele>
        <time>2021-05-23T11:52:10Z</time>
      </trkpt>
      <trkpt lat="45.82405" lon="2.9507">
        <ele>1017</ele>
        <time>2021-05-23T11:52:11Z</time>
      </trkpt>
      <trkpt lat="45.82405" lon="2.95071">
        <ele>1017</ele>
        <time>2021-05-23T11:52:12Z</time>
      </trkpt>
      <trkpt lat="45.82405" lon="2.95073">
        <ele>1017</ele>
        <time>2021-05-23T11:52:13Z</time>
      </trkpt>
      <trkpt lat="45.82404" lon="2.95074">
        <ele>1017</ele>
        <time>2021-05-23T11:52:14Z</time>
      </trkpt>
      <trkpt lat="45.82404" lon="2.95076">
        <ele>1017</ele>
        <time>2021-05-23T11:52:15Z</time>
      </trkpt>
      <trkpt lat="45.82405" lon="2.95078">
        <ele>1017</ele>
        <time>2021-05-23T11:52:16Z</time>
      </trkpt>
      <trkpt lat="45.82405" lon="2.95079">
        <ele>1017</ele>
        <time>2021-05-23T11:52:17Z</time>
      </trkpt>
      <trkpt lat="45.82405" lon="2.95081">
        <ele>1017</ele>
        <time>2021-05-23T11:52:18Z</time>
      </trkpt>
      <trkpt lat="45.82406" lon="2.95082">
        <ele>1017</ele>
        <time>2021-05-23T11:52:19Z</time>
      </trkpt>
      <trkpt lat="45.82406" lon="2.95084">
        <ele>1017</ele>
        <time>2021-05-23T11:52:20Z</time>
      </trkpt>
      <trkpt lat="45.82407" lon="2.95085">
        <ele>1017</ele>
        <time>2021-05-23T11:52:21Z</time>
      </trkpt>
      <trkpt lat="45.82407" lon="2.95087">
        <ele>1017</ele>
        <time>2021-05-23T11:52:22Z</time>
      </trkpt>
      <trkpt lat="45.82407" lon="2.95089">
        <ele>1017</ele>
        <time>2021-05-23T11:52:23Z</time>
      </trkpt>
      <trkpt lat="45.82408" lon="2.95091">
        <ele>1017</ele>
        <time>2021-05-23T11:52:24Z</time>
      </trkpt>
      <trkpt lat="45.82408" lon="2.95092">
        <ele>1017</ele>
        <time>2021-05-23T11:52:25Z</time>
      </trkpt>
      <trkpt lat="45.82408" lon="2.95095">
        <ele>1017</ele>
        <time>2021-05-23T11:52:26Z</time>
      </trkpt>
      <trkpt lat="45.82408" lon="2.95097">
        <ele>1017</ele>
        <time>2021-05-23T11:52:27Z</time>
      </trkpt>
      <trkpt lat="45.82408" lon="2.95098">
        <ele>1017</ele>
        <time>2021-05-23T11:52:28Z</time>
      </trkpt>
      <trkpt lat="45.82408" lon="2.951">
        <ele>1017</ele>
        <time>2021-05-23T11:52:29Z</time>
      </trkpt>
      <trkpt lat="45.82409" lon="2.95102">
        <ele>1017</ele>
        <time>2021-05-23T11:52:30Z</time>
      </trkpt>
      <trkpt lat="45.82409" lon="2.95104">
        <ele>1017</ele>
        <time>2021-05-23T11:52:31Z</time>
      </trkpt>
      <trkpt lat="45.82409" lon="2.95106">
        <ele>1017</ele>
        <time>2021-05-23T11:52:32Z</time>
      </trkpt>
      <trkpt lat="45.8241" lon="2.95108">
        <ele>1017</ele>
        <time>2021-05-23T11:52:33Z</time>
      </trkpt>
      <trkpt lat="45.8241" lon="2.9511">
        <ele>1017</ele>
        <time>2021-05-23T11:52:34Z</time>
      </trkpt>
      <trkpt lat="45.8241" lon="2.95112">
        <ele>1017</ele>
        <time>2021-05-23T11:52:35Z</time>
      </trkpt>
      <trkpt lat="45.82411" lon="2.95113">
        <ele>1017</ele>
        <time>2021-05-23T11:52:36Z</time>
      </trkpt>
      <trkpt lat="45.82411" lon="2.95115">
        <ele>1017</ele>
        <time>2021-05-23T11:52:37Z</time>
      </trkpt>
      <trkpt lat="45.82411" lon="2.95117">
        <ele>1017</ele>
        <time>2021-05-23T11:52:38Z</time>
      </trkpt>
      <trkpt lat="45.82411" lon="2.95119">
        <ele>1017</ele>
        <time>2021-05-23T11:52:39Z</time>
      </trkpt>
      <trkpt lat="45.82412" lon="2.95121">
        <ele>1017</ele>
        <time>2021-05-23T11:52:40Z</time>
      </trkpt>
      <trkpt lat="45.82412" lon="2.95123">
        <ele>1017</ele>
        <time>2021-05-23T11:52:41Z</time>
      </trkpt>
      <trkpt lat="45.82412" lon="2.95125">
        <ele>1017</ele>
        <time>2021-05-23T11:52:42Z</time>
      </trkpt>
      <trkpt lat="45.82412" lon="2.95127">
        <ele>1017</ele>
        <time>2021-05-23T11:52:43Z</time>
      </trkpt>
      <trkpt lat="45.82412" lon="2.95129">
        <ele>1017</ele>
        <time>2021-05-23T11:52:44Z</time>
      </trkpt>
      <trkpt lat="45.82413" lon="2.9513">
        <ele>1017</ele>
        <time>2021-05-23T11:52:45Z</time>
      </trkpt>
      <trkpt lat="45.82413" lon="2.95132">
        <ele>1017</ele>
        <time>2021-05-23T11:52:46Z</time>
      </trkpt>
      <trkpt lat="45.82413" lon="2.95133">
        <ele>1017</ele>
        <time>2021-05-23T11:52:47Z</time>
      </trkpt>
      <trkpt lat="45.82414" lon="2.95135">
        <ele>1017</ele>
        <time>2021-05-23T11:52:48Z</time>
      </trkpt>
      <trkpt lat="45.82414" lon="2.95136">
        <ele>1017</ele>
        <time>2021-05-23T11:52:49Z</time>
      </trkpt>
      <trkpt lat="45.82414" lon="2.95141">
        <ele>1017</ele>
        <time>2021-05-23T11:52:56Z</time>
      </trkpt>
      <trkpt lat="45.82414" lon="2.95141">
        <ele>1017</ele>
        <time>2021-05-23T11:52:57Z</time>
      </trkpt>
      <trkpt lat="45.82414" lon="2.95142">
        <ele>1017</ele>
        <time>2021-05-23T11:52:58Z</time>
      </trkpt>
      <trkpt lat="45.82414" lon="2.95142">
        <ele>1017</ele>
        <time>2021-05-23T11:52:59Z</time>
      </trkpt>
      <trkpt lat="45.82414" lon="2.95144">
        <ele>1017</ele>
        <time>2021-05-23T11:53:00Z</time>
      </trkpt>
      <trkpt lat="45.82414" lon="2.95145">
        <ele>1017</ele>
        <time>2021-05-23T11:53:01Z</time>
      </trkpt>
      <trkpt lat="45.82414" lon="2.95146">
        <ele>1017</ele>
        <time>2021-05-23T11:53:02Z</time>
      </trkpt>
      <trkpt lat="45.82414" lon="2.95148">
        <ele>1017</ele>
        <time>2021-05-23T11:53:03Z</time>
      </trkpt>
      <trkpt lat="45.82414" lon="2.95149">
        <ele>1017</ele>
        <time>2021-05-23T11:53:04Z</time>
      </trkpt>
      <trkpt lat="45.82414" lon="2.95151">
        <ele>1017</ele>
        <time>2021-05-23T11:53:05Z</time>
      </trkpt>
      <trkpt lat="45.82414" lon="2.95153">
        <ele>1017</ele>
        <time>2021-05-23T11:53:06Z</time>
      </trkpt>
      <trkpt lat="45.82414" lon="2.95154">
        <ele>1017</ele>
        <time>2021-05-23T11:53:07Z</time>
      </trkpt>
      <trkpt lat="45.82414" lon="2.95156">
        <ele>1017</ele>
        <time>2021-05-23T11:53:08Z</time>
      </trkpt>
      <trkpt lat="45.82414" lon="2.95158">
        <ele>1017</ele>
        <time>2021-05-23T11:53:09Z</time>
      </trkpt>
      <trkpt lat="45.82413" lon="2.95159">
        <ele>1017</ele>
        <time>2021-05-23T11:53:10Z</time>
      </trkpt>
      <trkpt lat="45.82412" lon="2.95161">
        <ele>1017</ele>
        <time>2021-05-23T11:53:11Z</time>
      </trkpt>
      <trkpt lat="45.82412" lon="2.95163">
        <ele>1017</ele>
        <time>2021-05-23T11:53:12Z</time>
      </trkpt>
      <trkpt lat="45.82412" lon="2.95165">
        <ele>1017</ele>
        <time>2021-05-23T11:53:13Z</time>
      </trkpt>
      <trkpt lat="45.82412" lon="2.95167">
        <ele>1017</ele>
        <time>2021-05-23T11:53:14Z</time>
      </trkpt>
      <trkpt lat="45.82411" lon="2.95169">
        <ele>1017</ele>
        <time>2021-05-23T11:53:15Z</time>
      </trkpt>
      <trkpt lat="45.82411" lon="2.95172">
        <ele>1017</ele>
        <time>2021-05-23T11:53:16Z</time>
      </trkpt>
      <trkpt lat="45.82411" lon="2.95174">
        <ele>1017</ele>
        <time>2021-05-23T11:53:17Z</time>
      </trkpt>
      <trkpt lat="45.82411" lon="2.95176">
        <ele>1017</ele>
        <time>2021-05-23T11:53:18Z</time>
      </trkpt>
      <trkpt lat="45.82412" lon="2.95178">
        <ele>1017</ele>
        <time>2021-05-23T11:53:19Z</time>
      </trkpt>
      <trkpt lat="45.82412" lon="2.9518">
        <ele>1017</ele>
        <time>2021-05-23T11:53:20Z</time>
      </trkpt>
      <trkpt lat="45.82412" lon="2.95182">
        <ele>1017</ele>
        <time>2021-05-23T11:53:21Z</time>
      </trkpt>
      <trkpt lat="45.82413" lon="2.95184">
        <ele>1017</ele>
        <time>2021-05-23T11:53:22Z</time>
      </trkpt>
      <trkpt lat="45.82413" lon="2.95186">
        <ele>1017</ele>
        <time>2021-05-23T11:53:23Z</time>
      </trkpt>
      <trkpt lat="45.82414" lon="2.95187">
        <ele>1017</ele>
        <time>2021-05-23T11:53:24Z</time>
      </trkpt>
      <trkpt lat="45.82414" lon="2.95189">
        <ele>1017</ele>
        <time>2021-05-23T11:53:25Z</time>
      </trkpt>
      <trkpt lat="45.82414" lon="2.9519">
        <ele>1017</ele>
        <time>2021-05-23T11:53:26Z</time>
      </trkpt>
      <trkpt lat="45.82414" lon="2.95192">
        <ele>1017</ele>
        <time>2021-05-23T11:53:27Z</time>
      </trkpt>
      <trkpt lat="45.82414" lon="2.95193">
        <ele>1017</ele>
        <time>2021-05-23T11:53:28Z</time>
      </trkpt>
      <trkpt lat="45.82414" lon="2.95194">
        <ele>1017</ele>
        <time>2021-05-23T11:53:29Z</time>
      </trkpt>
      <trkpt lat="45.82415" lon="2.95196">
        <ele>1017</ele>
        <time>2021-05-23T11:53:30Z</time>
      </trkpt>
      <trkpt lat="45.82415" lon="2.95198">
        <ele>1017</ele>
        <time>2021-05-23T11:53:31Z</time>
      </trkpt>
      <trkpt lat="45.82415" lon="2.95199">
        <ele>1017</ele>
        <time>2021-05-23T11:53:32Z</time>
      </trkpt>
      <trkpt lat="45.82416" lon="2.952">
        <ele>1017</ele>
        <time>2021-05-23T11:53:33Z</time>
      </trkpt>
      <trkpt lat="45.82417" lon="2.95202">
        <ele>1017</ele>
        <time>2021-05-23T11:53:34Z</time>
      </trkpt>
      <trkpt lat="45.82417" lon="2.95204">
        <ele>1017</ele>
        <time>2021-05-23T11:53:35Z</time>
      </trkpt>
      <trkpt lat="45.82417" lon="2.95206">
        <ele>1017</ele>
        <time>2021-05-23T11:53:36Z</time>
      </trkpt>
      <trkpt lat="45.82417" lon="2.95208">
        <ele>1017</ele>
        <time>2021-05-23T11:53:37Z</time>
      </trkpt>
      <trkpt lat="45.82417" lon="2.95211">
        <ele>1017</ele>
        <time>2021-05-23T11:53:38Z</time>
      </trkpt>
      <trkpt lat="45.82417" lon="2.95213">
        <ele>1017</ele>
        <time>2021-05-23T11:53:39Z</time>
      </trkpt>
      <trkpt lat="45.82418" lon="2.95215">
        <ele>1017</ele>
        <time>2021-05-23T11:53:40Z</time>
      </trkpt>
      <trkpt lat="45.82418" lon="2.95218">
        <ele>1017</ele>
        <time>2021-05-23T11:53:41Z</time>
      </trkpt>
      <trkpt lat="45.82418" lon="2.9522">
        <ele>1017</ele>
        <time>2021-05-23T11:53:42Z</time>
      </trkpt>
      <trkpt lat="45.82419" lon="2.95222">
        <ele>1017</ele>
        <time>2021-05-23T11:53:43Z</time>
      </trkpt>
      <trkpt lat="45.8242" lon="2.95224">
        <ele>1017</ele>
        <time>2021-05-23T11:53:44Z</time>
      </trkpt>
      <trkpt lat="45.8242" lon="2.95227">
        <ele>1017</ele>
        <time>2021-05-23T11:53:45Z</time>
      </trkpt>
      <trkpt lat="45.8242" lon="2.95229">
        <ele>1017</ele>
        <time>2021-05-23T11:53:46Z</time>
      </trkpt>
      <trkpt lat="45.82421" lon="2.95231">
        <ele>1017</ele>
        <time>2021-05-23T11:53:47Z</time>
      </trkpt>
      <trkpt lat="45.82422" lon="2.95233">
        <ele>1017</ele>
        <time>2021-05-23T11:53:48Z</time>
      </trkpt>
      <trkpt lat="45.82423" lon="2.95235">
        <ele>1017</ele>
        <time>2021-05-23T11:53:49Z</time>
      </trkpt>
      <trkpt lat="45.82423" lon="2.95237">
        <ele>1017</ele>
        <time>2021-05-23T11:53:50Z</time>
      </trkpt>
      <trkpt lat="45.82424" lon="2.95238">
        <ele>1017</ele>
        <time>2021-05-23T11:53:51Z</time>
      </trkpt>
      <trkpt lat="45.82425" lon="2.9524">
        <ele>1017</ele>
        <time>2021-05-23T11:53:52Z</time>
      </trkpt>
      <trkpt lat="45.82426" lon="2.95242">
        <ele>1017</ele>
        <time>2021-05-23T11:53:53Z</time>
      </trkpt>
      <trkpt lat="45.82426" lon="2.95244">
        <ele>1017</ele>
        <time>2021-05-23T11:53:54Z</time>
      </trkpt>
      <trkpt lat="45.82427" lon="2.95246">
        <ele>1017</ele>
        <time>2021-05-23T11:53:55Z</time>
      </trkpt>
      <trkpt lat="45.82427" lon="2.95248">
        <ele>1017</ele>
        <time>2021-05-23T11:53:56Z</time>
      </trkpt>
      <trkpt lat="45.82427" lon="2.9525">
        <ele>1017</ele>
        <time>2021-05-23T11:53:57Z</time>
      </trkpt>
      <trkpt lat="45.82428" lon="2.95251">
        <ele>1017</ele>
        <time>2021-05-23T11:53:57Z</time>
      </trkpt>
      <trkpt lat="45.82431" lon="2.95262">
        <ele>1017</ele>
        <time>2021-05-23T11:54:01Z</time>
      </trkpt>
      <trkpt lat="45.82431" lon="2.95262">
        <ele>1017</ele>
        <time>2021-05-23T11:54:03Z</time>
      </trkpt>
      <trkpt lat="45.82432" lon="2.95263">
        <ele>1017</ele>
        <time>2021-05-23T11:54:05Z</time>
      </trkpt>
      <trkpt lat="45.82433" lon="2.95265">
        <ele>1017</ele>
        <time>2021-05-23T11:54:07Z</time>
      </trkpt>
      <trkpt lat="45.82433" lon="2.95268">
        <ele>1017</ele>
        <time>2021-05-23T11:54:09Z</time>
      </trkpt>
      <trkpt lat="45.82434" lon="2.95271">
        <ele>1017</ele>
        <time>2021-05-23T11:54:11Z</time>
      </trkpt>
      <trkpt lat="45.82435" lon="2.95274">
        <ele>1017</ele>
        <time>2021-05-23T11:54:13Z</time>
      </trkpt>
      <trkpt lat="45.82438" lon="2.95277">
        <ele>1017</ele>
        <time>2021-05-23T11:54:15Z</time>
      </trkpt>
      <trkpt lat="45.82439" lon="2.95279">
        <ele>1017</ele>
        <time>2021-05-23T11:54:17Z</time>
      </trkpt>
      <trkpt lat="45.82441" lon="2.95283">
        <ele>1017</ele>
        <time>2021-05-23T11:54:19Z</time>
      </trkpt>
      <trkpt lat="45.82443" lon="2.95287">
        <ele>1017</ele>
        <time>2021-05-23T11:54:21Z</time>
      </trkpt>
      <trkpt lat="45.82444" lon="2.9529">
        <ele>1017</ele>
        <time>2021-05-23T11:54:23Z</time>
      </trkpt>
      <trkpt lat="45.82446" lon="2.95293">
        <ele>1017</ele>
        <time>2021-05-23T11:54:25Z</time>
      </trkpt>
      <trkpt lat="45.82447" lon="2.95296">
        <ele>1017</ele>
        <time>2021-05-23T11:54:27Z</time>
      </trkpt>
      <trkpt lat="45.82447" lon="2.95299">
        <ele>1017</ele>
        <time>2021-05-23T11:54:29Z</time>
      </trkpt>
      <trkpt lat="45.82449" lon="2.95301">
        <ele>1017</ele>
        <time>2021-05-23T11:54:31Z</time>
      </trkpt>
      <trkpt lat="45.82451" lon="2.95304">
        <ele>1017</ele>
        <time>2021-05-23T11:54:33Z</time>
      </trkpt>
      <trkpt lat="45.82452" lon="2.95306">
        <ele>1017</ele>
        <time>2021-05-23T11:54:35Z</time>
      </trkpt>
      <trkpt lat="45.82454" lon="2.95309">
        <ele>1017</ele>
        <time>2021-05-23T11:54:37Z</time>
      </trkpt>
      <trkpt lat="45.82455" lon="2.95311">
        <ele>1017</ele>
        <time>2021-05-23T11:54:39Z</time>
      </trkpt>
      <trkpt lat="45.82457" lon="2.95313">
        <ele>1017</ele>
        <time>2021-05-23T11:54:41Z</time>
      </trkpt>
      <trkpt lat="45.82459" lon="2.95316">
        <ele>1017</ele>
        <time>2021-05-23T11:54:43Z</time>
      </trkpt>
      <trkpt lat="45.8246" lon="2.95317">
        <ele>1017</ele>
        <time>2021-05-23T11:54:45Z</time>
      </trkpt>
      <trkpt lat="45.82462" lon="2.9532">
        <ele>1017</ele>
        <time>2021-05-23T11:54:47Z</time>
      </trkpt>
      <trkpt lat="45.82464" lon="2.95322">
        <ele>1017</ele>
        <time>2021-05-23T11:54:49Z</time>
      </trkpt>
      <trkpt lat="45.82465" lon="2.95324">
        <ele>1017</ele>
        <time>2021-05-23T11:54:51Z</time>
      </trkpt>
      <trkpt lat="45.82466" lon="2.95327">
        <ele>1017</ele>
        <time>2021-05-23T11:54:53Z</time>
      </trkpt>
      <trkpt lat="45.82468" lon="2.95329">
        <ele>1017</ele>
        <time>2021-05-23T11:54:55Z</time>
      </trkpt>
      <trkpt lat="45.82471" lon="2.95336">
        <ele>1017</ele>
        <time>2021-05-23T11:54:59Z</time>
      </trkpt>
      <trkpt lat="45.82471" lon="2.95336">
        <ele>1017</ele>
        <time>2021-05-23T11:55:01Z</time>
      </trkpt>
      <trkpt lat="45.82472" lon="2.95337">
        <ele>1017</ele>
        <time>2021-05-23T11:55:03Z</time>
      </trkpt>
      <trkpt lat="45.82474" lon="2.95343">
        <ele>1017</ele>
        <time>2021-05-23T11:55:07Z</time>
      </trkpt>
      <trkpt lat="45.82475" lon="2.95347">
        <ele>1017</ele>
        <time>2021-05-23T11:55:11Z</time>
      </trkpt>
      <trkpt lat="45.82475" lon="2.95348">
        <ele>1017</ele>
        <time>2021-05-23T11:55:13Z</time>
      </trkpt>
      <trkpt lat="45.82475" lon="2.95348">
        <ele>1017</ele>
        <time>2021-05-23T11:55:15Z</time>
      </trkpt>
      <trkpt lat="45.82476" lon="2.95349">
        <ele>1017</ele>
        <time>2021-05-23T11:55:17Z</time>
      </trkpt>
      <trkpt lat="45.82478" lon="2.95351">
        <ele>1017</ele>
        <time>2021-05-23T11:55:19Z</time>
      </trkpt>
      <trkpt lat="45.8248" lon="2.95353">
        <ele>1017</ele>
        <time>2021-05-23T11:55:21Z</time>
      </trkpt>
      <trkpt lat="45.82481" lon="2.95355">
        <ele>1017</ele>
        <time>2021-05-23T11:55:23Z</time>
      </trkpt>
      <trkpt lat="45.82483" lon="2.95357">
        <ele>1017</ele>
        <time>2021-05-23T11:55:25Z</time>
      </trkpt>
      <trkpt lat="45.82484" lon="2.95358">
        <ele>1017</ele>
        <time>2021-05-23T11:55:57Z</time>
      </trkpt>
      <trkpt lat="45.82485" lon="2.95358">
        <ele>1017</ele>
        <time>2021-05-23T11:55:59Z</time>
      </trkpt>
      <trkpt lat="45.82486" lon="2.9536">
        <ele>1017</ele>
        <time>2021-05-23T11:56:01Z</time>
      </trkpt>
      <trkpt lat="45.82486" lon="2.95362">
        <ele>1017</ele>
        <time>2021-05-23T11:56:03Z</time>
      </trkpt>
      <trkpt lat="45.82486" lon="2.95365">
        <ele>1017</ele>
        <time>2021-05-23T11:56:05Z</time>
      </trkpt>
      <trkpt lat="45.82488" lon="2.95367">
        <ele>1017</ele>
        <time>2021-05-23T11:56:07Z</time>
      </trkpt>
      <trkpt lat="45.82488" lon="2.9537">
        <ele>1017</ele>
        <time>2021-05-23T11:56:09Z</time>
      </trkpt>
      <trkpt lat="45.82489" lon="2.95373">
        <ele>1017</ele>
        <time>2021-05-23T11:56:11Z</time>
      </trkpt>
      <trkpt lat="45.82489" lon="2.95376">
        <ele>1017</ele>
        <time>2021-05-23T11:56:13Z</time>
      </trkpt>
      <trkpt lat="45.82489" lon="2.9538">
        <ele>1017</ele>
        <time>2021-05-23T11:56:15Z</time>
      </trkpt>
      <trkpt lat="45.8249" lon="2.95384">
        <ele>1017</ele>
        <time>2021-05-23T11:56:17Z</time>
      </trkpt>
      <trkpt lat="45.8249" lon="2.95386">
        <ele>1017</ele>
        <time>2021-05-23T11:56:19Z</time>
      </trkpt>
      <trkpt lat="45.82492" lon="2.95396">
        <ele>1017</ele>
        <time>2021-05-23T11:56:27Z</time>
      </trkpt>
      <trkpt lat="45.82493" lon="2.95397">
        <ele>1017</ele>
        <time>2021-05-23T11:56:29Z</time>
      </trkpt>
      <trkpt lat="45.82493" lon="2.95399">
        <ele>1017</ele>
        <time>2021-05-23T11:56:31Z</time>
      </trkpt>
      <trkpt lat="45.82493" lon="2.95402">
        <ele>1017</ele>
        <time>2021-05-23T11:56:33Z</time>
      </trkpt>
      <trkpt lat="45.82494" lon="2.95407">
        <ele>1017</ele>
        <time>2021-05-23T11:56:35Z</time>
      </trkpt>
      <trkpt lat="45.82494" lon="2.95412">
        <ele>1017</ele>
        <time>2021-05-23T11:56:37Z</time>
      </trkpt>
      <trkpt lat="45.82494" lon="2.95415">
        <ele>1017</ele>
        <time>2021-05-23T11:56:39Z</time>
      </trkpt>
      <trkpt lat="45.82495" lon="2.95428">
        <ele>1017</ele>
        <time>2021-05-23T11:56:45Z</time>
      </trkpt>
      <trkpt lat="45.82495" lon="2.95429">
        <ele>1017</ele>
        <time>2021-05-23T11:56:47Z</time>
      </trkpt>
      <trkpt lat="45.82495" lon="2.95431">
        <ele>1017</ele>
        <time>2021-05-23T11:56:49Z</time>
      </trkpt>
      <trkpt lat="45.82496" lon="2.95434">
        <ele>1017</ele>
        <time>2021-05-23T11:56:51Z</time>
      </trkpt>
      <trkpt lat="45.82496" lon="2.95439">
        <ele>1017</ele>
        <time>2021-05-23T11:56:53Z</time>
      </trkpt>
      <trkpt lat="45.82497" lon="2.95443">
        <ele>1017</ele>
        <time>2021-05-23T11:56:55Z</time>
      </trkpt>
      <trkpt lat="45.82498" lon="2.95448">
        <ele>1017</ele>
        <time>2021-05-23T11:56:57Z</time>
      </trkpt>
      <trkpt lat="45.82501" lon="2.95462">
        <ele>1017</ele>
        <time>2021-05-23T11:57:01Z</time>
      </trkpt>
      <trkpt lat="45.82501" lon="2.95462">
        <ele>1017</ele>
        <time>2021-05-23T11:57:03Z</time>
      </trkpt>
      <trkpt lat="45.82501" lon="2.95464">
        <ele>1017</ele>
        <time>2021-05-23T11:57:05Z</time>
      </trkpt>
      <trkpt lat="45.82501" lon="2.95467">
        <ele>1017</ele>
        <time>2021-05-23T11:57:07Z</time>
      </trkpt>
      <trkpt lat="45.82504" lon="2.95482">
        <ele>1017</ele>
        <time>2021-05-23T11:57:19Z</time>
      </trkpt>
      <trkpt lat="45.82504" lon="2.95484">
        <ele>1017</ele>
        <time>2021-05-23T11:57:21Z</time>
      </trkpt>
      <trkpt lat="45.82505" lon="2.95488">
        <ele>1017</ele>
        <time>2021-05-23T11:57:23Z</time>
      </trkpt>
      <trkpt lat="45.82506" lon="2.95502">
        <ele>1017</ele>
        <time>2021-05-23T11:57:27Z</time>
      </trkpt>
      <trkpt lat="45.82505" lon="2.95512">
        <ele>1017</ele>
        <time>2021-05-23T11:57:39Z</time>
      </trkpt>
      <trkpt lat="45.82505" lon="2.95514">
        <ele>1017</ele>
        <time>2021-05-23T11:57:41Z</time>
      </trkpt>
      <trkpt lat="45.82505" lon="2.95516">
        <ele>1017</ele>
        <time>2021-05-23T11:57:43Z</time>
      </trkpt>
      <trkpt lat="45.82505" lon="2.95519">
        <ele>1017</ele>
        <time>2021-05-23T11:57:45Z</time>
      </trkpt>
      <trkpt lat="45.82505" lon="2.95523">
        <ele>1017</ele>
        <time>2021-05-23T11:57:47Z</time>
      </trkpt>
      <trkpt lat="45.82507" lon="2.95534">
        <ele>1017</ele>
        <time>2021-05-23T11:57:53Z</time>
      </trkpt>
      <trkpt lat="45.82509" lon="2.95541">
        <ele>1017</ele>
        <time>2021-05-23T11:58:01Z</time>
      </trkpt>
      <trkpt lat="45.82509" lon="2.95543">
        <ele>1017</ele>
        <time>2021-05-23T11:58:03Z</time>
      </trkpt>
      <trkpt lat="45.82509" lon="2.95545">
        <ele>1017</ele>
        <time>2021-05-23T11:58:05Z</time>
      </trkpt>
      <trkpt lat="45.82511" lon="2.95548">
        <ele>1017</ele>
        <time>2021-05-23T11:58:07Z</time>
      </trkpt>
      <trkpt lat="45.82514" lon="2.95562">
        <ele>1017</ele>
        <time>2021-05-23T11:58:11Z</time>
      </trkpt>
      <trkpt lat="45.82514" lon="2.95564">
        <ele>1017</ele>
        <time>2021-05-23T11:58:12Z</time>
      </trkpt>
      <trkpt lat="45.82515" lon="2.95568">
        <ele>1017</ele>
        <time>2021-05-23T11:58:14Z</time>
      </trkpt>
      <trkpt lat="45.82515" lon="2.95574">
        <ele>1017</ele>
        <time>2021-05-23T11:58:16Z</time>
      </trkpt>
      <trkpt lat="45.82515" lon="2.95581">
        <ele>1017</ele>
        <time>2021-05-23T11:58:18Z</time>
      </trkpt>
      <trkpt lat="45.82516" lon="2.95597">
        <ele>1017</ele>
        <time>2021-05-23T11:58:22Z</time>
      </trkpt>
      <trkpt lat="45.82516" lon="2.95598">
        <ele>1017</ele>
        <time>2021-05-23T11:58:24Z</time>
      </trkpt>
      <trkpt lat="45.82516" lon="2.956">
        <ele>1017</ele>
        <time>2021-05-23T11:58:26Z</time>
      </trkpt>
      <trkpt lat="45.82516" lon="2.95602">
        <ele>1017</ele>
        <time>2021-05-23T11:58:28Z</time>
      </trkpt>
      <trkpt lat="45.82517" lon="2.95604">
        <ele>1017</ele>
        <time>2021-05-23T11:58:30Z</time>
      </trkpt>
      <trkpt lat="45.82518" lon="2.95605">
        <ele>1017</ele>
        <time>2021-05-23T11:58:32Z</time>
      </trkpt>
      <trkpt lat="45.82519" lon="2.95607">
        <ele>1017</ele>
        <time>2021-05-23T11:58:34Z</time>
      </trkpt>
      <trkpt lat="45.8252" lon="2.95608">
        <ele>1017</ele>
        <time>2021-05-23T11:58:36Z</time>
      </trkpt>
      <trkpt lat="45.82523" lon="2.95612">
        <ele>1017</ele>
        <time>2021-05-23T11:58:40Z</time>
      </trkpt>
      <trkpt lat="45.82526" lon="2.95613">
        <ele>1017</ele>
        <time>2021-05-23T11:58:44Z</time>
      </trkpt>
      <trkpt lat="45.82526" lon="2.95614">
        <ele>1017</ele>
        <time>2021-05-23T11:58:46Z</time>
      </trkpt>
      <trkpt lat="45.82529" lon="2.9562">
        <ele>1017</ele>
        <time>2021-05-23T11:58:54Z</time>
      </trkpt>
      <trkpt lat="45.82529" lon="2.9562">
        <ele>1017</ele>
        <time>2021-05-23T11:58:56Z</time>
      </trkpt>
      <trkpt lat="45.82529" lon="2.95622">
        <ele>1017</ele>
        <time>2021-05-23T11:58:58Z</time>
      </trkpt>
      <trkpt lat="45.8253" lon="2.95633">
        <ele>1017</ele>
        <time>2021-05-23T11:59:38Z</time>
      </trkpt>
      <trkpt lat="45.82528" lon="2.95648">
        <ele>1017</ele>
        <time>2021-05-23T12:01:19Z</time>
      </trkpt>
      <trkpt lat="45.82528" lon="2.95654">
        <ele>1017</ele>
        <time>2021-05-23T12:01:25Z</time>
      </trkpt>
      <trkpt lat="45.82529" lon="2.95655">
        <ele>1017</ele>
        <time>2021-05-23T12:01:27Z</time>
      </trkpt>
      <trkpt lat="45.82531" lon="2.95669">
        <ele>1017</ele>
        <time>2021-05-23T12:01:49Z</time>
      </trkpt>
      <trkpt lat="45.82531" lon="2.9567">
        <ele>1017</ele>
        <time>2021-05-23T12:01:51Z</time>
      </trkpt>
      <trkpt lat="45.82532" lon="2.95672">
        <ele>1017</ele>
        <time>2021-05-23T12:01:53Z</time>
      </trkpt>
      <trkpt lat="45.82534" lon="2.95683">
        <ele>1017</ele>
        <time>2021-05-23T12:02:01Z</time>
      </trkpt>
      <trkpt lat="45.82534" lon="2.95684">
        <ele>1017</ele>
        <time>2021-05-23T12:02:03Z</time>
      </trkpt>
      <trkpt lat="45.82532" lon="2.95691">
        <ele>1017</ele>
        <time>2021-05-23T12:02:07Z</time>
      </trkpt>
      <trkpt lat="45.82532" lon="2.95695">
        <ele>1017</ele>
        <time>2021-05-23T12:02:11Z</time>
      </trkpt>
      <trkpt lat="45.82532" lon="2.95699">
        <ele>1017</ele>
        <time>2021-05-23T12:02:15Z</time>
      </trkpt>
      <trkpt lat="45.82529" lon="2.95711">
        <ele>1017</ele>
        <time>2021-05-23T12:02:34Z</time>
      </trkpt>
      <trkpt lat="45.82528" lon="2.95714">
        <ele>1017</ele>
        <time>2021-05-23T12:02:36Z</time>
      </trkpt>
      <trkpt lat="45.82522" lon="2.95729">
        <ele>1017</ele>
        <time>2021-05-23T12:02:40Z</time>
      </trkpt>
      <trkpt lat="45.8252" lon="2.95739">
        <ele>1017</ele>
        <time>2021-05-23T12:02:54Z</time>
      </trkpt>
      <trkpt lat="45.82518" lon="2.9575">
        <ele>1017</ele>
        <time>2021-05-23T12:03:06Z</time>
      </trkpt>
      <trkpt lat="45.82515" lon="2.95765">
        <ele>1017</ele>
        <time>2021-05-23T12:03:22Z</time>
      </trkpt>
      <trkpt lat="45.82513" lon="2.95769">
        <ele>1017</ele>
        <time>2021-05-23T12:03:24Z</time>
      </trkpt>
      <trkpt lat="45.82505" lon="2.95798">
        <ele>1017</ele>
        <time>2021-05-23T12:03:42Z</time>
      </trkpt>
      <trkpt lat="45.82505" lon="2.95802">
        <ele>1017</ele>
        <time>2021-05-23T12:03:46Z</time>
      </trkpt>
      <trkpt lat="45.82504" lon="2.95811">
        <ele>1017</ele>
        <time>2021-05-23T12:03:52Z</time>
      </trkpt>
      <trkpt lat="45.82504" lon="2.95812">
        <ele>1017</ele>
        <time>2021-05-23T12:03:54Z</time>
      </trkpt>
      <trkpt lat="45.82501" lon="2.95813">
        <ele>1017</ele>
        <time>2021-05-23T12:04:46Z</time>
      </trkpt>
      <trkpt lat="45.82499" lon="2.95813">
        <ele>1017</ele>
        <time>2021-05-23T12:04:50Z</time>
      </trkpt>
      <trkpt lat="45.82493" lon="2.95807">
        <ele>1017</ele>
        <time>2021-05-23T12:05:02Z</time>
      </trkpt>
      <trkpt lat="45.82489" lon="2.95794">
        <ele>1017</ele>
        <time>2021-05-23T12:05:22Z</time>
      </trkpt>
      <trkpt lat="45.82489" lon="2.95792">
        <ele>1017</ele>
        <time>2021-05-23T12:05:24Z</time>
      </trkpt>
      <trkpt lat="45.82486" lon="2.95781">
        <ele>1017</ele>
        <time>2021-05-23T12:05:30Z</time>
      </trkpt>
      <trkpt lat="45.82485" lon="2.9578">
        <ele>1017</ele>
        <time>2021-05-23T12:05:32Z</time>
      </trkpt>
      <trkpt lat="45.82474" lon="2.95767">
        <ele>1017</ele>
        <time>2021-05-23T12:05:46Z</time>
      </trkpt>
      <trkpt lat="45.82473" lon="2.95766">
        <ele>1017</ele>
        <time>2021-05-23T12:05:48Z</time>
      </trkpt>
      <trkpt lat="45.8246" lon="2.95832">
        <ele>1017</ele>
        <time>2021-05-23T12:05:52Z</time>
      </trkpt>
      <trkpt lat="45.82457" lon="2.95834">
        <ele>1017</ele>
        <time>2021-05-23T12:05:54Z</time>
      </trkpt>
      <trkpt lat="45.82436" lon="2.9589">
        <ele>1017</ele>
        <time>2021-05-23T12:06:08Z</time>
      </trkpt>
      <trkpt lat="45.8241" lon="2.95927">
        <ele>1017</ele>
        <time>2021-05-23T12:06:12Z</time>
      </trkpt>
      <trkpt lat="45.82406" lon="2.95937">
        <ele>1017</ele>
        <time>2021-05-23T12:06:24Z</time>
      </trkpt>
      <trkpt lat="45.82406" lon="2.95938">
        <ele>1017</ele>
        <time>2021-05-23T12:06:26Z</time>
      </trkpt>
      <trkpt lat="45.82405" lon="2.95942">
        <ele>1017</ele>
        <time>2021-05-23T12:06:28Z</time>
      </trkpt>
      <trkpt lat="45.82404" lon="2.95946">
        <ele>1017</ele>
        <time>2021-05-23T12:06:30Z</time>
      </trkpt>
      <trkpt lat="45.82399" lon="2.95961">
        <ele>1017</ele>
        <time>2021-05-23T12:06:34Z</time>
      </trkpt>
      <trkpt lat="45.82399" lon="2.95968">
        <ele>1017</ele>
        <time>2021-05-23T12:06:40Z</time>
      </trkpt>
      <trkpt lat="45.82399" lon="2.95969">
        <ele>1017</ele>
        <time>2021-05-23T12:06:42Z</time>
      </trkpt>
      <trkpt lat="45.824" lon="2.95972">
        <ele>1017</ele>
        <time>2021-05-23T12:06:43Z</time>
      </trkpt>
      <trkpt lat="45.82401" lon="2.95976">
        <ele>1017</ele>
        <time>2021-05-23T12:06:45Z</time>
      </trkpt>
      <trkpt lat="45.82402" lon="2.9598">
        <ele>1017</ele>
        <time>2021-05-23T12:06:47Z</time>
      </trkpt>
      <trkpt lat="45.82403" lon="2.95984">
        <ele>1017</ele>
        <time>2021-05-23T12:06:49Z</time>
      </trkpt>
      <trkpt lat="45.82404" lon="2.95988">
        <ele>1017</ele>
        <time>2021-05-23T12:06:51Z</time>
      </trkpt>
      <trkpt lat="45.82405" lon="2.95993">
        <ele>1017</ele>
        <time>2021-05-23T12:06:53Z</time>
      </trkpt>
      <trkpt lat="45.82406" lon="2.95998">
        <ele>1017</ele>
        <time>2021-05-23T12:06:55Z</time>
      </trkpt>
      <trkpt lat="45.82409" lon="2.96009">
        <ele>1017</ele>
        <time>2021-05-23T12:06:59Z</time>
      </trkpt>
      <trkpt lat="45.82409" lon="2.9601">
        <ele>1017</ele>
        <time>2021-05-23T12:07:01Z</time>
      </trkpt>
      <trkpt lat="45.8241" lon="2.96012">
        <ele>1017</ele>
        <time>2021-05-23T12:07:03Z</time>
      </trkpt>
      <trkpt lat="45.82411" lon="2.96013">
        <ele>1017</ele>
        <time>2021-05-23T12:07:05Z</time>
      </trkpt>
      <trkpt lat="45.8242" lon="2.96023">
        <ele>1017</ele>
        <time>2021-05-23T12:07:21Z</time>
      </trkpt>
      <trkpt lat="45.82426" lon="2.96028">
        <ele>1017</ele>
        <time>2021-05-23T12:07:29Z</time>
      </trkpt>
      <trkpt lat="45.82428" lon="2.96029">
        <ele>1017</ele>
        <time>2021-05-23T12:07:31Z</time>
      </trkpt>
      <trkpt lat="45.8243" lon="2.96031">
        <ele>1017</ele>
        <time>2021-05-23T12:07:33Z</time>
      </trkpt>
      <trkpt lat="45.82442" lon="2.96041">
        <ele>1017</ele>
        <time>2021-05-23T12:07:39Z</time>
      </trkpt>
      <trkpt lat="45.82443" lon="2.96042">
        <ele>1017</ele>
        <time>2021-05-23T12:07:41Z</time>
      </trkpt>
      <trkpt lat="45.82445" lon="2.96044">
        <ele>1017</ele>
        <time>2021-05-23T12:07:43Z</time>
      </trkpt>
      <trkpt lat="45.82448" lon="2.96047">
        <ele>1017</ele>
        <time>2021-05-23T12:07:45Z</time>
      </trkpt>
      <trkpt lat="45.82451" lon="2.96049">
        <ele>1017</ele>
        <time>2021-05-23T12:07:47Z</time>
      </trkpt>
      <trkpt lat="45.82454" lon="2.96052">
        <ele>1017</ele>
        <time>2021-05-23T12:07:49Z</time>
      </trkpt>
      <trkpt lat="45.82457" lon="2.96055">
        <ele>1017</ele>
        <time>2021-05-23T12:07:51Z</time>
      </trkpt>
      <trkpt lat="45.82468" lon="2.96062">
        <ele>1017</ele>
        <time>2021-05-23T12:07:57Z</time>
      </trkpt>
      <trkpt lat="45.82469" lon="2.96063">
        <ele>1017</ele>
        <time>2021-05-23T12:07:59Z</time>
      </trkpt>
      <trkpt lat="45.82471" lon="2.96064">
        <ele>1017</ele>
        <time>2021-05-23T12:08:01Z</time>
      </trkpt>
      <trkpt lat="45.82474" lon="2.96066">
        <ele>1017</ele>
        <time>2021-05-23T12:08:03Z</time>
      </trkpt>
      <trkpt lat="45.82476" lon="2.96067">
        <ele>1017</ele>
        <time>2021-05-23T12:08:05Z</time>
      </trkpt>
      <trkpt lat="45.82483" lon="2.96076">
        <ele>1017</ele>
        <time>2021-05-23T12:08:13Z</time>
      </trkpt>
      <trkpt lat="45.82484" lon="2.96082">
        <ele>1017</ele>
        <time>2021-05-23T12:08:17Z</time>
      </trkpt>
      <trkpt lat="45.82486" lon="2.96085">
        <ele>1017</ele>
        <time>2021-05-23T12:08:19Z</time>
      </trkpt>
      <trkpt lat="45.82486" lon="2.96089">
        <ele>1017</ele>
        <time>2021-05-23T12:08:21Z</time>
      </trkpt>
      <trkpt lat="45.82492" lon="2.9611">
        <ele>1017</ele>
        <time>2021-05-23T12:08:27Z</time>
      </trkpt>
      <trkpt lat="45.82493" lon="2.96111">
        <ele>1017</ele>
        <time>2021-05-23T12:08:29Z</time>
      </trkpt>
      <trkpt lat="45.82493" lon="2.96114">
        <ele>1017</ele>
        <time>2021-05-23T12:08:31Z</time>
      </trkpt>
      <trkpt lat="45.82494" lon="2.96129">
        <ele>1017</ele>
        <time>2021-05-23T12:08:35Z</time>
      </trkpt>
      <trkpt lat="45.82493" lon="2.96131">
        <ele>1017</ele>
        <time>2021-05-23T12:08:37Z</time>
      </trkpt>
      <trkpt lat="45.82492" lon="2.96145">
        <ele>1017</ele>
        <time>2021-05-23T12:08:41Z</time>
      </trkpt>
      <trkpt lat="45.8249" lon="2.96158">
        <ele>1017</ele>
        <time>2021-05-23T12:08:47Z</time>
      </trkpt>
      <trkpt lat="45.8249" lon="2.96161">
        <ele>1017</ele>
        <time>2021-05-23T12:08:49Z</time>
      </trkpt>
      <trkpt lat="45.8249" lon="2.96164">
        <ele>1017</ele>
        <time>2021-05-23T12:08:51Z</time>
      </trkpt>
      <trkpt lat="45.82486" lon="2.96191">
        <ele>1017</ele>
        <time>2021-05-23T12:09:21Z</time>
      </trkpt>
      <trkpt lat="45.82486" lon="2.96192">
        <ele>1017</ele>
        <time>2021-05-23T12:09:23Z</time>
      </trkpt>
      <trkpt lat="45.82484" lon="2.96196">
        <ele>1017</ele>
        <time>2021-05-23T12:09:25Z</time>
      </trkpt>
      <trkpt lat="45.82482" lon="2.96201">
        <ele>1017</ele>
        <time>2021-05-23T12:09:27Z</time>
      </trkpt>
      <trkpt lat="45.82479" lon="2.96206">
        <ele>1017</ele>
        <time>2021-05-23T12:09:29Z</time>
      </trkpt>
      <trkpt lat="45.82477" lon="2.96211">
        <ele>1017</ele>
        <time>2021-05-23T12:09:31Z</time>
      </trkpt>
      <trkpt lat="45.82475" lon="2.96216">
        <ele>1017</ele>
        <time>2021-05-23T12:09:33Z</time>
      </trkpt>
      <trkpt lat="45.82472" lon="2.9622">
        <ele>1017</ele>
        <time>2021-05-23T12:09:35Z</time>
      </trkpt>
      <trkpt lat="45.82462" lon="2.96231">
        <ele>1017</ele>
        <time>2021-05-23T12:09:39Z</time>
      </trkpt>
      <trkpt lat="45.82456" lon="2.96232">
        <ele>1017</ele>
        <time>2021-05-23T12:09:43Z</time>
      </trkpt>
      <trkpt lat="45.82455" lon="2.96233">
        <ele>1017</ele>
        <time>2021-05-23T12:09:45Z</time>
      </trkpt>
      <trkpt lat="45.82452" lon="2.96232">
        <ele>1017</ele>
        <time>2021-05-23T12:09:47Z</time>
      </trkpt>
      <trkpt lat="45.8245" lon="2.96232">
        <ele>1017</ele>
        <time>2021-05-23T12:09:49Z</time>
      </trkpt>
      <trkpt lat="45.82447" lon="2.96232">
        <ele>1017</ele>
        <time>2021-05-23T12:09:51Z</time>
      </trkpt>
      <trkpt lat="45.82439" lon="2.9623">
        <ele>1017</ele>
        <time>2021-05-23T12:09:55Z</time>
      </trkpt>
      <trkpt lat="45.82428" lon="2.96228">
        <ele>1017</ele>
        <time>2021-05-23T12:10:09Z</time>
      </trkpt>
      <trkpt lat="45.82426" lon="2.96228">
        <ele>1017</ele>
        <time>2021-05-23T12:10:11Z</time>
      </trkpt>
      <trkpt lat="45.82423" lon="2.96227">
        <ele>1017</ele>
        <time>2021-05-23T12:10:13Z</time>
      </trkpt>
      <trkpt lat="45.82418" lon="2.96226">
        <ele>1017</ele>
        <time>2021-05-23T12:10:15Z</time>
      </trkpt>
      <trkpt lat="45.82403" lon="2.96225">
        <ele>1017</ele>
        <time>2021-05-23T12:10:21Z</time>
      </trkpt>
      <trkpt lat="45.82402" lon="2.96225">
        <ele>1017</ele>
        <time>2021-05-23T12:10:23Z</time>
      </trkpt>
      <trkpt lat="45.82401" lon="2.96224">
        <ele>1017</ele>
        <time>2021-05-23T12:10:25Z</time>
      </trkpt>
      <trkpt lat="45.82393" lon="2.96224">
        <ele>1017</ele>
        <time>2021-05-23T12:10:31Z</time>
      </trkpt>
      <trkpt lat="45.82392" lon="2.96224">
        <ele>1017</ele>
        <time>2021-05-23T12:10:33Z</time>
      </trkpt>
      <trkpt lat="45.82386" lon="2.96226">
        <ele>1017</ele>
        <time>2021-05-23T12:10:37Z</time>
      </trkpt>
      <trkpt lat="45.82386" lon="2.96226">
        <ele>1017</ele>
        <time>2021-05-23T12:10:39Z</time>
      </trkpt>
      <trkpt lat="45.82377" lon="2.96224">
        <ele>1017</ele>
        <time>2021-05-23T12:10:51Z</time>
      </trkpt>
      <trkpt lat="45.82371" lon="2.96226">
        <ele>1017</ele>
        <time>2021-05-23T12:10:55Z</time>
      </trkpt>
      <trkpt lat="45.82293" lon="2.96204">
        <ele>1017</ele>
        <time>2021-05-23T12:11:32Z</time>
      </trkpt>
      <trkpt lat="45.82293" lon="2.96204">
        <ele>1017</ele>
        <time>2021-05-23T12:11:33Z</time>
      </trkpt>
      <trkpt lat="45.82291" lon="2.96204">
        <ele>1017</ele>
        <time>2021-05-23T12:11:34Z</time>
      </trkpt>
      <trkpt lat="45.82288" lon="2.96201">
        <ele>1017</ele>
        <time>2021-05-23T12:11:39Z</time>
      </trkpt>
      <trkpt lat="45.82283" lon="2.96198">
        <ele>1017</ele>
        <time>2021-05-23T12:11:40Z</time>
      </trkpt>
      <trkpt lat="45.82279" lon="2.96195">
        <ele>1017</ele>
        <time>2021-05-23T12:11:41Z</time>
      </trkpt>
      <trkpt lat="45.82279" lon="2.96195">
        <ele>1017</ele>
        <time>2021-05-23T12:11:42Z</time>
      </trkpt>
      <trkpt lat="45.82278" lon="2.96195">
        <ele>1017</ele>
        <time>2021-05-23T12:11:43Z</time>
      </trkpt>
      <trkpt lat="45.82277" lon="2.96194">
        <ele>1017</ele>
        <time>2021-05-23T12:11:44Z</time>
      </trkpt>
      <trkpt lat="45.82276" lon="2.96194">
        <ele>1017</ele>
        <time>2021-05-23T12:11:45Z</time>
      </trkpt>
      <trkpt lat="45.82275" lon="2.96194">
        <ele>1017</ele>
        <time>2021-05-23T12:11:46Z</time>
      </trkpt>
      <trkpt lat="45.82274" lon="2.96194">
        <ele>1017</ele>
        <time>2021-05-23T12:11:47Z</time>
      </trkpt>
      <trkpt lat="45.82274" lon="2.96194">
        <ele>1017</ele>
        <time>2021-05-23T12:11:48Z</time>
      </trkpt>
      <trkpt lat="45.82272" lon="2.96194">
        <ele>1017</ele>
        <time>2021-05-23T12:11:49Z</time>
      </trkpt>
      <trkpt lat="45.82272" lon="2.96194">
        <ele>1017</ele>
        <time>2021-05-23T12:11:50Z</time>
      </trkpt>
      <trkpt lat="45.82266" lon="2.96195">
        <ele>1017</ele>
        <time>2021-05-23T12:11:58Z</time>
      </trkpt>
      <trkpt lat="45.82261" lon="2.96195">
        <ele>1017</ele>
        <time>2021-05-23T12:12:06Z</time>
      </trkpt>
      <trkpt lat="45.82261" lon="2.96195">
        <ele>1017</ele>
        <time>2021-05-23T12:12:07Z</time>
      </trkpt>
      <trkpt lat="45.82259" lon="2.96194">
        <ele>1017</ele>
        <time>2021-05-23T12:12:08Z</time>
      </trkpt>
      <trkpt lat="45.82258" lon="2.96194">
        <ele>1017</ele>
        <time>2021-05-23T12:12:09Z</time>
      </trkpt>
      <trkpt lat="45.82255" lon="2.96195">
        <ele>1017</ele>
        <time>2021-05-23T12:12:10Z</time>
      </trkpt>
      <trkpt lat="45.82252" lon="2.96195">
        <ele>1017</ele>
        <time>2021-05-23T12:12:11Z</time>
      </trkpt>
      <trkpt lat="45.82249" lon="2.96195">
        <ele>1017</ele>
        <time>2021-05-23T12:12:12Z</time>
      </trkpt>
      <trkpt lat="45.82245" lon="2.96195">
        <ele>1017</ele>
        <time>2021-05-23T12:12:13Z</time>
      </trkpt>
      <trkpt lat="45.82242" lon="2.96194">
        <ele>1017</ele>
        <time>2021-05-23T12:12:14Z</time>
      </trkpt>
      <trkpt lat="45.82239" lon="2.96194">
        <ele>1017</ele>
        <time>2021-05-23T12:12:15Z</time>
      </trkpt>
      <trkpt lat="45.82235" lon="2.96193">
        <ele>1017</ele>
        <time>2021-05-23T12:12:16Z</time>
      </trkpt>
      <trkpt lat="45.82232" lon="2.96193">
        <ele>1017</ele>
        <time>2021-05-23T12:12:17Z</time>
      </trkpt>
      <trkpt lat="45.8223" lon="2.96192">
        <ele>1017</ele>
        <time>2021-05-23T12:12:18Z</time>
      </trkpt>
      <trkpt lat="45.82227" lon="2.96192">
        <ele>1017</ele>
        <time>2021-05-23T12:12:19Z</time>
      </trkpt>
      <trkpt lat="45.82217" lon="2.9619">
        <ele>1017</ele>
        <time>2021-05-23T12:12:23Z</time>
      </trkpt>
      <trkpt lat="45.82216" lon="2.9619">
        <ele>1017</ele>
        <time>2021-05-23T12:12:24Z</time>
      </trkpt>
      <trkpt lat="45.82214" lon="2.96189">
        <ele>1017</ele>
        <time>2021-05-23T12:12:25Z</time>
      </trkpt>
      <trkpt lat="45.82208" lon="2.96186">
        <ele>1017</ele>
        <time>2021-05-23T12:12:29Z</time>
      </trkpt>
      <trkpt lat="45.82203" lon="2.96186">
        <ele>1017</ele>
        <time>2021-05-23T12:12:35Z</time>
      </trkpt>
      <trkpt lat="45.82202" lon="2.96186">
        <ele>1017</ele>
        <time>2021-05-23T12:12:36Z</time>
      </trkpt>
      <trkpt lat="45.82195" lon="2.96185">
        <ele>1017</ele>
        <time>2021-05-23T12:12:40Z</time>
      </trkpt>
      <trkpt lat="45.82194" lon="2.96184">
        <ele>1017</ele>
        <time>2021-05-23T12:12:41Z</time>
      </trkpt>
      <trkpt lat="45.82192" lon="2.96184">
        <ele>1017</ele>
        <time>2021-05-23T12:12:42Z</time>
      </trkpt>
      <trkpt lat="45.82182" lon="2.96182">
        <ele>1017</ele>
        <time>2021-05-23T12:12:47Z</time>
      </trkpt>
      <trkpt lat="45.8218" lon="2.96182">
        <ele>1017</ele>
        <time>2021-05-23T12:12:48Z</time>
      </trkpt>
      <trkpt lat="45.82178" lon="2.96181">
        <ele>1017</ele>
        <time>2021-05-23T12:12:49Z</time>
      </trkpt>
      <trkpt lat="45.82173" lon="2.96178">
        <ele>1017</ele>
        <time>2021-05-23T12:12:52Z</time>
      </trkpt>
      <trkpt lat="45.8217" lon="2.96179">
        <ele>1017</ele>
        <time>2021-05-23T12:12:56Z</time>
      </trkpt>
      <trkpt lat="45.82169" lon="2.96179">
        <ele>1017</ele>
        <time>2021-05-23T12:12:57Z</time>
      </trkpt>
      <trkpt lat="45.82165" lon="2.9618">
        <ele>1017</ele>
        <time>2021-05-23T12:13:00Z</time>
      </trkpt>
      <trkpt lat="45.82164" lon="2.96179">
        <ele>1017</ele>
        <time>2021-05-23T12:13:01Z</time>
      </trkpt>
      <trkpt lat="45.82158" lon="2.96177">
        <ele>1017</ele>
        <time>2021-05-23T12:13:07Z</time>
      </trkpt>
      <trkpt lat="45.82157" lon="2.96176">
        <ele>1017</ele>
        <time>2021-05-23T12:13:08Z</time>
      </trkpt>
      <trkpt lat="45.82155" lon="2.96176">
        <ele>1017</ele>
        <time>2021-05-23T12:13:09Z</time>
      </trkpt>
      <trkpt lat="45.82152" lon="2.96175">
        <ele>1017</ele>
        <time>2021-05-23T12:13:10Z</time>
      </trkpt>
      <trkpt lat="45.8215" lon="2.96174">
        <ele>1017</ele>
        <time>2021-05-23T12:13:11Z</time>
      </trkpt>
      <trkpt lat="45.82135" lon="2.9617">
        <ele>1017</ele>
        <time>2021-05-23T12:13:27Z</time>
      </trkpt>
      <trkpt lat="45.82134" lon="2.96169">
        <ele>1017</ele>
        <time>2021-05-23T12:13:29Z</time>
      </trkpt>
      <trkpt lat="45.82124" lon="2.96166">
        <ele>1017</ele>
        <time>2021-05-23T12:13:45Z</time>
      </trkpt>
      <trkpt lat="45.82122" lon="2.96166">
        <ele>1017</ele>
        <time>2021-05-23T12:13:47Z</time>
      </trkpt>
      <trkpt lat="45.82105" lon="2.96164">
        <ele>1017</ele>
        <time>2021-05-23T12:13:59Z</time>
      </trkpt>
      <trkpt lat="45.82104" lon="2.96164">
        <ele>1017</ele>
        <time>2021-05-23T12:14:01Z</time>
      </trkpt>
      <trkpt lat="45.82091" lon="2.96161">
        <ele>1017</ele>
        <time>2021-05-23T12:14:07Z</time>
      </trkpt>
      <trkpt lat="45.82085" lon="2.96158">
        <ele>1017</ele>
        <time>2021-05-23T12:14:17Z</time>
      </trkpt>
      <trkpt lat="45.82071" lon="2.96153">
        <ele>1017</ele>
        <time>2021-05-23T12:14:25Z</time>
      </trkpt>
      <trkpt lat="45.82069" lon="2.96152">
        <ele>1017</ele>
        <time>2021-05-23T12:14:27Z</time>
      </trkpt>
      <trkpt lat="45.82052" lon="2.96145">
        <ele>1017</ele>
        <time>2021-05-23T12:14:37Z</time>
      </trkpt>
      <trkpt lat="45.8205" lon="2.96145">
        <ele>1017</ele>
        <time>2021-05-23T12:14:39Z</time>
      </trkpt>
      <trkpt lat="45.82043" lon="2.9614">
        <ele>1017</ele>
        <time>2021-05-23T12:14:43Z</time>
      </trkpt>
      <trkpt lat="45.8204" lon="2.96138">
        <ele>1017</ele>
        <time>2021-05-23T12:14:45Z</time>
      </trkpt>
      <trkpt lat="45.82024" lon="2.96128">
        <ele>1017</ele>
        <time>2021-05-23T12:14:49Z</time>
      </trkpt>
      <trkpt lat="45.82022" lon="2.96127">
        <ele>1017</ele>
        <time>2021-05-23T12:14:51Z</time>
      </trkpt>
      <trkpt lat="45.82014" lon="2.96121">
        <ele>1017</ele>
        <time>2021-05-23T12:14:55Z</time>
      </trkpt>
      <trkpt lat="45.82003" lon="2.96117">
        <ele>1017</ele>
        <time>2021-05-23T12:14:59Z</time>
      </trkpt>
      <trkpt lat="45.82001" lon="2.96116">
        <ele>1017</ele>
        <time>2021-05-23T12:15:01Z</time>
      </trkpt>
      <trkpt lat="45.8199" lon="2.96108">
        <ele>1017</ele>
        <time>2021-05-23T12:15:09Z</time>
      </trkpt>
      <trkpt lat="45.81989" lon="2.96107">
        <ele>1017</ele>
        <time>2021-05-23T12:15:11Z</time>
      </trkpt>
      <trkpt lat="45.81986" lon="2.96105">
        <ele>1017</ele>
        <time>2021-05-23T12:15:12Z</time>
      </trkpt>
      <trkpt lat="45.81971" lon="2.96092">
        <ele>1017</ele>
        <time>2021-05-23T12:15:20Z</time>
      </trkpt>
      <trkpt lat="45.8197" lon="2.9609">
        <ele>1017</ele>
        <time>2021-05-23T12:15:22Z</time>
      </trkpt>
      <trkpt lat="45.81967" lon="2.96089">
        <ele>1017</ele>
        <time>2021-05-23T12:15:24Z</time>
      </trkpt>
      <trkpt lat="45.81964" lon="2.96086">
        <ele>1017</ele>
        <time>2021-05-23T12:15:26Z</time>
      </trkpt>
      <trkpt lat="45.8196" lon="2.96084">
        <ele>1017</ele>
        <time>2021-05-23T12:15:28Z</time>
      </trkpt>
      <trkpt lat="45.81957" lon="2.96082">
        <ele>1017</ele>
        <time>2021-05-23T12:15:30Z</time>
      </trkpt>
      <trkpt lat="45.81955" lon="2.96082">
        <ele>1017</ele>
        <time>2021-05-23T12:15:32Z</time>
      </trkpt>
      <trkpt lat="45.81947" lon="2.96077">
        <ele>1017</ele>
        <time>2021-05-23T12:15:36Z</time>
      </trkpt>
      <trkpt lat="45.81946" lon="2.96076">
        <ele>1017</ele>
        <time>2021-05-23T12:15:38Z</time>
      </trkpt>
      <trkpt lat="45.81943" lon="2.96077">
        <ele>1017</ele>
        <time>2021-05-23T12:15:44Z</time>
      </trkpt>
      <trkpt lat="45.81943" lon="2.96078">
        <ele>1017</ele>
        <time>2021-05-23T12:15:46Z</time>
      </trkpt>
      <trkpt lat="45.81942" lon="2.96081">
        <ele>1017</ele>
        <time>2021-05-23T12:15:48Z</time>
      </trkpt>
      <trkpt lat="45.81941" lon="2.96084">
        <ele>1017</ele>
        <time>2021-05-23T12:15:50Z</time>
      </trkpt>
      <trkpt lat="45.81936" lon="2.96096">
        <ele>1017</ele>
        <time>2021-05-23T12:15:54Z</time>
      </trkpt>
      <trkpt lat="45.81936" lon="2.96098">
        <ele>1017</ele>
        <time>2021-05-23T12:15:56Z</time>
      </trkpt>
      <trkpt lat="45.81935" lon="2.961">
        <ele>1017</ele>
        <time>2021-05-23T12:15:58Z</time>
      </trkpt>
      <trkpt lat="45.81933" lon="2.96103">
        <ele>1017</ele>
        <time>2021-05-23T12:16:00Z</time>
      </trkpt>
      <trkpt lat="45.81932" lon="2.96114">
        <ele>1017</ele>
        <time>2021-05-23T12:16:04Z</time>
      </trkpt>
      <trkpt lat="45.81932" lon="2.96115">
        <ele>1017</ele>
        <time>2021-05-23T12:16:06Z</time>
      </trkpt>
      <trkpt lat="45.81932" lon="2.96118">
        <ele>1017</ele>
        <time>2021-05-23T12:16:10Z</time>
      </trkpt>
      <trkpt lat="45.81931" lon="2.96118">
        <ele>1017</ele>
        <time>2021-05-23T12:16:12Z</time>
      </trkpt>
      <trkpt lat="45.81931" lon="2.96117">
        <ele>1017</ele>
        <time>2021-05-23T12:16:14Z</time>
      </trkpt>
      <trkpt lat="45.81929" lon="2.96115">
        <ele>1017</ele>
        <time>2021-05-23T12:16:18Z</time>
      </trkpt>
      <trkpt lat="45.81929" lon="2.96114">
        <ele>1017</ele>
        <time>2021-05-23T12:16:20Z</time>
      </trkpt>
      <trkpt lat="45.81926" lon="2.96114">
        <ele>1017</ele>
        <time>2021-05-23T12:16:22Z</time>
      </trkpt>
      <trkpt lat="45.81924" lon="2.96114">
        <ele>1017</ele>
        <time>2021-05-23T12:16:24Z</time>
      </trkpt>
      <trkpt lat="45.81922" lon="2.96112">
        <ele>1017</ele>
        <time>2021-05-23T12:16:26Z</time>
      </trkpt>
      <trkpt lat="45.81922" lon="2.96105">
        <ele>1017</ele>
        <time>2021-05-23T12:16:30Z</time>
      </trkpt>
      <trkpt lat="45.81922" lon="2.96104">
        <ele>1017</ele>
        <time>2021-05-23T12:16:32Z</time>
      </trkpt>
      <trkpt lat="45.81924" lon="2.96101">
        <ele>1017</ele>
        <time>2021-05-23T12:16:34Z</time>
      </trkpt>
      <trkpt lat="45.81926" lon="2.96098">
        <ele>1017</ele>
        <time>2021-05-23T12:16:36Z</time>
      </trkpt>
      <trkpt lat="45.81929" lon="2.96095">
        <ele>1017</ele>
        <time>2021-05-23T12:16:38Z</time>
      </trkpt>
      <trkpt lat="45.81932" lon="2.96093">
        <ele>1017</ele>
        <time>2021-05-23T12:16:40Z</time>
      </trkpt>
      <trkpt lat="45.81934" lon="2.96089">
        <ele>1017</ele>
        <time>2021-05-23T12:16:42Z</time>
      </trkpt>
      <trkpt lat="45.81935" lon="2.96087">
        <ele>1017</ele>
        <time>2021-05-23T12:16:44Z</time>
      </trkpt>
      <trkpt lat="45.81936" lon="2.96074">
        <ele>1017</ele>
        <time>2021-05-23T12:16:54Z</time>
      </trkpt>
      <trkpt lat="45.81936" lon="2.96072">
        <ele>1017</ele>
        <time>2021-05-23T12:16:56Z</time>
      </trkpt>
      <trkpt lat="45.81935" lon="2.9607">
        <ele>1017</ele>
        <time>2021-05-23T12:16:58Z</time>
      </trkpt>
      <trkpt lat="45.81922" lon="2.96056">
        <ele>1017</ele>
        <time>2021-05-23T12:17:12Z</time>
      </trkpt>
      <trkpt lat="45.8192" lon="2.96055">
        <ele>1017</ele>
        <time>2021-05-23T12:17:14Z</time>
      </trkpt>
      <trkpt lat="45.81915" lon="2.96052">
        <ele>1017</ele>
        <time>2021-05-23T12:17:16Z</time>
      </trkpt>
      <trkpt lat="45.81911" lon="2.96049">
        <ele>1017</ele>
        <time>2021-05-23T12:17:18Z</time>
      </trkpt>
      <trkpt lat="45.8189" lon="2.96036">
        <ele>1017</ele>
        <time>2021-05-23T12:17:26Z</time>
      </trkpt>
      <trkpt lat="45.8189" lon="2.96036">
        <ele>1017</ele>
        <time>2021-05-23T12:17:28Z</time>
      </trkpt>
      <trkpt lat="45.81888" lon="2.96034">
        <ele>1017</ele>
        <time>2021-05-23T12:17:30Z</time>
      </trkpt>
      <trkpt lat="45.81875" lon="2.96021">
        <ele>1017</ele>
        <time>2021-05-23T12:17:38Z</time>
      </trkpt>
      <trkpt lat="45.81873" lon="2.96019">
        <ele>1017</ele>
        <time>2021-05-23T12:17:40Z</time>
      </trkpt>
      <trkpt lat="45.81863" lon="2.96005">
        <ele>1017</ele>
        <time>2021-05-23T12:17:44Z</time>
      </trkpt>
      <trkpt lat="45.81862" lon="2.96004">
        <ele>1017</ele>
        <time>2021-05-23T12:17:46Z</time>
      </trkpt>
      <trkpt lat="45.81858" lon="2.96002">
        <ele>1017</ele>
        <time>2021-05-23T12:17:48Z</time>
      </trkpt>
      <trkpt lat="45.81855" lon="2.95999">
        <ele>1017</ele>
        <time>2021-05-23T12:17:50Z</time>
      </trkpt>
      <trkpt lat="45.8185" lon="2.95997">
        <ele>1017</ele>
        <time>2021-05-23T12:17:52Z</time>
      </trkpt>
      <trkpt lat="45.81838" lon="2.95989">
        <ele>1017</ele>
        <time>2021-05-23T12:18:00Z</time>
      </trkpt>
      <trkpt lat="45.81837" lon="2.95987">
        <ele>1017</ele>
        <time>2021-05-23T12:18:02Z</time>
      </trkpt>
      <trkpt lat="45.8183" lon="2.95979">
        <ele>1017</ele>
        <time>2021-05-23T12:18:12Z</time>
      </trkpt>
      <trkpt lat="45.81823" lon="2.95972">
        <ele>1017</ele>
        <time>2021-05-23T12:18:24Z</time>
      </trkpt>
      <trkpt lat="45.81822" lon="2.95971">
        <ele>1017</ele>
        <time>2021-05-23T12:18:26Z</time>
      </trkpt>
      <trkpt lat="45.81808" lon="2.95959">
        <ele>1017</ele>
        <time>2021-05-23T12:18:42Z</time>
      </trkpt>
      <trkpt lat="45.81807" lon="2.95958">
        <ele>1017</ele>
        <time>2021-05-23T12:18:44Z</time>
      </trkpt>
      <trkpt lat="45.81794" lon="2.95946">
        <ele>1017</ele>
        <time>2021-05-23T12:18:58Z</time>
      </trkpt>
      <trkpt lat="45.81782" lon="2.95936">
        <ele>1017</ele>
        <time>2021-05-23T12:19:06Z</time>
      </trkpt>
      <trkpt lat="45.81775" lon="2.95931">
        <ele>1017</ele>
        <time>2021-05-23T12:19:10Z</time>
      </trkpt>
      <trkpt lat="45.81772" lon="2.95929">
        <ele>1017</ele>
        <time>2021-05-23T12:19:12Z</time>
      </trkpt>
      <trkpt lat="45.81766" lon="2.95925">
        <ele>1017</ele>
        <time>2021-05-23T12:19:14Z</time>
      </trkpt>
      <trkpt lat="45.81759" lon="2.95921">
        <ele>1017</ele>
        <time>2021-05-23T12:19:16Z</time>
      </trkpt>
      <trkpt lat="45.81752" lon="2.95917">
        <ele>1017</ele>
        <time>2021-05-23T12:19:18Z</time>
      </trkpt>
      <trkpt lat="45.81746" lon="2.95913">
        <ele>1017</ele>
        <time>2021-05-23T12:19:20Z</time>
      </trkpt>
      <trkpt lat="45.81729" lon="2.95902">
        <ele>1017</ele>
        <time>2021-05-23T12:19:24Z</time>
      </trkpt>
      <trkpt lat="45.81728" lon="2.95902">
        <ele>1017</ele>
        <time>2021-05-23T12:19:26Z</time>
      </trkpt>
      <trkpt lat="45.81726" lon="2.959">
        <ele>1017</ele>
        <time>2021-05-23T12:19:27Z</time>
      </trkpt>
      <trkpt lat="45.81723" lon="2.95898">
        <ele>1017</ele>
        <time>2021-05-23T12:19:29Z</time>
      </trkpt>
      <trkpt lat="45.81719" lon="2.95895">
        <ele>1017</ele>
        <time>2021-05-23T12:19:31Z</time>
      </trkpt>
      <trkpt lat="45.8171" lon="2.95888">
        <ele>1017</ele>
        <time>2021-05-23T12:19:35Z</time>
      </trkpt>
      <trkpt lat="45.81706" lon="2.95888">
        <ele>1017</ele>
        <time>2021-05-23T12:19:39Z</time>
      </trkpt>
      <trkpt lat="45.81705" lon="2.95887">
        <ele>1017</ele>
        <time>2021-05-23T12:19:41Z</time>
      </trkpt>
      <trkpt lat="45.81703" lon="2.95887">
        <ele>1017</ele>
        <time>2021-05-23T12:19:43Z</time>
      </trkpt>
      <trkpt lat="45.817" lon="2.95887">
        <ele>1017</ele>
        <time>2021-05-23T12:19:45Z</time>
      </trkpt>
      <trkpt lat="45.81697" lon="2.95885">
        <ele>1017</ele>
        <time>2021-05-23T12:19:47Z</time>
      </trkpt>
      <trkpt lat="45.81694" lon="2.95883">
        <ele>1017</ele>
        <time>2021-05-23T12:19:49Z</time>
      </trkpt>
      <trkpt lat="45.81692" lon="2.95882">
        <ele>1017</ele>
        <time>2021-05-23T12:19:51Z</time>
      </trkpt>
      <trkpt lat="45.8169" lon="2.9588">
        <ele>1017</ele>
        <time>2021-05-23T12:19:53Z</time>
      </trkpt>
      <trkpt lat="45.81686" lon="2.95878">
        <ele>1017</ele>
        <time>2021-05-23T12:19:55Z</time>
      </trkpt>
      <trkpt lat="45.81683" lon="2.95876">
        <ele>1017</ele>
        <time>2021-05-23T12:19:57Z</time>
      </trkpt>
      <trkpt lat="45.81672" lon="2.9587">
        <ele>1017</ele>
        <time>2021-05-23T12:20:03Z</time>
      </trkpt>
      <trkpt lat="45.8167" lon="2.95869">
        <ele>1017</ele>
        <time>2021-05-23T12:20:05Z</time>
      </trkpt>
      <trkpt lat="45.81667" lon="2.95868">
        <ele>1017</ele>
        <time>2021-05-23T12:20:07Z</time>
      </trkpt>
      <trkpt lat="45.81662" lon="2.95862">
        <ele>1017</ele>
        <time>2021-05-23T12:20:09Z</time>
      </trkpt>
      <trkpt lat="45.81646" lon="2.95847">
        <ele>1017</ele>
        <time>2021-05-23T12:20:13Z</time>
      </trkpt>
      <trkpt lat="45.81645" lon="2.95847">
        <ele>1017</ele>
        <time>2021-05-23T12:20:15Z</time>
      </trkpt>
      <trkpt lat="45.81643" lon="2.95846">
        <ele>1017</ele>
        <time>2021-05-23T12:20:17Z</time>
      </trkpt>
      <trkpt lat="45.8164" lon="2.95845">
        <ele>1017</ele>
        <time>2021-05-23T12:20:19Z</time>
      </trkpt>
      <trkpt lat="45.81638" lon="2.95844">
        <ele>1017</ele>
        <time>2021-05-23T12:20:21Z</time>
      </trkpt>
      <trkpt lat="45.81636" lon="2.95843">
        <ele>1017</ele>
        <time>2021-05-23T12:20:23Z</time>
      </trkpt>
      <trkpt lat="45.81635" lon="2.95842">
        <ele>1017</ele>
        <time>2021-05-23T12:20:25Z</time>
      </trkpt>
      <trkpt lat="45.81633" lon="2.95842">
        <ele>1017</ele>
        <time>2021-05-23T12:20:27Z</time>
      </trkpt>
      <trkpt lat="45.8163" lon="2.95841">
        <ele>1017</ele>
        <time>2021-05-23T12:20:29Z</time>
      </trkpt>
      <trkpt lat="45.81622" lon="2.95839">
        <ele>1017</ele>
        <time>2021-05-23T12:20:33Z</time>
      </trkpt>
      <trkpt lat="45.81621" lon="2.95838">
        <ele>1017</ele>
        <time>2021-05-23T12:20:35Z</time>
      </trkpt>
      <trkpt lat="45.8162" lon="2.95838">
        <ele>1017</ele>
        <time>2021-05-23T12:20:37Z</time>
      </trkpt>
      <trkpt lat="45.81614" lon="2.95836">
        <ele>1017</ele>
        <time>2021-05-23T12:20:41Z</time>
      </trkpt>
      <trkpt lat="45.81614" lon="2.95835">
        <ele>1017</ele>
        <time>2021-05-23T12:20:43Z</time>
      </trkpt>
      <trkpt lat="45.81612" lon="2.95834">
        <ele>1017</ele>
        <time>2021-05-23T12:20:45Z</time>
      </trkpt>
      <trkpt lat="45.81609" lon="2.95833">
        <ele>1017</ele>
        <time>2021-05-23T12:20:47Z</time>
      </trkpt>
      <trkpt lat="45.816" lon="2.95827">
        <ele>1017</ele>
        <time>2021-05-23T12:20:55Z</time>
      </trkpt>
      <trkpt lat="45.81599" lon="2.95825">
        <ele>1017</ele>
        <time>2021-05-23T12:20:57Z</time>
      </trkpt>
      <trkpt lat="45.81597" lon="2.95824">
        <ele>1017</ele>
        <time>2021-05-23T12:20:59Z</time>
      </trkpt>
      <trkpt lat="45.81595" lon="2.95823">
        <ele>1017</ele>
        <time>2021-05-23T12:21:01Z</time>
      </trkpt>
      <trkpt lat="45.81592" lon="2.95822">
        <ele>1017</ele>
        <time>2021-05-23T12:21:03Z</time>
      </trkpt>
      <trkpt lat="45.81589" lon="2.95821">
        <ele>1017</ele>
        <time>2021-05-23T12:21:05Z</time>
      </trkpt>
      <trkpt lat="45.81585" lon="2.95819">
        <ele>1017</ele>
        <time>2021-05-23T12:21:07Z</time>
      </trkpt>
      <trkpt lat="45.8158" lon="2.95816">
        <ele>1017</ele>
        <time>2021-05-23T12:21:09Z</time>
      </trkpt>
      <trkpt lat="45.81577" lon="2.95814">
        <ele>1017</ele>
        <time>2021-05-23T12:21:11Z</time>
      </trkpt>
      <trkpt lat="45.81573" lon="2.95811">
        <ele>1017</ele>
        <time>2021-05-23T12:21:13Z</time>
      </trkpt>
      <trkpt lat="45.8157" lon="2.95808">
        <ele>1017</ele>
        <time>2021-05-23T12:21:15Z</time>
      </trkpt>
      <trkpt lat="45.81559" lon="2.95796">
        <ele>1017</ele>
        <time>2021-05-23T12:21:19Z</time>
      </trkpt>
      <trkpt lat="45.81558" lon="2.95795">
        <ele>1017</ele>
        <time>2021-05-23T12:21:21Z</time>
      </trkpt>
      <trkpt lat="45.81553" lon="2.9579">
        <ele>1017</ele>
        <time>2021-05-23T12:21:25Z</time>
      </trkpt>
      <trkpt lat="45.81551" lon="2.95788">
        <ele>1017</ele>
        <time>2021-05-23T12:21:31Z</time>
      </trkpt>
      <trkpt lat="45.81543" lon="2.95785">
        <ele>1017</ele>
        <time>2021-05-23T12:21:39Z</time>
      </trkpt>
      <trkpt lat="45.81537" lon="2.95781">
        <ele>1017</ele>
        <time>2021-05-23T12:21:45Z</time>
      </trkpt>
      <trkpt lat="45.81537" lon="2.95781">
        <ele>1017</ele>
        <time>2021-05-23T12:21:47Z</time>
      </trkpt>
      <trkpt lat="45.81531" lon="2.95778">
        <ele>1017</ele>
        <time>2021-05-23T12:21:51Z</time>
      </trkpt>
      <trkpt lat="45.8153" lon="2.95778">
        <ele>1017</ele>
        <time>2021-05-23T12:21:53Z</time>
      </trkpt>
      <trkpt lat="45.81527" lon="2.95777">
        <ele>1017</ele>
        <time>2021-05-23T12:21:55Z</time>
      </trkpt>
      <trkpt lat="45.81524" lon="2.95777">
        <ele>1017</ele>
        <time>2021-05-23T12:21:57Z</time>
      </trkpt>
      <trkpt lat="45.81521" lon="2.95776">
        <ele>1017</ele>
        <time>2021-05-23T12:21:59Z</time>
      </trkpt>
      <trkpt lat="45.81519" lon="2.95776">
        <ele>1017</ele>
        <time>2021-05-23T12:22:01Z</time>
      </trkpt>
      <trkpt lat="45.81516" lon="2.95774">
        <ele>1017</ele>
        <time>2021-05-23T12:22:03Z</time>
      </trkpt>
      <trkpt lat="45.81513" lon="2.95771">
        <ele>1017</ele>
        <time>2021-05-23T12:22:05Z</time>
      </trkpt>
      <trkpt lat="45.81509" lon="2.95768">
        <ele>1017</ele>
        <time>2021-05-23T12:22:06Z</time>
      </trkpt>
      <trkpt lat="45.81506" lon="2.95766">
        <ele>1017</ele>
        <time>2021-05-23T12:22:07Z</time>
      </trkpt>
      <trkpt lat="45.81503" lon="2.95764">
        <ele>1017</ele>
        <time>2021-05-23T12:22:08Z</time>
      </trkpt>
      <trkpt lat="45.815" lon="2.95761">
        <ele>1017</ele>
        <time>2021-05-23T12:22:09Z</time>
      </trkpt>
      <trkpt lat="45.81498" lon="2.9576">
        <ele>1017</ele>
        <time>2021-05-23T12:22:10Z</time>
      </trkpt>
      <trkpt lat="45.81496" lon="2.95758">
        <ele>1017</ele>
        <time>2021-05-23T12:22:11Z</time>
      </trkpt>
      <trkpt lat="45.81494" lon="2.95756">
        <ele>1017</ele>
        <time>2021-05-23T12:22:12Z</time>
      </trkpt>
      <trkpt lat="45.81492" lon="2.95755">
        <ele>1017</ele>
        <time>2021-05-23T12:22:13Z</time>
      </trkpt>
      <trkpt lat="45.8149" lon="2.95754">
        <ele>1017</ele>
        <time>2021-05-23T12:22:14Z</time>
      </trkpt>
      <trkpt lat="45.81488" lon="2.95753">
        <ele>1017</ele>
        <time>2021-05-23T12:22:15Z</time>
      </trkpt>
      <trkpt lat="45.81487" lon="2.95752">
        <ele>1017</ele>
        <time>2021-05-23T12:22:16Z</time>
      </trkpt>
      <trkpt lat="45.81485" lon="2.95751">
        <ele>1017</ele>
        <time>2021-05-23T12:22:17Z</time>
      </trkpt>
      <trkpt lat="45.81483" lon="2.9575">
        <ele>1017</ele>
        <time>2021-05-23T12:22:18Z</time>
      </trkpt>
      <trkpt lat="45.81482" lon="2.9575">
        <ele>1017</ele>
        <time>2021-05-23T12:22:19Z</time>
      </trkpt>
      <trkpt lat="45.8148" lon="2.95749">
        <ele>1017</ele>
        <time>2021-05-23T12:22:24Z</time>
      </trkpt>
      <trkpt lat="45.81479" lon="2.95748">
        <ele>1017</ele>
        <time>2021-05-23T12:22:25Z</time>
      </trkpt>
      <trkpt lat="45.81468" lon="2.95743">
        <ele>1017</ele>
        <time>2021-05-23T12:22:26Z</time>
      </trkpt>
      <trkpt lat="45.81468" lon="2.95743">
        <ele>1017</ele>
        <time>2021-05-23T12:22:27Z</time>
      </trkpt>
      <trkpt lat="45.81467" lon="2.95742">
        <ele>1017</ele>
        <time>2021-05-23T12:22:28Z</time>
      </trkpt>
    </trkseg>
  </trk>
</gpx>